﻿<?xml version="1.0" encoding="utf-8"?><gpx creator="Garmin Desktop App" version="1.1" xsi:schemaLocation="http://www.topografix.com/GPX/1/1 http://www.topografix.com/GPX/1/1/gpx.xsd http://www.garmin.com/xmlschemas/WaypointExtension/v1 http://www8.garmin.com/xmlschemas/WaypointExtensionv1.xsd http://www.garmin.com/xmlschemas/TrackPointExtension/v1 http://www.garmin.com/xmlschemas/TrackPointExtensionv1.xsd http://www.garmin.com/xmlschemas/GpxExtensions/v3 http://www8.garmin.com/xmlschemas/GpxExtensionsv3.xsd http://www.garmin.com/xmlschemas/ActivityExtension/v1 http://www8.garmin.com/xmlschemas/ActivityExtensionv1.xsd http://www.garmin.com/xmlschemas/AdventuresExtensions/v1 http://www8.garmin.com/xmlschemas/AdventuresExtensionv1.xsd http://www.garmin.com/xmlschemas/PressureExtension/v1 http://www.garmin.com/xmlschemas/PressureExtensionv1.xsd http://www.garmin.com/xmlschemas/TripExtensions/v1 http://www.garmin.com/xmlschemas/TripExtensionsv1.xsd http://www.garmin.com/xmlschemas/TripMetaDataExtensions/v1 http://www.garmin.com/xmlschemas/TripMetaDataExtensionsv1.xsd http://www.garmin.com/xmlschemas/ViaPointTransportationModeExtensions/v1 http://www.garmin.com/xmlschemas/ViaPointTransportationModeExtensionsv1.xsd http://www.garmin.com/xmlschemas/CreationTimeExtension/v1 http://www.garmin.com/xmlschemas/CreationTimeExtensionsv1.xsd http://www.garmin.com/xmlschemas/AccelerationExtension/v1 http://www.garmin.com/xmlschemas/AccelerationExtensionv1.xsd http://www.garmin.com/xmlschemas/PowerExtension/v1 http://www.garmin.com/xmlschemas/PowerExtensionv1.xsd http://www.garmin.com/xmlschemas/VideoExtension/v1 http://www.garmin.com/xmlschemas/VideoExtensionv1.xsd" xmlns="http://www.topografix.com/GPX/1/1" xmlns:xsi="http://www.w3.org/2001/XMLSchema-instance" xmlns:wptx1="http://www.garmin.com/xmlschemas/WaypointExtension/v1" xmlns:gpxtrx="http://www.garmin.com/xmlschemas/GpxExtensions/v3" xmlns:gpxtpx="http://www.garmin.com/xmlschemas/TrackPointExtension/v1" xmlns:gpxx="http://www.garmin.com/xmlschemas/GpxExtensions/v3" xmlns:trp="http://www.garmin.com/xmlschemas/TripExtensions/v1" xmlns:adv="http://www.garmin.com/xmlschemas/AdventuresExtensions/v1" xmlns:prs="http://www.garmin.com/xmlschemas/PressureExtension/v1" xmlns:tmd="http://www.garmin.com/xmlschemas/TripMetaDataExtensions/v1" xmlns:vptm="http://www.garmin.com/xmlschemas/ViaPointTransportationModeExtensions/v1" xmlns:ctx="http://www.garmin.com/xmlschemas/CreationTimeExtension/v1" xmlns:gpxacc="http://www.garmin.com/xmlschemas/AccelerationExtension/v1" xmlns:gpxpx="http://www.garmin.com/xmlschemas/PowerExtension/v1" xmlns:vidx1="http://www.garmin.com/xmlschemas/VideoExtension/v1">

  <metadata>
    <link href="http://www.garmin.com">
      <text>Garmin International</text>
    </link>
    <time>2018-05-31T06:05:50Z</time>
    <bounds maxlat="45.689450008794665" maxlon="8.062770003452897" minlat="45.663050031289458" minlon="8.016529977321625" />
  </metadata>

  <trk>
    <name>Cima delle Guardie</name>
    <extensions>
      <gpxx:TrackExtension>
        <gpxx:DisplayColor>Yellow</gpxx:DisplayColor>
      </gpxx:TrackExtension>
    </extensions>
    <trkseg>
      <trkpt lat="45.664179995656013" lon="8.062770003452897">
        <ele>1379.8299999999999</ele>
        <time>2011-11-01T07:21:20Z</time>
      </trkpt>
      <trkpt lat="45.66427999176085" lon="8.062630025669932">
        <ele>1379.5250000000001</ele>
        <time>2011-11-01T07:21:38Z</time>
      </trkpt>
      <trkpt lat="45.664319973438978" lon="8.06256003677845">
        <ele>1379.5250000000001</ele>
        <time>2011-11-01T07:21:53Z</time>
      </trkpt>
      <trkpt lat="45.664349980652332" lon="8.062419975176454">
        <ele>1381.354</ele>
        <time>2011-11-01T07:22:10Z</time>
      </trkpt>
      <trkpt lat="45.664379987865686" lon="8.062379993498325">
        <ele>1379.8299999999999</ele>
        <time>2011-11-01T07:22:43Z</time>
      </trkpt>
      <trkpt lat="45.664349980652332" lon="8.062400026246905">
        <ele>1381.049</ele>
        <time>2011-11-01T07:23:01Z</time>
      </trkpt>
      <trkpt lat="45.664349980652332" lon="8.062430033460259">
        <ele>1381.354</ele>
        <time>2011-11-01T07:23:05Z</time>
      </trkpt>
      <trkpt lat="45.664230035617948" lon="8.062589960172772">
        <ele>1383.4870000000001</ele>
        <time>2011-11-01T07:23:24Z</time>
      </trkpt>
      <trkpt lat="45.664230035617948" lon="8.06251997128129">
        <ele>1385.6210000000001</ele>
        <time>2011-11-01T07:23:43Z</time>
      </trkpt>
      <trkpt lat="45.664189970120788" lon="8.062440007925034">
        <ele>1388.9739999999999</ele>
        <time>2011-11-01T07:23:56Z</time>
      </trkpt>
      <trkpt lat="45.664149988442659" lon="8.062359960749745">
        <ele>1391.107</ele>
        <time>2011-11-01T07:24:09Z</time>
      </trkpt>
      <trkpt lat="45.664140013977885" lon="8.062240015715361">
        <ele>1393.8499999999999</ele>
        <time>2011-11-01T07:24:26Z</time>
      </trkpt>
      <trkpt lat="45.664179995656013" lon="8.062129961326718">
        <ele>1397.203</ele>
        <time>2011-11-01T07:24:41Z</time>
      </trkpt>
      <trkpt lat="45.664189970120788" lon="8.062010016292334">
        <ele>1400.251</ele>
        <time>2011-11-01T07:24:57Z</time>
      </trkpt>
      <trkpt lat="45.664200028404593" lon="8.061889987438917">
        <ele>1402.9939999999999</ele>
        <time>2011-11-01T07:25:14Z</time>
      </trkpt>
      <trkpt lat="45.664210002869368" lon="8.061720002442598">
        <ele>1405.433</ele>
        <time>2011-11-01T07:25:34Z</time>
      </trkpt>
      <trkpt lat="45.664219977334142" lon="8.061610031872988">
        <ele>1408.7860000000001</ele>
        <time>2011-11-01T07:25:49Z</time>
      </trkpt>
      <trkpt lat="45.664249984547496" lon="8.061499977484345">
        <ele>1410.3099999999999</ele>
        <time>2011-11-01T07:26:04Z</time>
      </trkpt>
      <trkpt lat="45.66427999176085" lon="8.061350025236607">
        <ele>1412.748</ele>
        <time>2011-11-01T07:26:24Z</time>
      </trkpt>
      <trkpt lat="45.664309998974204" lon="8.061239970847964">
        <ele>1416.1010000000001</ele>
        <time>2011-11-01T07:26:41Z</time>
      </trkpt>
      <trkpt lat="45.664289966225624" lon="8.061130000278354">
        <ele>1419.454</ele>
        <time>2011-11-01T07:26:57Z</time>
      </trkpt>
      <trkpt lat="45.664289966225624" lon="8.060979964211583">
        <ele>1422.1969999999999</ele>
        <time>2011-11-01T07:27:20Z</time>
      </trkpt>
      <trkpt lat="45.664289966225624" lon="8.060939982533455">
        <ele>1424.3299999999999</ele>
        <time>2011-11-01T07:27:26Z</time>
      </trkpt>
      <trkpt lat="45.664309998974204" lon="8.060839986428618">
        <ele>1426.4639999999999</ele>
        <time>2011-11-01T07:27:44Z</time>
      </trkpt>
      <trkpt lat="45.664360038936138" lon="8.060730015859008">
        <ele>1428.902</ele>
        <time>2011-11-01T07:28:01Z</time>
      </trkpt>
      <trkpt lat="45.664379987865686" lon="8.060530023649335">
        <ele>1428.902</ele>
        <time>2011-11-01T07:28:19Z</time>
      </trkpt>
      <trkpt lat="45.664360038936138" lon="8.060230035334826">
        <ele>1429.5119999999999</ele>
        <time>2011-11-01T07:28:40Z</time>
      </trkpt>
      <trkpt lat="45.664370013400912" lon="8.059929963201284">
        <ele>1428.902</ele>
        <time>2011-11-01T07:28:59Z</time>
      </trkpt>
      <trkpt lat="45.664289966225624" lon="8.059620000422001">
        <ele>1431.0360000000001</ele>
        <time>2011-11-01T07:29:21Z</time>
      </trkpt>
      <trkpt lat="45.664249984547496" lon="8.059299979358912">
        <ele>1428.902</ele>
        <time>2011-11-01T07:29:43Z</time>
      </trkpt>
      <trkpt lat="45.664200028404593" lon="8.059090012684465">
        <ele>1431.95</ele>
        <time>2011-11-01T07:30:01Z</time>
      </trkpt>
      <trkpt lat="45.664179995656013" lon="8.058969983831048">
        <ele>1433.4739999999999</ele>
        <time>2011-11-01T07:30:15Z</time>
      </trkpt>
      <trkpt lat="45.664179995656013" lon="8.058879962190986">
        <ele>1436.2180000000001</ele>
        <time>2011-11-01T07:30:27Z</time>
      </trkpt>
      <trkpt lat="45.664179995656013" lon="8.058720035478473">
        <ele>1439.5699999999999</ele>
        <time>2011-11-01T07:30:47Z</time>
      </trkpt>
      <trkpt lat="45.664170021191239" lon="8.058590032160282">
        <ele>1442.923</ele>
        <time>2011-11-01T07:31:03Z</time>
      </trkpt>
      <trkpt lat="45.664159962907434" lon="8.058449970558286">
        <ele>1445.971</ele>
        <time>2011-11-01T07:31:23Z</time>
      </trkpt>
      <trkpt lat="45.664179995656013" lon="8.058330025523901">
        <ele>1448.7139999999999</ele>
        <time>2011-11-01T07:31:41Z</time>
      </trkpt>
      <trkpt lat="45.664189970120788" lon="8.058240003883839">
        <ele>1452.067</ele>
        <time>2011-11-01T07:31:57Z</time>
      </trkpt>
      <trkpt lat="45.664210002869368" lon="8.058209996670485">
        <ele>1454.8099999999999</ele>
        <time>2011-11-01T07:32:04Z</time>
      </trkpt>
      <trkpt lat="45.664200028404593" lon="8.058119975030422">
        <ele>1456.3340000000001</ele>
        <time>2011-11-01T07:32:21Z</time>
      </trkpt>
      <trkpt lat="45.664170021191239" lon="8.05807001888752">
        <ele>1458.7729999999999</ele>
        <time>2011-11-01T07:32:34Z</time>
      </trkpt>
      <trkpt lat="45.664149988442659" lon="8.058040011674166">
        <ele>1462.126</ele>
        <time>2011-11-01T07:32:48Z</time>
      </trkpt>
      <trkpt lat="45.664130039513111" lon="8.057959964498878">
        <ele>1463.954</ele>
        <time>2011-11-01T07:33:05Z</time>
      </trkpt>
      <trkpt lat="45.664070025086403" lon="8.057959964498878">
        <ele>1467.002</ele>
        <time>2011-11-01T07:33:21Z</time>
      </trkpt>
      <trkpt lat="45.664059966802597" lon="8.057970022782683">
        <ele>1466.393</ele>
        <time>2011-11-01T07:33:39Z</time>
      </trkpt>
      <trkpt lat="45.664049992337823" lon="8.057970022782683">
        <ele>1467.307</ele>
        <time>2011-11-01T07:34:28Z</time>
      </trkpt>
      <trkpt lat="45.664070025086403" lon="8.057959964498878">
        <ele>1467.002</ele>
        <time>2011-11-01T07:34:45Z</time>
      </trkpt>
      <trkpt lat="45.664049992337823" lon="8.057889975607395">
        <ele>1468.8309999999999</ele>
        <time>2011-11-01T07:35:01Z</time>
      </trkpt>
      <trkpt lat="45.664049992337823" lon="8.057880001142621">
        <ele>1469.441</ele>
        <time>2011-11-01T07:35:02Z</time>
      </trkpt>
      <trkpt lat="45.664040017873049" lon="8.057759972289205">
        <ele>1471.8789999999999</ele>
        <time>2011-11-01T07:35:18Z</time>
      </trkpt>
      <trkpt lat="45.664019985124469" lon="8.057670034468174">
        <ele>1474.6220000000001</ele>
        <time>2011-11-01T07:35:34Z</time>
      </trkpt>
      <trkpt lat="45.664019985124469" lon="8.057540031149983">
        <ele>1477.6700000000001</ele>
        <time>2011-11-01T07:35:57Z</time>
      </trkpt>
      <trkpt lat="45.664010010659695" lon="8.057480016723275">
        <ele>1481.328</ele>
        <time>2011-11-01T07:36:10Z</time>
      </trkpt>
      <trkpt lat="45.664000036194921" lon="8.057389995083213">
        <ele>1484.376</ele>
        <time>2011-11-01T07:36:28Z</time>
      </trkpt>
      <trkpt lat="45.663970028981566" lon="8.057289998978376">
        <ele>1487.1189999999999</ele>
        <time>2011-11-01T07:36:46Z</time>
      </trkpt>
      <trkpt lat="45.663959970697761" lon="8.057220010086894">
        <ele>1489.558</ele>
        <time>2011-11-01T07:37:01Z</time>
      </trkpt>
      <trkpt lat="45.663919989019632" lon="8.057139962911606">
        <ele>1492.9100000000001</ele>
        <time>2011-11-01T07:37:17Z</time>
      </trkpt>
      <trkpt lat="45.663929963484406" lon="8.057090006768704">
        <ele>1494.739</ele>
        <time>2011-11-01T07:37:33Z</time>
      </trkpt>
      <trkpt lat="45.663959970697761" lon="8.057029992341995">
        <ele>1497.1780000000001</ele>
        <time>2011-11-01T07:37:50Z</time>
      </trkpt>
      <trkpt lat="45.663949996232986" lon="8.056969977915287">
        <ele>1500.2260000000001</ele>
        <time>2011-11-01T07:38:03Z</time>
      </trkpt>
      <trkpt lat="45.663989977911115" lon="8.056929996237159">
        <ele>1502.664</ele>
        <time>2011-11-01T07:38:19Z</time>
      </trkpt>
      <trkpt lat="45.664040017873049" lon="8.056850032880902">
        <ele>1505.4069999999999</ele>
        <time>2011-11-01T07:38:37Z</time>
      </trkpt>
      <trkpt lat="45.664049992337823" lon="8.056779960170388">
        <ele>1507.846</ele>
        <time>2011-11-01T07:38:53Z</time>
      </trkpt>
      <trkpt lat="45.664000036194921" lon="8.056720029562712">
        <ele>1509.674</ele>
        <time>2011-11-01T07:39:08Z</time>
      </trkpt>
      <trkpt lat="45.663970028981566" lon="8.056669989600778">
        <ele>1512.1130000000001</ele>
        <time>2011-11-01T07:39:22Z</time>
      </trkpt>
      <trkpt lat="45.663929963484406" lon="8.056620033457875">
        <ele>1515.4659999999999</ele>
        <time>2011-11-01T07:39:39Z</time>
      </trkpt>
      <trkpt lat="45.663910014554858" lon="8.056549960747361">
        <ele>1516.99</ele>
        <time>2011-11-01T07:39:56Z</time>
      </trkpt>
      <trkpt lat="45.663929963484406" lon="8.056500004604459">
        <ele>1519.7329999999999</ele>
        <time>2011-11-01T07:40:12Z</time>
      </trkpt>
      <trkpt lat="45.663940021768212" lon="8.056430015712977">
        <ele>1522.7809999999999</ele>
        <time>2011-11-01T07:40:29Z</time>
      </trkpt>
      <trkpt lat="45.663980003446341" lon="8.056379975751042">
        <ele>1524.6099999999999</ele>
        <time>2011-11-01T07:40:47Z</time>
      </trkpt>
      <trkpt lat="45.663949996232986" lon="8.056349968537688">
        <ele>1527.962</ele>
        <time>2011-11-01T07:41:00Z</time>
      </trkpt>
      <trkpt lat="45.663959970697761" lon="8.056279979646206">
        <ele>1529.7909999999999</ele>
        <time>2011-11-01T07:41:16Z</time>
      </trkpt>
      <trkpt lat="45.663980003446341" lon="8.056239997968078">
        <ele>1533.4490000000001</ele>
        <time>2011-11-01T07:41:32Z</time>
      </trkpt>
      <trkpt lat="45.664010010659695" lon="8.056200016289949">
        <ele>1534.6679999999999</ele>
        <time>2011-11-01T07:41:47Z</time>
      </trkpt>
      <trkpt lat="45.664059966802597" lon="8.056160034611821">
        <ele>1537.7159999999999</ele>
        <time>2011-11-01T07:42:05Z</time>
      </trkpt>
      <trkpt lat="45.664049992337823" lon="8.056100020185113">
        <ele>1541.069</ele>
        <time>2011-11-01T07:42:20Z</time>
      </trkpt>
      <trkpt lat="45.664040017873049" lon="8.056100020185113">
        <ele>1541.069</ele>
        <time>2011-11-01T07:42:21Z</time>
      </trkpt>
      <trkpt lat="45.664010010659695" lon="8.056030031293631">
        <ele>1542.288</ele>
        <time>2011-11-01T07:42:38Z</time>
      </trkpt>
      <trkpt lat="45.664000036194921" lon="8.055989965796471">
        <ele>1543.5070000000001</ele>
        <time>2011-11-01T07:42:54Z</time>
      </trkpt>
      <trkpt lat="45.664049992337823" lon="8.055940009653568">
        <ele>1546.8599999999999</ele>
        <time>2011-11-01T07:43:09Z</time>
      </trkpt>
      <trkpt lat="45.664049992337823" lon="8.055870020762086">
        <ele>1549.6030000000001</ele>
        <time>2011-11-01T07:43:24Z</time>
      </trkpt>
      <trkpt lat="45.664079999551177" lon="8.055810006335378">
        <ele>1552.6510000000001</ele>
        <time>2011-11-01T07:43:40Z</time>
      </trkpt>
      <trkpt lat="45.664079999551177" lon="8.05577002465725">
        <ele>1553.8699999999999</ele>
        <time>2011-11-01T07:43:55Z</time>
      </trkpt>
      <trkpt lat="45.664119981229305" lon="8.055759966373444">
        <ele>1556.309</ele>
        <time>2011-11-01T07:44:03Z</time>
      </trkpt>
      <trkpt lat="45.664240010082722" lon="8.05574999190867">
        <ele>1557.8330000000001</ele>
        <time>2011-11-01T07:44:22Z</time>
      </trkpt>
      <trkpt lat="45.66425995901227" lon="8.055689977481961">
        <ele>1559.357</ele>
        <time>2011-11-01T07:44:38Z</time>
      </trkpt>
      <trkpt lat="45.66427999176085" lon="8.055619988590479">
        <ele>1560.576</ele>
        <time>2011-11-01T07:44:53Z</time>
      </trkpt>
      <trkpt lat="45.664270017296076" lon="8.055559974163771">
        <ele>1562.71</ele>
        <time>2011-11-01T07:45:11Z</time>
      </trkpt>
      <trkpt lat="45.664230035617948" lon="8.055510018020868">
        <ele>1565.453</ele>
        <time>2011-11-01T07:45:28Z</time>
      </trkpt>
      <trkpt lat="45.664210002869368" lon="8.055459978058934">
        <ele>1568.501</ele>
        <time>2011-11-01T07:45:43Z</time>
      </trkpt>
      <trkpt lat="45.664210002869368" lon="8.055389989167452">
        <ele>1570.9390000000001</ele>
        <time>2011-11-01T07:46:00Z</time>
      </trkpt>
      <trkpt lat="45.664210002869368" lon="8.055310025811195">
        <ele>1574.2919999999999</ele>
        <time>2011-11-01T07:46:18Z</time>
      </trkpt>
      <trkpt lat="45.664219977334142" lon="8.055220004171133">
        <ele>1576.1210000000001</ele>
        <time>2011-11-01T07:46:35Z</time>
      </trkpt>
      <trkpt lat="45.664179995656013" lon="8.055189996957779">
        <ele>1577.95</ele>
        <time>2011-11-01T07:46:50Z</time>
      </trkpt>
      <trkpt lat="45.664140013977885" lon="8.055140040814877">
        <ele>1580.998</ele>
        <time>2011-11-01T07:47:07Z</time>
      </trkpt>
      <trkpt lat="45.664119981229305" lon="8.055090000852943">
        <ele>1582.2170000000001</ele>
        <time>2011-11-01T07:47:21Z</time>
      </trkpt>
      <trkpt lat="45.664070025086403" lon="8.055039960891008">
        <ele>1586.1790000000001</ele>
        <time>2011-11-01T07:47:39Z</time>
      </trkpt>
      <trkpt lat="45.664040017873049" lon="8.054950023069978">
        <ele>1587.0940000000001</ele>
        <time>2011-11-01T07:47:58Z</time>
      </trkpt>
      <trkpt lat="45.664049992337823" lon="8.054959997534752">
        <ele>1587.0940000000001</ele>
        <time>2011-11-01T07:48:19Z</time>
      </trkpt>
      <trkpt lat="45.664049992337823" lon="8.054959997534752">
        <ele>1586.789</ele>
        <time>2011-11-01T07:48:42Z</time>
      </trkpt>
      <trkpt lat="45.664049992337823" lon="8.054959997534752">
        <ele>1586.1790000000001</ele>
        <time>2011-11-01T07:49:07Z</time>
      </trkpt>
      <trkpt lat="45.664059966802597" lon="8.054950023069978">
        <ele>1587.703</ele>
        <time>2011-11-01T07:50:14Z</time>
      </trkpt>
      <trkpt lat="45.664049992337823" lon="8.054950023069978">
        <ele>1587.703</ele>
        <time>2011-11-01T07:50:30Z</time>
      </trkpt>
      <trkpt lat="45.664029959589243" lon="8.054929990321398">
        <ele>1588.008</ele>
        <time>2011-11-01T07:50:49Z</time>
      </trkpt>
      <trkpt lat="45.664000036194921" lon="8.054799987003207">
        <ele>1587.0940000000001</ele>
        <time>2011-11-01T07:51:04Z</time>
      </trkpt>
      <trkpt lat="45.663959970697761" lon="8.054709965363145">
        <ele>1588.6179999999999</ele>
        <time>2011-11-01T07:51:20Z</time>
      </trkpt>
      <trkpt lat="45.663919989019632" lon="8.054639976471663">
        <ele>1591.97</ele>
        <time>2011-11-01T07:51:36Z</time>
      </trkpt>
      <trkpt lat="45.66387003287673" lon="8.054579962044954">
        <ele>1593.799</ele>
        <time>2011-11-01T07:51:51Z</time>
      </trkpt>
      <trkpt lat="45.663840025663376" lon="8.054490024223924">
        <ele>1595.3230000000001</ele>
        <time>2011-11-01T07:52:05Z</time>
      </trkpt>
      <trkpt lat="45.663799960166216" lon="8.05443998426199">
        <ele>1597.7619999999999</ele>
        <time>2011-11-01T07:52:19Z</time>
      </trkpt>
      <trkpt lat="45.663759978488088" lon="8.054430009797216">
        <ele>1599.5899999999999</ele>
        <time>2011-11-01T07:52:32Z</time>
      </trkpt>
      <trkpt lat="45.663699964061379" lon="8.054400002583861">
        <ele>1601.4190000000001</ele>
        <time>2011-11-01T07:52:48Z</time>
      </trkpt>
      <trkpt lat="45.663659982383251" lon="8.054360020905733">
        <ele>1603.8579999999999</ele>
        <time>2011-11-01T07:53:02Z</time>
      </trkpt>
      <trkpt lat="45.663629975169897" lon="8.054320039227605">
        <ele>1605.991</ele>
        <time>2011-11-01T07:53:14Z</time>
      </trkpt>
      <trkpt lat="45.663629975169897" lon="8.054309980943799">
        <ele>1609.3440000000001</ele>
        <time>2011-11-01T07:53:21Z</time>
      </trkpt>
      <trkpt lat="45.663620000705123" lon="8.054309980943799">
        <ele>1610.258</ele>
        <time>2011-11-01T07:53:25Z</time>
      </trkpt>
      <trkpt lat="45.663599967956543" lon="8.054269999265671">
        <ele>1611.7819999999999</ele>
        <time>2011-11-01T07:53:40Z</time>
      </trkpt>
      <trkpt lat="45.663580019026995" lon="8.054230017587543">
        <ele>1612.6969999999999</ele>
        <time>2011-11-01T07:53:53Z</time>
      </trkpt>
      <trkpt lat="45.663550011813641" lon="8.054200010374188">
        <ele>1615.4400000000001</ele>
        <time>2011-11-01T07:54:06Z</time>
      </trkpt>
      <trkpt lat="45.663520004600286" lon="8.0541199631989">
        <ele>1616.9639999999999</ele>
        <time>2011-11-01T07:54:22Z</time>
      </trkpt>
      <trkpt lat="45.663489997386932" lon="8.054100014269352">
        <ele>1618.4880000000001</ele>
        <time>2011-11-01T07:54:38Z</time>
      </trkpt>
      <trkpt lat="45.663459990173578" lon="8.05403002537787">
        <ele>1620.9259999999999</ele>
        <time>2011-11-01T07:54:53Z</time>
      </trkpt>
      <trkpt lat="45.66342000849545" lon="8.05400999262929">
        <ele>1621.231</ele>
        <time>2011-11-01T07:55:08Z</time>
      </trkpt>
      <trkpt lat="45.663429982960224" lon="8.05400999262929">
        <ele>1621.8409999999999</ele>
        <time>2011-11-01T07:55:42Z</time>
      </trkpt>
      <trkpt lat="45.663410034030676" lon="8.053970010951161">
        <ele>1620.9259999999999</ele>
        <time>2011-11-01T07:56:09Z</time>
      </trkpt>
      <trkpt lat="45.663359994068742" lon="8.053810000419617">
        <ele>1620.9259999999999</ele>
        <time>2011-11-01T07:56:24Z</time>
      </trkpt>
      <trkpt lat="45.663329986855388" lon="8.053749985992909">
        <ele>1622.146</ele>
        <time>2011-11-01T07:56:38Z</time>
      </trkpt>
      <trkpt lat="45.663320012390614" lon="8.053700029850006">
        <ele>1623.6700000000001</ele>
        <time>2011-11-01T07:56:50Z</time>
      </trkpt>
      <trkpt lat="45.663299979642034" lon="8.053679997101426">
        <ele>1625.498</ele>
        <time>2011-11-01T07:57:05Z</time>
      </trkpt>
      <trkpt lat="45.663269972428679" lon="8.05360003374517">
        <ele>1626.413</ele>
        <time>2011-11-01T07:57:24Z</time>
      </trkpt>
      <trkpt lat="45.663199983537197" lon="8.053489979356527">
        <ele>1629.461</ele>
        <time>2011-11-01T07:57:41Z</time>
      </trkpt>
      <trkpt lat="45.663139969110489" lon="8.053400041535497">
        <ele>1629.7660000000001</ele>
        <time>2011-11-01T07:57:58Z</time>
      </trkpt>
      <trkpt lat="45.663160001859069" lon="8.053270038217306">
        <ele>1627.6320000000001</ele>
        <time>2011-11-01T07:58:42Z</time>
      </trkpt>
      <trkpt lat="45.663090012967587" lon="8.053059987723827">
        <ele>1627.0219999999999</ele>
        <time>2011-11-01T07:59:00Z</time>
      </trkpt>
      <trkpt lat="45.663060005754232" lon="8.052869969978929">
        <ele>1626.1079999999999</ele>
        <time>2011-11-01T07:59:17Z</time>
      </trkpt>
      <trkpt lat="45.663060005754232" lon="8.052820013836026">
        <ele>1625.498</ele>
        <time>2011-11-01T07:59:21Z</time>
      </trkpt>
      <trkpt lat="45.663060005754232" lon="8.052669977769256">
        <ele>1623.6700000000001</ele>
        <time>2011-11-01T07:59:37Z</time>
      </trkpt>
      <trkpt lat="45.663050031289458" lon="8.052590014412999">
        <ele>1623.6700000000001</ele>
        <time>2011-11-01T07:59:51Z</time>
      </trkpt>
      <trkpt lat="45.663060005754232" lon="8.052539974451065">
        <ele>1623.0599999999999</ele>
        <time>2011-11-01T07:59:55Z</time>
      </trkpt>
      <trkpt lat="45.663090012967587" lon="8.052330007776618">
        <ele>1623.0599999999999</ele>
        <time>2011-11-01T08:00:12Z</time>
      </trkpt>
      <trkpt lat="45.663139969110489" lon="8.052109982818365">
        <ele>1621.8409999999999</ele>
        <time>2011-11-01T08:00:28Z</time>
      </trkpt>
      <trkpt lat="45.663160001859069" lon="8.051939997822046">
        <ele>1625.194</ele>
        <time>2011-11-01T08:00:43Z</time>
      </trkpt>
      <trkpt lat="45.663169976323843" lon="8.051789961755276">
        <ele>1627.6320000000001</ele>
        <time>2011-11-01T08:00:59Z</time>
      </trkpt>
      <trkpt lat="45.663169976323843" lon="8.051679991185665">
        <ele>1630.375</ele>
        <time>2011-11-01T08:01:15Z</time>
      </trkpt>
      <trkpt lat="45.663180034607649" lon="8.051570020616055">
        <ele>1633.7280000000001</ele>
        <time>2011-11-01T08:01:32Z</time>
      </trkpt>
      <trkpt lat="45.663180034607649" lon="8.051440017297864">
        <ele>1636.1659999999999</ele>
        <time>2011-11-01T08:01:51Z</time>
      </trkpt>
      <trkpt lat="45.663180034607649" lon="8.051340021193028">
        <ele>1638.9100000000001</ele>
        <time>2011-11-01T08:02:08Z</time>
      </trkpt>
      <trkpt lat="45.663199983537197" lon="8.051270032301545">
        <ele>1641.9580000000001</ele>
        <time>2011-11-01T08:02:21Z</time>
      </trkpt>
      <trkpt lat="45.663220016285777" lon="8.051170036196709">
        <ele>1644.396</ele>
        <time>2011-11-01T08:02:37Z</time>
      </trkpt>
      <trkpt lat="45.663220016285777" lon="8.051070040091872">
        <ele>1647.749</ele>
        <time>2011-11-01T08:02:53Z</time>
      </trkpt>
      <trkpt lat="45.663259997963905" lon="8.050999967381358">
        <ele>1649.2729999999999</ele>
        <time>2011-11-01T08:03:08Z</time>
      </trkpt>
      <trkpt lat="45.663290005177259" lon="8.050940036773682">
        <ele>1652.626</ele>
        <time>2011-11-01T08:03:20Z</time>
      </trkpt>
      <trkpt lat="45.663269972428679" lon="8.050859989598393">
        <ele>1654.454</ele>
        <time>2011-11-01T08:03:37Z</time>
      </trkpt>
      <trkpt lat="45.663290005177259" lon="8.050780026242137">
        <ele>1657.1980000000001</ele>
        <time>2011-11-01T08:03:51Z</time>
      </trkpt>
      <trkpt lat="45.663310037925839" lon="8.050720011815429">
        <ele>1658.722</ele>
        <time>2011-11-01T08:04:05Z</time>
      </trkpt>
      <trkpt lat="45.663329986855388" lon="8.050650022923946">
        <ele>1662.0740000000001</ele>
        <time>2011-11-01T08:04:22Z</time>
      </trkpt>
      <trkpt lat="45.663380026817322" lon="8.050580034032464">
        <ele>1664.5129999999999</ele>
        <time>2011-11-01T08:04:41Z</time>
      </trkpt>
      <trkpt lat="45.663380026817322" lon="8.050520019605756">
        <ele>1667.2560000000001</ele>
        <time>2011-11-01T08:04:52Z</time>
      </trkpt>
      <trkpt lat="45.663329986855388" lon="8.050460005179048">
        <ele>1670.3040000000001</ele>
        <time>2011-11-01T08:05:08Z</time>
      </trkpt>
      <trkpt lat="45.663350019603968" lon="8.050380041822791">
        <ele>1673.047</ele>
        <time>2011-11-01T08:05:23Z</time>
      </trkpt>
      <trkpt lat="45.663369968533516" lon="8.050269987434149">
        <ele>1676.4000000000001</ele>
        <time>2011-11-01T08:05:41Z</time>
      </trkpt>
      <trkpt lat="45.663390001282096" lon="8.050039988011122">
        <ele>1677.6189999999999</ele>
        <time>2011-11-01T08:06:02Z</time>
      </trkpt>
      <trkpt lat="45.66342000849545" lon="8.049839995801449">
        <ele>1678.5340000000001</ele>
        <time>2011-11-01T08:06:23Z</time>
      </trkpt>
      <trkpt lat="45.66339997574687" lon="8.049660036340356">
        <ele>1679.4480000000001</ele>
        <time>2011-11-01T08:06:39Z</time>
      </trkpt>
      <trkpt lat="45.663390001282096" lon="8.049479993060231">
        <ele>1679.4480000000001</ele>
        <time>2011-11-01T08:06:52Z</time>
      </trkpt>
      <trkpt lat="45.663369968533516" lon="8.04924001917243">
        <ele>1680.972</ele>
        <time>2011-11-01T08:07:11Z</time>
      </trkpt>
      <trkpt lat="45.663359994068742" lon="8.049029968678951">
        <ele>1683.4100000000001</ele>
        <time>2011-11-01T08:07:31Z</time>
      </trkpt>
      <trkpt lat="45.663350019603968" lon="8.048950005322695">
        <ele>1686.154</ele>
        <time>2011-11-01T08:07:41Z</time>
      </trkpt>
      <trkpt lat="45.663350019603968" lon="8.048940030857921">
        <ele>1686.154</ele>
        <time>2011-11-01T08:07:42Z</time>
      </trkpt>
      <trkpt lat="45.663380026817322" lon="8.04876996204257">
        <ele>1688.8969999999999</ele>
        <time>2011-11-01T08:07:59Z</time>
      </trkpt>
      <trkpt lat="45.663380026817322" lon="8.048689998686314">
        <ele>1690.116</ele>
        <time>2011-11-01T08:08:15Z</time>
      </trkpt>
      <trkpt lat="45.663380026817322" lon="8.048569969832897">
        <ele>1691.9449999999999</ele>
        <time>2011-11-01T08:08:45Z</time>
      </trkpt>
      <trkpt lat="45.663359994068742" lon="8.048490006476641">
        <ele>1695.298</ele>
        <time>2011-11-01T08:08:59Z</time>
      </trkpt>
      <trkpt lat="45.663390001282096" lon="8.048409959301353">
        <ele>1698.0409999999999</ele>
        <time>2011-11-01T08:09:14Z</time>
      </trkpt>
      <trkpt lat="45.663390001282096" lon="8.048409959301353">
        <ele>1698.6500000000001</ele>
        <time>2011-11-01T08:09:15Z</time>
      </trkpt>
      <trkpt lat="45.663380026817322" lon="8.04833997040987">
        <ele>1701.0889999999999</ele>
        <time>2011-11-01T08:09:27Z</time>
      </trkpt>
      <trkpt lat="45.663390001282096" lon="8.048280039802194">
        <ele>1702.6130000000001</ele>
        <time>2011-11-01T08:09:43Z</time>
      </trkpt>
      <trkpt lat="45.66342000849545" lon="8.048260007053614">
        <ele>1702.9179999999999</ele>
        <time>2011-11-01T08:10:16Z</time>
      </trkpt>
      <trkpt lat="45.663429982960224" lon="8.048239974305034">
        <ele>1702.0029999999999</ele>
        <time>2011-11-01T08:10:34Z</time>
      </trkpt>
      <trkpt lat="45.66342000849545" lon="8.04820996709168">
        <ele>1702.6130000000001</ele>
        <time>2011-11-01T08:10:56Z</time>
      </trkpt>
      <trkpt lat="45.663410034030676" lon="8.04820996709168">
        <ele>1702.0029999999999</ele>
        <time>2011-11-01T08:11:06Z</time>
      </trkpt>
      <trkpt lat="45.663450015708804" lon="8.048069989308715">
        <ele>1701.394</ele>
        <time>2011-11-01T08:11:38Z</time>
      </trkpt>
      <trkpt lat="45.663459990173578" lon="8.048039982095361">
        <ele>1702.0029999999999</ele>
        <time>2011-11-01T08:11:40Z</time>
      </trkpt>
      <trkpt lat="45.663529979065061" lon="8.047830015420914">
        <ele>1702.9179999999999</ele>
        <time>2011-11-01T08:11:59Z</time>
      </trkpt>
      <trkpt lat="45.663540037348866" lon="8.047790033742786">
        <ele>1703.8320000000001</ele>
        <time>2011-11-01T08:12:02Z</time>
      </trkpt>
      <trkpt lat="45.663670040667057" lon="8.047660030424595">
        <ele>1703.8320000000001</ele>
        <time>2011-11-01T08:12:19Z</time>
      </trkpt>
      <trkpt lat="45.663780011236668" lon="8.047519968822599">
        <ele>1704.442</ele>
        <time>2011-11-01T08:12:34Z</time>
      </trkpt>
      <trkpt lat="45.663780011236668" lon="8.047519968822599">
        <ele>1703.527</ele>
        <time>2011-11-01T08:13:03Z</time>
      </trkpt>
      <trkpt lat="45.663799960166216" lon="8.04750001989305">
        <ele>1702.6130000000001</ele>
        <time>2011-11-01T08:13:28Z</time>
      </trkpt>
      <trkpt lat="45.663810018450022" lon="8.04750001989305">
        <ele>1702.9179999999999</ele>
        <time>2011-11-01T08:13:35Z</time>
      </trkpt>
      <trkpt lat="45.663919989019632" lon="8.047419972717762">
        <ele>1700.479</ele>
        <time>2011-11-01T08:13:53Z</time>
      </trkpt>
      <trkpt lat="45.664000036194921" lon="8.047400023788214">
        <ele>1697.126</ele>
        <time>2011-11-01T08:14:05Z</time>
      </trkpt>
      <trkpt lat="45.664079999551177" lon="8.047400023788214">
        <ele>1693.7739999999999</ele>
        <time>2011-11-01T08:14:16Z</time>
      </trkpt>
      <trkpt lat="45.664079999551177" lon="8.047389965504408">
        <ele>1693.7739999999999</ele>
        <time>2011-11-01T08:14:17Z</time>
      </trkpt>
      <trkpt lat="45.664100032299757" lon="8.047359958291054">
        <ele>1692.25</ele>
        <time>2011-11-01T08:14:21Z</time>
      </trkpt>
      <trkpt lat="45.664119981229305" lon="8.047359958291054">
        <ele>1691.9449999999999</ele>
        <time>2011-11-01T08:14:23Z</time>
      </trkpt>
      <trkpt lat="45.664210002869368" lon="8.047310002148151">
        <ele>1690.421</ele>
        <time>2011-11-01T08:14:38Z</time>
      </trkpt>
      <trkpt lat="45.664240010082722" lon="8.047289969399571">
        <ele>1689.5060000000001</ele>
        <time>2011-11-01T08:14:42Z</time>
      </trkpt>
      <trkpt lat="45.664289966225624" lon="8.047230038791895">
        <ele>1687.982</ele>
        <time>2011-11-01T08:14:48Z</time>
      </trkpt>
      <trkpt lat="45.664419969543815" lon="8.047129958868027">
        <ele>1686.154</ele>
        <time>2011-11-01T08:15:01Z</time>
      </trkpt>
      <trkpt lat="45.664539998397231" lon="8.046949999406934">
        <ele>1687.6780000000001</ele>
        <time>2011-11-01T08:15:17Z</time>
      </trkpt>
      <trkpt lat="45.664590038359165" lon="8.046819996088743">
        <ele>1683.7149999999999</ele>
        <time>2011-11-01T08:15:33Z</time>
      </trkpt>
      <trkpt lat="45.664639994502068" lon="8.046770039945841">
        <ele>1681.277</ele>
        <time>2011-11-01T08:15:38Z</time>
      </trkpt>
      <trkpt lat="45.664800005033612" lon="8.046540040522814">
        <ele>1682.191</ele>
        <time>2011-11-01T08:15:59Z</time>
      </trkpt>
      <trkpt lat="45.664939982816577" lon="8.046439960598946">
        <ele>1680.3620000000001</ele>
        <time>2011-11-01T08:16:14Z</time>
      </trkpt>
      <trkpt lat="45.664979964494705" lon="8.046420011669397">
        <ele>1679.4480000000001</ele>
        <time>2011-11-01T08:16:18Z</time>
      </trkpt>
      <trkpt lat="45.665060011669993" lon="8.046339964494109">
        <ele>1678.838</ele>
        <time>2011-11-01T08:16:27Z</time>
      </trkpt>
      <trkpt lat="45.665220022201538" lon="8.04619001224637">
        <ele>1676.4000000000001</ele>
        <time>2011-11-01T08:16:43Z</time>
      </trkpt>
      <trkpt lat="45.665299985557795" lon="8.046120023354888">
        <ele>1675.181</ele>
        <time>2011-11-01T08:16:51Z</time>
      </trkpt>
      <trkpt lat="45.665399981662631" lon="8.046030001714826">
        <ele>1672.133</ele>
        <time>2011-11-01T08:17:01Z</time>
      </trkpt>
      <trkpt lat="45.665490003302693" lon="8.045990020036697">
        <ele>1668.78</ele>
        <time>2011-11-01T08:17:10Z</time>
      </trkpt>
      <trkpt lat="45.665580024942756" lon="8.045890023931861">
        <ele>1667.2560000000001</ele>
        <time>2011-11-01T08:17:19Z</time>
      </trkpt>
      <trkpt lat="45.665620006620884" lon="8.045869991183281">
        <ele>1666.951</ele>
        <time>2011-11-01T08:17:23Z</time>
      </trkpt>
      <trkpt lat="45.665650013834238" lon="8.045830009505153">
        <ele>1666.951</ele>
        <time>2011-11-01T08:17:27Z</time>
      </trkpt>
      <trkpt lat="45.665750009939075" lon="8.045769995078445">
        <ele>1666.3420000000001</ele>
        <time>2011-11-01T08:17:40Z</time>
      </trkpt>
      <trkpt lat="45.665799966081977" lon="8.045619959011674">
        <ele>1662.989</ele>
        <time>2011-11-01T08:17:52Z</time>
      </trkpt>
      <trkpt lat="45.665810024365783" lon="8.045549970120192">
        <ele>1662.0740000000001</ele>
        <time>2011-11-01T08:17:58Z</time>
      </trkpt>
      <trkpt lat="45.665919994935393" lon="8.045389959588647">
        <ele>1659.636</ele>
        <time>2011-11-01T08:18:13Z</time>
      </trkpt>
      <trkpt lat="45.665950002148747" lon="8.045249981805682">
        <ele>1656.2829999999999</ele>
        <time>2011-11-01T08:18:22Z</time>
      </trkpt>
      <trkpt lat="45.66599995829165" lon="8.045040015131235">
        <ele>1652.626</ele>
        <time>2011-11-01T08:18:34Z</time>
      </trkpt>
      <trkpt lat="45.66599995829165" lon="8.045010007917881">
        <ele>1654.454</ele>
        <time>2011-11-01T08:18:37Z</time>
      </trkpt>
      <trkpt lat="45.66604002378881" lon="8.044849997386336">
        <ele>1654.454</ele>
        <time>2011-11-01T08:18:50Z</time>
      </trkpt>
      <trkpt lat="45.666119987145066" lon="8.044659979641438">
        <ele>1653.54</ele>
        <time>2011-11-01T08:19:04Z</time>
      </trkpt>
      <trkpt lat="45.66612996160984" lon="8.044619997963309">
        <ele>1652.9300000000001</ele>
        <time>2011-11-01T08:19:08Z</time>
      </trkpt>
      <trkpt lat="45.666180001571774" lon="8.044570041820407">
        <ele>1652.0160000000001</ele>
        <time>2011-11-01T08:19:13Z</time>
      </trkpt>
      <trkpt lat="45.666200034320354" lon="8.044510027393699">
        <ele>1651.4059999999999</ele>
        <time>2011-11-01T08:19:17Z</time>
      </trkpt>
      <trkpt lat="45.666349986568093" lon="8.0443200096488">
        <ele>1650.492</ele>
        <time>2011-11-01T08:19:33Z</time>
      </trkpt>
      <trkpt lat="45.666379993781447" lon="8.044269969686866">
        <ele>1649.578</ele>
        <time>2011-11-01T08:19:37Z</time>
      </trkpt>
      <trkpt lat="45.666419975459576" lon="8.044239962473512">
        <ele>1648.663</ele>
        <time>2011-11-01T08:19:41Z</time>
      </trkpt>
      <trkpt lat="45.666519971564412" lon="8.043980039656162">
        <ele>1649.2729999999999</ele>
        <time>2011-11-01T08:19:58Z</time>
      </trkpt>
      <trkpt lat="45.666589960455894" lon="8.043830003589392">
        <ele>1650.492</ele>
        <time>2011-11-01T08:20:13Z</time>
      </trkpt>
      <trkpt lat="45.666660033166409" lon="8.043750040233135">
        <ele>1649.578</ele>
        <time>2011-11-01T08:20:26Z</time>
      </trkpt>
      <trkpt lat="45.666749970987439" lon="8.043590029701591">
        <ele>1651.1020000000001</ele>
        <time>2011-11-01T08:20:40Z</time>
      </trkpt>
      <trkpt lat="45.666860025376081" lon="8.043409986421466">
        <ele>1650.492</ele>
        <time>2011-11-01T08:20:57Z</time>
      </trkpt>
      <trkpt lat="45.66690000705421" lon="8.043339997529984">
        <ele>1650.1869999999999</ele>
        <time>2011-11-01T08:21:03Z</time>
      </trkpt>
      <trkpt lat="45.66692003980279" lon="8.043270008638501">
        <ele>1650.1869999999999</ele>
        <time>2011-11-01T08:21:08Z</time>
      </trkpt>
      <trkpt lat="45.666969995945692" lon="8.043189961463213">
        <ele>1647.749</ele>
        <time>2011-11-01T08:21:15Z</time>
      </trkpt>
      <trkpt lat="45.667099999263883" lon="8.042979994788766">
        <ele>1644.396</ele>
        <time>2011-11-01T08:21:32Z</time>
      </trkpt>
      <trkpt lat="45.667139980942011" lon="8.042949987575412">
        <ele>1643.7860000000001</ele>
        <time>2011-11-01T08:21:36Z</time>
      </trkpt>
      <trkpt lat="45.667139980942011" lon="8.042910005897284">
        <ele>1642.8720000000001</ele>
        <time>2011-11-01T08:22:01Z</time>
      </trkpt>
      <trkpt lat="45.667139980942011" lon="8.042900031432509">
        <ele>1642.8720000000001</ele>
        <time>2011-11-01T08:22:25Z</time>
      </trkpt>
      <trkpt lat="45.667209969833493" lon="8.042789977043867">
        <ele>1641.0429999999999</ele>
        <time>2011-11-01T08:22:38Z</time>
      </trkpt>
      <trkpt lat="45.667339973151684" lon="8.042619992047548">
        <ele>1638.9100000000001</ele>
        <time>2011-11-01T08:22:54Z</time>
      </trkpt>
      <trkpt lat="45.667369980365038" lon="8.042589984834194">
        <ele>1640.1289999999999</ele>
        <time>2011-11-01T08:22:57Z</time>
      </trkpt>
      <trkpt lat="45.667380038648844" lon="8.042540028691292">
        <ele>1640.434</ele>
        <time>2011-11-01T08:23:01Z</time>
      </trkpt>
      <trkpt lat="45.667399987578392" lon="8.042499963194132">
        <ele>1640.434</ele>
        <time>2011-11-01T08:23:04Z</time>
      </trkpt>
      <trkpt lat="45.667490009218454" lon="8.042159993201494">
        <ele>1638.9100000000001</ele>
        <time>2011-11-01T08:23:25Z</time>
      </trkpt>
      <trkpt lat="45.667569972574711" lon="8.041860004886985">
        <ele>1636.1659999999999</ele>
        <time>2011-11-01T08:23:42Z</time>
      </trkpt>
      <trkpt lat="45.667569972574711" lon="8.041850030422211">
        <ele>1636.1659999999999</ele>
        <time>2011-11-01T08:23:43Z</time>
      </trkpt>
      <trkpt lat="45.667610038071871" lon="8.041560016572475">
        <ele>1635.252</ele>
        <time>2011-11-01T08:24:00Z</time>
      </trkpt>
      <trkpt lat="45.667620012536645" lon="8.041449962183833">
        <ele>1634.338</ele>
        <time>2011-11-01T08:24:13Z</time>
      </trkpt>
      <trkpt lat="45.667639961466193" lon="8.041460020467639">
        <ele>1634.338</ele>
        <time>2011-11-01T08:24:35Z</time>
      </trkpt>
      <trkpt lat="45.667639961466193" lon="8.041460020467639">
        <ele>1635.252</ele>
        <time>2011-11-01T08:27:43Z</time>
      </trkpt>
      <trkpt lat="45.667639961466193" lon="8.041449962183833">
        <ele>1634.338</ele>
        <time>2011-11-01T08:28:12Z</time>
      </trkpt>
      <trkpt lat="45.667639961466193" lon="8.041460020467639">
        <ele>1634.338</ele>
        <time>2011-11-01T08:28:43Z</time>
      </trkpt>
      <trkpt lat="45.667639961466193" lon="8.041420038789511">
        <ele>1635.557</ele>
        <time>2011-11-01T08:29:03Z</time>
      </trkpt>
      <trkpt lat="45.667650019749999" lon="8.04127000272274">
        <ele>1636.1659999999999</ele>
        <time>2011-11-01T08:29:16Z</time>
      </trkpt>
      <trkpt lat="45.667690001428127" lon="8.04113999940455">
        <ele>1636.1659999999999</ele>
        <time>2011-11-01T08:29:29Z</time>
      </trkpt>
      <trkpt lat="45.667729983106256" lon="8.040759963914752">
        <ele>1635.252</ele>
        <time>2011-11-01T08:29:50Z</time>
      </trkpt>
      <trkpt lat="45.667740041390061" lon="8.04073004052043">
        <ele>1636.1659999999999</ele>
        <time>2011-11-01T08:29:52Z</time>
      </trkpt>
      <trkpt lat="45.66778002306819" lon="8.040519990026951">
        <ele>1635.252</ele>
        <time>2011-11-01T08:30:07Z</time>
      </trkpt>
      <trkpt lat="45.667789997532964" lon="8.040350005030632">
        <ele>1637.9949999999999</ele>
        <time>2011-11-01T08:30:21Z</time>
      </trkpt>
      <trkpt lat="45.667810030281544" lon="8.040240034461021">
        <ele>1641.348</ele>
        <time>2011-11-01T08:30:35Z</time>
      </trkpt>
      <trkpt lat="45.667829979211092" lon="8.040110031142831">
        <ele>1644.396</ele>
        <time>2011-11-01T08:30:52Z</time>
      </trkpt>
      <trkpt lat="45.66786996088922" lon="8.039910038933158">
        <ele>1646.8340000000001</ele>
        <time>2011-11-01T08:31:09Z</time>
      </trkpt>
      <trkpt lat="45.667880019173026" lon="8.039780035614967">
        <ele>1649.2729999999999</ele>
        <time>2011-11-01T08:31:26Z</time>
      </trkpt>
      <trkpt lat="45.667880019173026" lon="8.039690013974905">
        <ele>1650.1869999999999</ele>
        <time>2011-11-01T08:31:41Z</time>
      </trkpt>
      <trkpt lat="45.66791002638638" lon="8.039569985121489">
        <ele>1652.626</ele>
        <time>2011-11-01T08:32:00Z</time>
      </trkpt>
      <trkpt lat="45.667999964207411" lon="8.039390025660396">
        <ele>1653.54</ele>
        <time>2011-11-01T08:32:15Z</time>
      </trkpt>
      <trkpt lat="45.668019996955991" lon="8.039309978485107">
        <ele>1654.454</ele>
        <time>2011-11-01T08:32:23Z</time>
      </trkpt>
      <trkpt lat="45.668050004169345" lon="8.039269996806979">
        <ele>1653.54</ele>
        <time>2011-11-01T08:32:27Z</time>
      </trkpt>
      <trkpt lat="45.668050004169345" lon="8.039230015128851">
        <ele>1654.759</ele>
        <time>2011-11-01T08:32:31Z</time>
      </trkpt>
      <trkpt lat="45.668040029704571" lon="8.039179975166917">
        <ele>1656.893</ele>
        <time>2011-11-01T08:32:35Z</time>
      </trkpt>
      <trkpt lat="45.668040029704571" lon="8.038979982957244">
        <ele>1658.722</ele>
        <time>2011-11-01T08:32:52Z</time>
      </trkpt>
      <trkpt lat="45.668080011382699" lon="8.038809997960925">
        <ele>1660.55</ele>
        <time>2011-11-01T08:33:10Z</time>
      </trkpt>
      <trkpt lat="45.668089985847473" lon="8.038760041818023">
        <ele>1662.0740000000001</ele>
        <time>2011-11-01T08:33:17Z</time>
      </trkpt>
      <trkpt lat="45.668099960312247" lon="8.038740009069443">
        <ele>1663.903</ele>
        <time>2011-11-01T08:33:20Z</time>
      </trkpt>
      <trkpt lat="45.668159974738955" lon="8.03867002017796">
        <ele>1666.3420000000001</ele>
        <time>2011-11-01T08:33:34Z</time>
      </trkpt>
      <trkpt lat="45.668170033022761" lon="8.03851998411119">
        <ele>1669.694</ele>
        <time>2011-11-01T08:33:52Z</time>
      </trkpt>
      <trkpt lat="45.668200040236115" lon="8.038419988006353">
        <ele>1672.742</ele>
        <time>2011-11-01T08:34:11Z</time>
      </trkpt>
      <trkpt lat="45.668240021914244" lon="8.038280010223389">
        <ele>1673.6569999999999</ele>
        <time>2011-11-01T08:34:25Z</time>
      </trkpt>
      <trkpt lat="45.668280003592372" lon="8.038170039653778">
        <ele>1676.4000000000001</ele>
        <time>2011-11-01T08:34:40Z</time>
      </trkpt>
      <trkpt lat="45.668329959735274" lon="8.038040036335588">
        <ele>1678.838</ele>
        <time>2011-11-01T08:34:59Z</time>
      </trkpt>
      <trkpt lat="45.668349992483854" lon="8.038029978051782">
        <ele>1677.924</ele>
        <time>2011-11-01T08:35:22Z</time>
      </trkpt>
      <trkpt lat="45.668419981375337" lon="8.037839960306883">
        <ele>1679.7529999999999</ele>
        <time>2011-11-01T08:35:39Z</time>
      </trkpt>
      <trkpt lat="45.668479995802045" lon="8.037720015272498">
        <ele>1682.8009999999999</ele>
        <time>2011-11-01T08:35:55Z</time>
      </trkpt>
      <trkpt lat="45.668570017442107" lon="8.037580037489533">
        <ele>1684.6300000000001</ele>
        <time>2011-11-01T08:36:13Z</time>
      </trkpt>
      <trkpt lat="45.668570017442107" lon="8.037520023062825">
        <ele>1685.5440000000001</ele>
        <time>2011-11-01T08:36:31Z</time>
      </trkpt>
      <trkpt lat="45.668579991906881" lon="8.037520023062825">
        <ele>1685.5440000000001</ele>
        <time>2011-11-01T08:37:17Z</time>
      </trkpt>
      <trkpt lat="45.66861997358501" lon="8.037350038066506">
        <ele>1683.4100000000001</ele>
        <time>2011-11-01T08:37:37Z</time>
      </trkpt>
      <trkpt lat="45.668630031868815" lon="8.037299998104572">
        <ele>1682.8009999999999</ele>
        <time>2011-11-01T08:37:40Z</time>
      </trkpt>
      <trkpt lat="45.668719969689846" lon="8.037060024216771">
        <ele>1683.7149999999999</ele>
        <time>2011-11-01T08:37:56Z</time>
      </trkpt>
      <trkpt lat="45.66877000965178" lon="8.036939995363355">
        <ele>1684.6300000000001</ele>
        <time>2011-11-01T08:38:10Z</time>
      </trkpt>
      <trkpt lat="45.668819965794683" lon="8.036789959296584">
        <ele>1687.068</ele>
        <time>2011-11-01T08:38:25Z</time>
      </trkpt>
      <trkpt lat="45.668939994648099" lon="8.036589967086911">
        <ele>1683.7149999999999</ele>
        <time>2011-11-01T08:38:40Z</time>
      </trkpt>
      <trkpt lat="45.668970001861453" lon="8.036479996517301">
        <ele>1682.191</ele>
        <time>2011-11-01T08:38:55Z</time>
      </trkpt>
      <trkpt lat="45.66904996521771" lon="8.03634999319911">
        <ele>1679.4480000000001</ele>
        <time>2011-11-01T08:39:09Z</time>
      </trkpt>
      <trkpt lat="45.66906999796629" lon="8.036249997094274">
        <ele>1678.5340000000001</ele>
        <time>2011-11-01T08:39:16Z</time>
      </trkpt>
      <trkpt lat="45.669169994071126" lon="8.036119993776083">
        <ele>1675.181</ele>
        <time>2011-11-01T08:39:31Z</time>
      </trkpt>
      <trkpt lat="45.669230008497834" lon="8.035999964922667">
        <ele>1673.6569999999999</ele>
        <time>2011-11-01T08:39:44Z</time>
      </trkpt>
      <trkpt lat="45.669279964640737" lon="8.035889994353056">
        <ele>1672.742</ele>
        <time>2011-11-01T08:39:52Z</time>
      </trkpt>
      <trkpt lat="45.669299997389317" lon="8.035840038210154">
        <ele>1671.2180000000001</ele>
        <time>2011-11-01T08:39:58Z</time>
      </trkpt>
      <trkpt lat="45.669350037351251" lon="8.035820005461574">
        <ele>1669.694</ele>
        <time>2011-11-01T08:40:03Z</time>
      </trkpt>
      <trkpt lat="45.669439975172281" lon="8.035710034891963">
        <ele>1666.3420000000001</ele>
        <time>2011-11-01T08:40:17Z</time>
      </trkpt>
      <trkpt lat="45.669539971277118" lon="8.035529991611838">
        <ele>1662.989</ele>
        <time>2011-11-01T08:40:31Z</time>
      </trkpt>
      <trkpt lat="45.669639967381954" lon="8.035309966653585">
        <ele>1663.598</ele>
        <time>2011-11-01T08:40:47Z</time>
      </trkpt>
      <trkpt lat="45.669790003448725" lon="8.035139981657267">
        <ele>1662.989</ele>
        <time>2011-11-01T08:41:03Z</time>
      </trkpt>
      <trkpt lat="45.669850017875433" lon="8.034990029409528">
        <ele>1663.903</ele>
        <time>2011-11-01T08:41:13Z</time>
      </trkpt>
      <trkpt lat="45.670020002871752" lon="8.034770004451275">
        <ele>1664.5129999999999</ele>
        <time>2011-11-01T08:41:32Z</time>
      </trkpt>
      <trkpt lat="45.670150006189942" lon="8.034570012241602">
        <ele>1664.5129999999999</ele>
        <time>2011-11-01T08:41:51Z</time>
      </trkpt>
      <trkpt lat="45.670180013403296" lon="8.034540005028248">
        <ele>1666.037</ele>
        <time>2011-11-01T08:41:55Z</time>
      </trkpt>
      <trkpt lat="45.670329965651035" lon="8.034419976174831">
        <ele>1665.4269999999999</ele>
        <time>2011-11-01T08:42:13Z</time>
      </trkpt>
      <trkpt lat="45.670470027253032" lon="8.034249991178513">
        <ele>1663.903</ele>
        <time>2011-11-01T08:42:32Z</time>
      </trkpt>
      <trkpt lat="45.670570023357868" lon="8.034089980646968">
        <ele>1664.5129999999999</ele>
        <time>2011-11-01T08:42:50Z</time>
      </trkpt>
      <trkpt lat="45.670600030571222" lon="8.034080006182194">
        <ele>1665.1220000000001</ele>
        <time>2011-11-01T08:42:54Z</time>
      </trkpt>
      <trkpt lat="45.670670019462705" lon="8.033970035612583">
        <ele>1665.1220000000001</ele>
        <time>2011-11-01T08:43:08Z</time>
      </trkpt>
      <trkpt lat="45.670730033889413" lon="8.033899962902069">
        <ele>1662.684</ele>
        <time>2011-11-01T08:43:24Z</time>
      </trkpt>
      <trkpt lat="45.670779990032315" lon="8.033859981223941">
        <ele>1661.77</ele>
        <time>2011-11-01T08:43:40Z</time>
      </trkpt>
      <trkpt lat="45.670849978923798" lon="8.033720003440976">
        <ele>1660.2460000000001</ele>
        <time>2011-11-01T08:43:58Z</time>
      </trkpt>
      <trkpt lat="45.670860037207603" lon="8.03362000733614">
        <ele>1657.807</ele>
        <time>2011-11-01T08:44:09Z</time>
      </trkpt>
      <trkpt lat="45.670909993350506" lon="8.033539960160852">
        <ele>1655.3689999999999</ele>
        <time>2011-11-01T08:44:19Z</time>
      </trkpt>
      <trkpt lat="45.67096003331244" lon="8.033469971269369">
        <ele>1654.454</ele>
        <time>2011-11-01T08:44:27Z</time>
      </trkpt>
      <trkpt lat="45.671060029417276" lon="8.033290011808276">
        <ele>1653.54</ele>
        <time>2011-11-01T08:44:45Z</time>
      </trkpt>
      <trkpt lat="45.671119960024953" lon="8.033099994063377">
        <ele>1654.759</ele>
        <time>2011-11-01T08:45:05Z</time>
      </trkpt>
      <trkpt lat="45.671179974451661" lon="8.032950041815639">
        <ele>1657.1980000000001</ele>
        <time>2011-11-01T08:45:23Z</time>
      </trkpt>
      <trkpt lat="45.671190032735467" lon="8.032939983531833">
        <ele>1658.4169999999999</ele>
        <time>2011-11-01T08:45:25Z</time>
      </trkpt>
      <trkpt lat="45.671209981665015" lon="8.032879969105125">
        <ele>1661.1600000000001</ele>
        <time>2011-11-01T08:45:36Z</time>
      </trkpt>
      <trkpt lat="45.671249963343143" lon="8.032779973000288">
        <ele>1662.989</ele>
        <time>2011-11-01T08:45:52Z</time>
      </trkpt>
      <trkpt lat="45.671279970556498" lon="8.032690035179257">
        <ele>1664.5129999999999</ele>
        <time>2011-11-01T08:46:08Z</time>
      </trkpt>
      <trkpt lat="45.671320036053658" lon="8.032600013539195">
        <ele>1667.866</ele>
        <time>2011-11-01T08:46:24Z</time>
      </trkpt>
      <trkpt lat="45.67134995944798" lon="8.032539999112487">
        <ele>1668.78</ele>
        <time>2011-11-01T08:46:41Z</time>
      </trkpt>
      <trkpt lat="45.671379966661334" lon="8.032500017434359">
        <ele>1671.828</ele>
        <time>2011-11-01T08:46:56Z</time>
      </trkpt>
      <trkpt lat="45.671399999409914" lon="8.032449977472425">
        <ele>1672.742</ele>
        <time>2011-11-01T08:47:18Z</time>
      </trkpt>
      <trkpt lat="45.671439981088042" lon="8.032300025224686">
        <ele>1673.6569999999999</ele>
        <time>2011-11-01T08:47:34Z</time>
      </trkpt>
      <trkpt lat="45.67152002826333" lon="8.032230036333203">
        <ele>1673.6569999999999</ele>
        <time>2011-11-01T08:47:51Z</time>
      </trkpt>
      <trkpt lat="45.671569984406233" lon="8.032170021906495">
        <ele>1672.742</ele>
        <time>2011-11-01T08:48:05Z</time>
      </trkpt>
      <trkpt lat="45.671650031581521" lon="8.032159963622689">
        <ele>1670.3040000000001</ele>
        <time>2011-11-01T08:48:19Z</time>
      </trkpt>
      <trkpt lat="45.671709962189198" lon="8.032159963622689">
        <ele>1667.2560000000001</ele>
        <time>2011-11-01T08:48:32Z</time>
      </trkpt>
      <trkpt lat="45.671729994937778" lon="8.032149989157915">
        <ele>1666.037</ele>
        <time>2011-11-01T08:48:37Z</time>
      </trkpt>
      <trkpt lat="45.671780034899712" lon="8.032049993053079">
        <ele>1665.1220000000001</ele>
        <time>2011-11-01T08:48:52Z</time>
      </trkpt>
      <trkpt lat="45.671790009364486" lon="8.032029960304499">
        <ele>1665.1220000000001</ele>
        <time>2011-11-01T08:49:09Z</time>
      </trkpt>
      <trkpt lat="45.671809958294034" lon="8.03198997862637">
        <ele>1665.1220000000001</ele>
        <time>2011-11-01T08:49:37Z</time>
      </trkpt>
      <trkpt lat="45.671859998255968" lon="8.031959971413016">
        <ele>1662.989</ele>
        <time>2011-11-01T08:49:52Z</time>
      </trkpt>
      <trkpt lat="45.671869972720742" lon="8.031929964199662">
        <ele>1660.55</ele>
        <time>2011-11-01T08:50:00Z</time>
      </trkpt>
      <trkpt lat="45.671880031004548" lon="8.031919989734888">
        <ele>1658.722</ele>
        <time>2011-11-01T08:50:03Z</time>
      </trkpt>
      <trkpt lat="45.671910038217902" lon="8.031810019165278">
        <ele>1657.807</ele>
        <time>2011-11-01T08:50:18Z</time>
      </trkpt>
      <trkpt lat="45.67195001989603" lon="8.031770037487149">
        <ele>1656.893</ele>
        <time>2011-11-01T08:50:30Z</time>
      </trkpt>
      <trkpt lat="45.671980027109385" lon="8.031650008633733">
        <ele>1656.893</ele>
        <time>2011-11-01T08:50:44Z</time>
      </trkpt>
      <trkpt lat="45.671999976038933" lon="8.031640034168959">
        <ele>1656.2829999999999</ele>
        <time>2011-11-01T08:50:47Z</time>
      </trkpt>
      <trkpt lat="45.672040041536093" lon="8.031610026955605">
        <ele>1655.9780000000001</ele>
        <time>2011-11-01T08:50:52Z</time>
      </trkpt>
      <trkpt lat="45.672099972143769" lon="8.031469965353608">
        <ele>1655.9780000000001</ele>
        <time>2011-11-01T08:51:07Z</time>
      </trkpt>
      <trkpt lat="45.672159986570477" lon="8.031299980357289">
        <ele>1656.2829999999999</ele>
        <time>2011-11-01T08:51:23Z</time>
      </trkpt>
      <trkpt lat="45.672240033745766" lon="8.031190009787679">
        <ele>1657.807</ele>
        <time>2011-11-01T08:51:37Z</time>
      </trkpt>
      <trkpt lat="45.672289989888668" lon="8.031060006469488">
        <ele>1656.893</ele>
        <time>2011-11-01T08:51:51Z</time>
      </trkpt>
      <trkpt lat="45.672319997102022" lon="8.03099999204278">
        <ele>1657.807</ele>
        <time>2011-11-01T08:51:57Z</time>
      </trkpt>
      <trkpt lat="45.67235997878015" lon="8.030969984829426">
        <ele>1657.1980000000001</ele>
        <time>2011-11-01T08:52:01Z</time>
      </trkpt>
      <trkpt lat="45.672470033168793" lon="8.030869988724589">
        <ele>1657.1980000000001</ele>
        <time>2011-11-01T08:52:17Z</time>
      </trkpt>
      <trkpt lat="45.672519989311695" lon="8.030790025368333">
        <ele>1661.1600000000001</ele>
        <time>2011-11-01T08:52:29Z</time>
      </trkpt>
      <trkpt lat="45.672549996525049" lon="8.030760018154979">
        <ele>1662.684</ele>
        <time>2011-11-01T08:52:34Z</time>
      </trkpt>
      <trkpt lat="45.672600036486983" lon="8.030620040372014">
        <ele>1666.037</ele>
        <time>2011-11-01T08:52:53Z</time>
      </trkpt>
      <trkpt lat="45.67265996709466" lon="8.030479978770018">
        <ele>1666.951</ele>
        <time>2011-11-01T08:53:09Z</time>
      </trkpt>
      <trkpt lat="45.672719981521368" lon="8.030360033735633">
        <ele>1670.3040000000001</ele>
        <time>2011-11-01T08:53:22Z</time>
      </trkpt>
      <trkpt lat="45.672730039805174" lon="8.030340000987053">
        <ele>1666.037</ele>
        <time>2011-11-01T08:53:26Z</time>
      </trkpt>
      <trkpt lat="45.672730039805174" lon="8.030340000987053">
        <ele>1669.3900000000001</ele>
        <time>2011-11-01T08:53:27Z</time>
      </trkpt>
      <trkpt lat="45.672759963199496" lon="8.030289961025119">
        <ele>1669.3900000000001</ele>
        <time>2011-11-01T08:53:35Z</time>
      </trkpt>
      <trkpt lat="45.672819977626204" lon="8.03016004152596">
        <ele>1669.3900000000001</ele>
        <time>2011-11-01T08:53:50Z</time>
      </trkpt>
      <trkpt lat="45.672870017588139" lon="8.030110001564026">
        <ele>1668.78</ele>
        <time>2011-11-01T08:54:04Z</time>
      </trkpt>
      <trkpt lat="45.672900024801493" lon="8.030030038207769">
        <ele>1670.914</ele>
        <time>2011-11-01T08:54:17Z</time>
      </trkpt>
      <trkpt lat="45.672970013692975" lon="8.029929958283901">
        <ele>1669.694</ele>
        <time>2011-11-01T08:54:32Z</time>
      </trkpt>
      <trkpt lat="45.673019969835877" lon="8.029880002140999">
        <ele>1667.866</ele>
        <time>2011-11-01T08:54:45Z</time>
      </trkpt>
      <trkpt lat="45.673049977049232" lon="8.029849994927645">
        <ele>1666.037</ele>
        <time>2011-11-01T08:54:59Z</time>
      </trkpt>
      <trkpt lat="45.67310999147594" lon="8.029849994927645">
        <ele>1664.5129999999999</ele>
        <time>2011-11-01T08:55:13Z</time>
      </trkpt>
      <trkpt lat="45.673119965940714" lon="8.029819987714291">
        <ele>1661.77</ele>
        <time>2011-11-01T08:55:21Z</time>
      </trkpt>
      <trkpt lat="45.67313002422452" lon="8.029780006036162">
        <ele>1660.2460000000001</ele>
        <time>2011-11-01T08:55:27Z</time>
      </trkpt>
      <trkpt lat="45.673179980367422" lon="8.029759973287582">
        <ele>1657.807</ele>
        <time>2011-11-01T08:55:41Z</time>
      </trkpt>
      <trkpt lat="45.673230020329356" lon="8.029749998822808">
        <ele>1656.893</ele>
        <time>2011-11-01T08:55:55Z</time>
      </trkpt>
      <trkpt lat="45.67326002754271" lon="8.029670035466552">
        <ele>1654.759</ele>
        <time>2011-11-01T08:56:16Z</time>
      </trkpt>
      <trkpt lat="45.673349965363741" lon="8.029570039361715">
        <ele>1652.0160000000001</ele>
        <time>2011-11-01T08:56:32Z</time>
      </trkpt>
      <trkpt lat="45.673349965363741" lon="8.02955998107791">
        <ele>1651.4059999999999</ele>
        <time>2011-11-01T08:56:33Z</time>
      </trkpt>
      <trkpt lat="45.673379972577095" lon="8.029519999399781">
        <ele>1651.1020000000001</ele>
        <time>2011-11-01T08:56:38Z</time>
      </trkpt>
      <trkpt lat="45.67353998310864" lon="8.029399970546365">
        <ele>1650.1869999999999</ele>
        <time>2011-11-01T08:56:55Z</time>
      </trkpt>
      <trkpt lat="45.673679960891604" lon="8.029220011085272">
        <ele>1649.578</ele>
        <time>2011-11-01T08:57:12Z</time>
      </trkpt>
      <trkpt lat="45.673730000853539" lon="8.029220011085272">
        <ele>1648.663</ele>
        <time>2011-11-01T08:57:17Z</time>
      </trkpt>
      <trkpt lat="45.673750033602118" lon="8.029190003871918">
        <ele>1648.663</ele>
        <time>2011-11-01T08:57:20Z</time>
      </trkpt>
      <trkpt lat="45.673780040815473" lon="8.029139963909984">
        <ele>1649.578</ele>
        <time>2011-11-01T08:57:29Z</time>
      </trkpt>
      <trkpt lat="45.673839971423149" lon="8.028999986127019">
        <ele>1652.0160000000001</ele>
        <time>2011-11-01T08:57:43Z</time>
      </trkpt>
      <trkpt lat="45.673890011385083" lon="8.028880041092634">
        <ele>1654.454</ele>
        <time>2011-11-01T08:57:59Z</time>
      </trkpt>
      <trkpt lat="45.67396997474134" lon="8.028769986703992">
        <ele>1656.2829999999999</ele>
        <time>2011-11-01T08:58:16Z</time>
      </trkpt>
      <trkpt lat="45.674050021916628" lon="8.028660016134381">
        <ele>1657.1980000000001</ele>
        <time>2011-11-01T08:58:30Z</time>
      </trkpt>
      <trkpt lat="45.674139959737659" lon="8.028520038351417">
        <ele>1659.636</ele>
        <time>2011-11-01T08:58:46Z</time>
      </trkpt>
      <trkpt lat="45.674220006912947" lon="8.028390035033226">
        <ele>1662.989</ele>
        <time>2011-11-01T08:59:02Z</time>
      </trkpt>
      <trkpt lat="45.674259988591075" lon="8.028300013393164">
        <ele>1666.037</ele>
        <time>2011-11-01T08:59:12Z</time>
      </trkpt>
      <trkpt lat="45.674329977482557" lon="8.028130028396845">
        <ele>1667.2560000000001</ele>
        <time>2011-11-01T08:59:29Z</time>
      </trkpt>
      <trkpt lat="45.674380017444491" lon="8.028079988434911">
        <ele>1667.866</ele>
        <time>2011-11-01T08:59:36Z</time>
      </trkpt>
      <trkpt lat="45.674470039084554" lon="8.027900028973818">
        <ele>1668.4749999999999</ele>
        <time>2011-11-01T08:59:52Z</time>
      </trkpt>
      <trkpt lat="45.674580009654164" lon="8.027729960158467">
        <ele>1668.4749999999999</ele>
        <time>2011-11-01T09:00:09Z</time>
      </trkpt>
      <trkpt lat="45.674710012972355" lon="8.027570033445954">
        <ele>1668.4749999999999</ele>
        <time>2011-11-01T09:00:26Z</time>
      </trkpt>
      <trkpt lat="45.67484999075532" lon="8.027419997379184">
        <ele>1667.866</ele>
        <time>2011-11-01T09:00:42Z</time>
      </trkpt>
      <trkpt lat="45.674919979646802" lon="8.027359982952476">
        <ele>1668.4749999999999</ele>
        <time>2011-11-01T09:00:58Z</time>
      </trkpt>
      <trkpt lat="45.67495996132493" lon="8.027240037918091">
        <ele>1670.3040000000001</ele>
        <time>2011-11-01T09:01:13Z</time>
      </trkpt>
      <trkpt lat="45.674989968538284" lon="8.027140041813254">
        <ele>1672.742</ele>
        <time>2011-11-01T09:01:27Z</time>
      </trkpt>
      <trkpt lat="45.675019975751638" lon="8.027050020173192">
        <ele>1675.4860000000001</ele>
        <time>2011-11-01T09:01:42Z</time>
      </trkpt>
      <trkpt lat="45.675070015713573" lon="8.02695999853313">
        <ele>1677.6189999999999</ele>
        <time>2011-11-01T09:01:57Z</time>
      </trkpt>
      <trkpt lat="45.675149979069829" lon="8.026909958571196">
        <ele>1679.4480000000001</ele>
        <time>2011-11-01T09:02:12Z</time>
      </trkpt>
      <trkpt lat="45.675209993496537" lon="8.026809962466359">
        <ele>1681.277</ele>
        <time>2011-11-01T09:02:26Z</time>
      </trkpt>
      <trkpt lat="45.67527998238802" lon="8.026739973574877">
        <ele>1683.4100000000001</ele>
        <time>2011-11-01T09:02:41Z</time>
      </trkpt>
      <trkpt lat="45.675349971279502" lon="8.026669984683394">
        <ele>1683.7149999999999</ele>
        <time>2011-11-01T09:02:56Z</time>
      </trkpt>
      <trkpt lat="45.675390036776662" lon="8.026620028540492">
        <ele>1685.239</ele>
        <time>2011-11-01T09:03:05Z</time>
      </trkpt>
      <trkpt lat="45.675470000132918" lon="8.026499999687076">
        <ele>1686.154</ele>
        <time>2011-11-01T09:03:20Z</time>
      </trkpt>
      <trkpt lat="45.675520040094852" lon="8.026379970833659">
        <ele>1687.982</ele>
        <time>2011-11-01T09:03:34Z</time>
      </trkpt>
      <trkpt lat="45.675569996237755" lon="8.026290033012629">
        <ele>1690.421</ele>
        <time>2011-11-01T09:03:48Z</time>
      </trkpt>
      <trkpt lat="45.675639985129237" lon="8.026170004159212">
        <ele>1692.25</ele>
        <time>2011-11-01T09:04:05Z</time>
      </trkpt>
      <trkpt lat="45.67570997402072" lon="8.02610001526773">
        <ele>1695.298</ele>
        <time>2011-11-01T09:04:17Z</time>
      </trkpt>
      <trkpt lat="45.675720032304525" lon="8.02610001526773">
        <ele>1695.9069999999999</ele>
        <time>2011-11-01T09:04:18Z</time>
      </trkpt>
      <trkpt lat="45.675760013982654" lon="8.026009993627667">
        <ele>1697.7360000000001</ele>
        <time>2011-11-01T09:04:32Z</time>
      </trkpt>
      <trkpt lat="45.675799995660782" lon="8.025960037484765">
        <ele>1698.6500000000001</ele>
        <time>2011-11-01T09:04:47Z</time>
      </trkpt>
      <trkpt lat="45.675820028409362" lon="8.025940004736185">
        <ele>1701.394</ele>
        <time>2011-11-01T09:04:59Z</time>
      </trkpt>
      <trkpt lat="45.675820028409362" lon="8.025879990309477">
        <ele>1702.9179999999999</ele>
        <time>2011-11-01T09:05:11Z</time>
      </trkpt>
      <trkpt lat="45.675830002874136" lon="8.025849983096123">
        <ele>1705.9659999999999</ele>
        <time>2011-11-01T09:05:26Z</time>
      </trkpt>
      <trkpt lat="45.67583997733891" lon="8.025810001417995">
        <ele>1706.8800000000001</ele>
        <time>2011-11-01T09:05:37Z</time>
      </trkpt>
      <trkpt lat="45.675890017300844" lon="8.02575996145606">
        <ele>1708.7090000000001</ele>
        <time>2011-11-01T09:05:54Z</time>
      </trkpt>
      <trkpt lat="45.675879959017038" lon="8.025730038061738">
        <ele>1711.1469999999999</ele>
        <time>2011-11-01T09:06:01Z</time>
      </trkpt>
      <trkpt lat="45.675929998978972" lon="8.02564999088645">
        <ele>1713.586</ele>
        <time>2011-11-01T09:06:19Z</time>
      </trkpt>
      <trkpt lat="45.675960006192327" lon="8.025610009208322">
        <ele>1716.329</ele>
        <time>2011-11-01T09:06:31Z</time>
      </trkpt>
      <trkpt lat="45.675999987870455" lon="8.025540020316839">
        <ele>1718.462</ele>
        <time>2011-11-01T09:06:45Z</time>
      </trkpt>
      <trkpt lat="45.676050027832389" lon="8.025449998676777">
        <ele>1719.682</ele>
        <time>2011-11-01T09:07:01Z</time>
      </trkpt>
      <trkpt lat="45.676080035045743" lon="8.025389984250069">
        <ele>1721.8150000000001</ele>
        <time>2011-11-01T09:07:15Z</time>
      </trkpt>
      <trkpt lat="45.676090009510517" lon="8.025340028107166">
        <ele>1725.1679999999999</ele>
        <time>2011-11-01T09:07:27Z</time>
      </trkpt>
      <trkpt lat="45.676099983975291" lon="8.025289988145232">
        <ele>1726.9970000000001</ele>
        <time>2011-11-01T09:07:43Z</time>
      </trkpt>
      <trkpt lat="45.676139965653419" lon="8.025289988145232">
        <ele>1728.826</ele>
        <time>2011-11-01T09:08:03Z</time>
      </trkpt>
      <trkpt lat="45.676150023937225" lon="8.025289988145232">
        <ele>1728.826</ele>
        <time>2011-11-01T09:08:27Z</time>
      </trkpt>
      <trkpt lat="45.676169972866774" lon="8.02519996650517">
        <ele>1730.3499999999999</ele>
        <time>2011-11-01T09:08:41Z</time>
      </trkpt>
      <trkpt lat="45.676199980080128" lon="8.025120003148913">
        <ele>1731.2639999999999</ele>
        <time>2011-11-01T09:08:54Z</time>
      </trkpt>
      <trkpt lat="45.676239961758256" lon="8.025059988722205">
        <ele>1734.617</ele>
        <time>2011-11-01T09:09:08Z</time>
      </trkpt>
      <trkpt lat="45.67626996897161" lon="8.024980025365949">
        <ele>1736.1410000000001</ele>
        <time>2011-11-01T09:09:23Z</time>
      </trkpt>
      <trkpt lat="45.676299976184964" lon="8.024910036474466">
        <ele>1737.665</ele>
        <time>2011-11-01T09:09:36Z</time>
      </trkpt>
      <trkpt lat="45.676340041682124" lon="8.024880029261112">
        <ele>1737.665</ele>
        <time>2011-11-01T09:09:52Z</time>
      </trkpt>
      <trkpt lat="45.676359990611672" lon="8.024820014834404">
        <ele>1737.665</ele>
        <time>2011-11-01T09:10:06Z</time>
      </trkpt>
      <trkpt lat="45.676359990611672" lon="8.024699985980988">
        <ele>1737.97</ele>
        <time>2011-11-01T09:10:21Z</time>
      </trkpt>
      <trkpt lat="45.676350016146898" lon="8.024629997089505">
        <ele>1738.579</ele>
        <time>2011-11-01T09:10:28Z</time>
      </trkpt>
      <trkpt lat="45.676329983398318" lon="8.024430004879832">
        <ele>1740.1030000000001</ele>
        <time>2011-11-01T09:10:45Z</time>
      </trkpt>
      <trkpt lat="45.676380023360252" lon="8.024300001561642">
        <ele>1740.4079999999999</ele>
        <time>2011-11-01T09:11:00Z</time>
      </trkpt>
      <trkpt lat="45.676389997825027" lon="8.024220038205385">
        <ele>1740.4079999999999</ele>
        <time>2011-11-01T09:11:15Z</time>
      </trkpt>
      <trkpt lat="45.676350016146898" lon="8.024019962176681">
        <ele>1743.4559999999999</ele>
        <time>2011-11-01T09:11:33Z</time>
      </trkpt>
      <trkpt lat="45.676369965076447" lon="8.023879984393716">
        <ele>1744.675</ele>
        <time>2011-11-01T09:11:49Z</time>
      </trkpt>
      <trkpt lat="45.676350016146898" lon="8.023809995502234">
        <ele>1748.028</ele>
        <time>2011-11-01T09:12:01Z</time>
      </trkpt>
      <trkpt lat="45.676350016146898" lon="8.023709999397397">
        <ele>1751.076</ele>
        <time>2011-11-01T09:12:16Z</time>
      </trkpt>
      <trkpt lat="45.676329983398318" lon="8.023630036041141">
        <ele>1753.5139999999999</ele>
        <time>2011-11-01T09:12:32Z</time>
      </trkpt>
      <trkpt lat="45.676329983398318" lon="8.023589970543981">
        <ele>1755.953</ele>
        <time>2011-11-01T09:12:47Z</time>
      </trkpt>
      <trkpt lat="45.676329983398318" lon="8.023519981652498">
        <ele>1758.3910000000001</ele>
        <time>2011-11-01T09:13:02Z</time>
      </trkpt>
      <trkpt lat="45.676320008933544" lon="8.023429960012436">
        <ele>1759.6099999999999</ele>
        <time>2011-11-01T09:13:21Z</time>
      </trkpt>
      <trkpt lat="45.676350016146898" lon="8.023300040513277">
        <ele>1759.6099999999999</ele>
        <time>2011-11-01T09:13:38Z</time>
      </trkpt>
      <trkpt lat="45.676359990611672" lon="8.023170037195087">
        <ele>1760.22</ele>
        <time>2011-11-01T09:13:54Z</time>
      </trkpt>
      <trkpt lat="45.676350016146898" lon="8.02307004109025">
        <ele>1761.7439999999999</ele>
        <time>2011-11-01T09:14:10Z</time>
      </trkpt>
      <trkpt lat="45.676369965076447" lon="8.023010026663542">
        <ele>1760.5250000000001</ele>
        <time>2011-11-01T09:14:53Z</time>
      </trkpt>
      <trkpt lat="45.676380023360252" lon="8.022829983383417">
        <ele>1761.7439999999999</ele>
        <time>2011-11-01T09:15:08Z</time>
      </trkpt>
      <trkpt lat="45.676399972289801" lon="8.022769968956709">
        <ele>1762.6579999999999</ele>
        <time>2011-11-01T09:15:15Z</time>
      </trkpt>
      <trkpt lat="45.676450012251735" lon="8.022560002282262">
        <ele>1763.8779999999999</ele>
        <time>2011-11-01T09:15:32Z</time>
      </trkpt>
      <trkpt lat="45.676459986716509" lon="8.022350035607815">
        <ele>1766.316</ele>
        <time>2011-11-01T09:15:51Z</time>
      </trkpt>
      <trkpt lat="45.676480019465089" lon="8.022199999541044">
        <ele>1768.7539999999999</ele>
        <time>2011-11-01T09:16:07Z</time>
      </trkpt>
      <trkpt lat="45.676450012251735" lon="8.022069996222854">
        <ele>1772.107</ele>
        <time>2011-11-01T09:16:24Z</time>
      </trkpt>
      <trkpt lat="45.676480019465089" lon="8.021939992904663">
        <ele>1773.6310000000001</ele>
        <time>2011-11-01T09:16:38Z</time>
      </trkpt>
      <trkpt lat="45.676499968394637" lon="8.021749975159764">
        <ele>1775.46</ele>
        <time>2011-11-01T09:16:56Z</time>
      </trkpt>
      <trkpt lat="45.676489993929863" lon="8.021600022912026">
        <ele>1778.508</ele>
        <time>2011-11-01T09:17:13Z</time>
      </trkpt>
      <trkpt lat="45.676489993929863" lon="8.021540008485317">
        <ele>1780.9459999999999</ele>
        <time>2011-11-01T09:17:20Z</time>
      </trkpt>
      <trkpt lat="45.676499968394637" lon="8.021419979631901">
        <ele>1783.6900000000001</ele>
        <time>2011-11-01T09:17:37Z</time>
      </trkpt>
      <trkpt lat="45.676489993929863" lon="8.02133004181087">
        <ele>1787.0419999999999</ele>
        <time>2011-11-01T09:17:52Z</time>
      </trkpt>
      <trkpt lat="45.676480019465089" lon="8.021259969100356">
        <ele>1788.8710000000001</ele>
        <time>2011-11-01T09:18:08Z</time>
      </trkpt>
      <trkpt lat="45.676499968394637" lon="8.021140024065971">
        <ele>1791.3099999999999</ele>
        <time>2011-11-01T09:18:24Z</time>
      </trkpt>
      <trkpt lat="45.676510026678443" lon="8.020989987999201">
        <ele>1792.8340000000001</ele>
        <time>2011-11-01T09:18:41Z</time>
      </trkpt>
      <trkpt lat="45.676489993929863" lon="8.020850010216236">
        <ele>1795.2719999999999</ele>
        <time>2011-11-01T09:18:57Z</time>
      </trkpt>
      <trkpt lat="45.676489993929863" lon="8.020710032433271">
        <ele>1798.0150000000001</ele>
        <time>2011-11-01T09:19:13Z</time>
      </trkpt>
      <trkpt lat="45.676499968394637" lon="8.020610036328435">
        <ele>1800.1489999999999</ele>
        <time>2011-11-01T09:19:26Z</time>
      </trkpt>
      <trkpt lat="45.676529975607991" lon="8.020490007475019">
        <ele>1801.9780000000001</ele>
        <time>2011-11-01T09:19:40Z</time>
      </trkpt>
      <trkpt lat="45.676540033891797" lon="8.020399985834956">
        <ele>1805.3299999999999</ele>
        <time>2011-11-01T09:19:52Z</time>
      </trkpt>
      <trkpt lat="45.676540033891797" lon="8.020309964194894">
        <ele>1807.769</ele>
        <time>2011-11-01T09:20:09Z</time>
      </trkpt>
      <trkpt lat="45.676580015569925" lon="8.020199993625283">
        <ele>1808.3779999999999</ele>
        <time>2011-11-01T09:20:52Z</time>
      </trkpt>
      <trkpt lat="45.676599964499474" lon="8.020030008628964">
        <ele>1811.1220000000001</ele>
        <time>2011-11-01T09:21:11Z</time>
      </trkpt>
      <trkpt lat="45.676610022783279" lon="8.020030008628964">
        <ele>1810.5119999999999</ele>
        <time>2011-11-01T09:21:50Z</time>
      </trkpt>
      <trkpt lat="45.676610022783279" lon="8.020039983093739">
        <ele>1810.2070000000001</ele>
        <time>2011-11-01T09:22:37Z</time>
      </trkpt>
      <trkpt lat="45.676640029996634" lon="8.019960019737482">
        <ele>1811.731</ele>
        <time>2011-11-01T09:22:56Z</time>
      </trkpt>
      <trkpt lat="45.676680011674762" lon="8.019809983670712">
        <ele>1813.865</ele>
        <time>2011-11-01T09:23:14Z</time>
      </trkpt>
      <trkpt lat="45.676750000566244" lon="8.019670005887747">
        <ele>1816.3030000000001</ele>
        <time>2011-11-01T09:23:32Z</time>
      </trkpt>
      <trkpt lat="45.676750000566244" lon="8.019670005887747">
        <ele>1816.913</ele>
        <time>2011-11-01T09:23:59Z</time>
      </trkpt>
      <trkpt lat="45.676840022206306" lon="8.019540002569556">
        <ele>1817.827</ele>
        <time>2011-11-01T09:24:20Z</time>
      </trkpt>
      <trkpt lat="45.676900036633015" lon="8.01941997371614">
        <ele>1818.4369999999999</ele>
        <time>2011-11-01T09:24:36Z</time>
      </trkpt>
      <trkpt lat="45.676910011097789" lon="8.019389966502786">
        <ele>1818.4369999999999</ele>
        <time>2011-11-01T09:25:01Z</time>
      </trkpt>
      <trkpt lat="45.676940018311143" lon="8.019340010359883">
        <ele>1817.827</ele>
        <time>2011-11-01T09:25:18Z</time>
      </trkpt>
      <trkpt lat="45.676979999989271" lon="8.019289970397949">
        <ele>1818.4369999999999</ele>
        <time>2011-11-01T09:25:36Z</time>
      </trkpt>
      <trkpt lat="45.677049988880754" lon="8.019159967079759">
        <ele>1818.742</ele>
        <time>2011-11-01T09:25:52Z</time>
      </trkpt>
      <trkpt lat="45.677059963345528" lon="8.01914001815021">
        <ele>1820.2660000000001</ele>
        <time>2011-11-01T09:26:07Z</time>
      </trkpt>
      <trkpt lat="45.677070021629333" lon="8.019149992614985">
        <ele>1820.2660000000001</ele>
        <time>2011-11-01T09:26:45Z</time>
      </trkpt>
      <trkpt lat="45.677110003307462" lon="8.019100036472082">
        <ele>1820.875</ele>
        <time>2011-11-01T09:27:35Z</time>
      </trkpt>
      <trkpt lat="45.677159959450364" lon="8.019049996510148">
        <ele>1820.875</ele>
        <time>2011-11-01T09:27:48Z</time>
      </trkpt>
      <trkpt lat="45.677189966663718" lon="8.01898998208344">
        <ele>1822.0940000000001</ele>
        <time>2011-11-01T09:27:57Z</time>
      </trkpt>
      <trkpt lat="45.677279988303781" lon="8.018840029835701">
        <ele>1824.2280000000001</ele>
        <time>2011-11-01T09:28:16Z</time>
      </trkpt>
      <trkpt lat="45.677330028265715" lon="8.018759982660413">
        <ele>1825.4469999999999</ele>
        <time>2011-11-01T09:28:31Z</time>
      </trkpt>
      <trkpt lat="45.677389958873391" lon="8.01868999376893">
        <ele>1826.3620000000001</ele>
        <time>2011-11-01T09:28:45Z</time>
      </trkpt>
      <trkpt lat="45.677509987726808" lon="8.018610030412674">
        <ele>1826.3620000000001</ele>
        <time>2011-11-01T09:29:03Z</time>
      </trkpt>
      <trkpt lat="45.677630016580224" lon="8.018510034307838">
        <ele>1828.8</ele>
        <time>2011-11-01T09:29:20Z</time>
      </trkpt>
      <trkpt lat="45.677690031006932" lon="8.018429987132549">
        <ele>1830.019</ele>
        <time>2011-11-01T09:29:35Z</time>
      </trkpt>
      <trkpt lat="45.677779968827963" lon="8.018350023776293">
        <ele>1830.019</ele>
        <time>2011-11-01T09:29:50Z</time>
      </trkpt>
      <trkpt lat="45.677869990468025" lon="8.018269976601005">
        <ele>1830.934</ele>
        <time>2011-11-01T09:30:06Z</time>
      </trkpt>
      <trkpt lat="45.677939979359508" lon="8.018139973282814">
        <ele>1832.153</ele>
        <time>2011-11-01T09:30:21Z</time>
      </trkpt>
      <trkpt lat="45.677979961037636" lon="8.018060009926558">
        <ele>1834.2860000000001</ele>
        <time>2011-11-01T09:30:36Z</time>
      </trkpt>
      <trkpt lat="45.67800996825099" lon="8.018009969964624">
        <ele>1834.5909999999999</ele>
        <time>2011-11-01T09:30:49Z</time>
      </trkpt>
      <trkpt lat="45.678020026534796" lon="8.017999995499849">
        <ele>1835.201</ele>
        <time>2011-11-01T09:31:13Z</time>
      </trkpt>
      <trkpt lat="45.678080040961504" lon="8.017939981073141">
        <ele>1837.03</ele>
        <time>2011-11-01T09:31:30Z</time>
      </trkpt>
      <trkpt lat="45.678169978782535" lon="8.017869992181659">
        <ele>1838.5540000000001</ele>
        <time>2011-11-01T09:31:46Z</time>
      </trkpt>
      <trkpt lat="45.678260000422597" lon="8.017779970541596">
        <ele>1841.9059999999999</ele>
        <time>2011-11-01T09:32:03Z</time>
      </trkpt>
      <trkpt lat="45.678320014849305" lon="8.01770000718534">
        <ele>1844.345</ele>
        <time>2011-11-01T09:32:20Z</time>
      </trkpt>
      <trkpt lat="45.678369970992208" lon="8.017649967223406">
        <ele>1846.7829999999999</ele>
        <time>2011-11-01T09:32:36Z</time>
      </trkpt>
      <trkpt lat="45.678410036489367" lon="8.017579978331924">
        <ele>1848.6120000000001</ele>
        <time>2011-11-01T09:32:52Z</time>
      </trkpt>
      <trkpt lat="45.67845999263227" lon="8.017549971118569">
        <ele>1851.05</ele>
        <time>2011-11-01T09:33:07Z</time>
      </trkpt>
      <trkpt lat="45.678499974310398" lon="8.017479982227087">
        <ele>1853.7940000000001</ele>
        <time>2011-11-01T09:33:24Z</time>
      </trkpt>
      <trkpt lat="45.678559988737106" lon="8.017430026084185">
        <ele>1856.232</ele>
        <time>2011-11-01T09:33:38Z</time>
      </trkpt>
      <trkpt lat="45.67861002869904" lon="8.017379986122251">
        <ele>1857.146</ele>
        <time>2011-11-01T09:33:52Z</time>
      </trkpt>
      <trkpt lat="45.678620003163815" lon="8.017340004444122">
        <ele>1860.499</ele>
        <time>2011-11-01T09:34:03Z</time>
      </trkpt>
      <trkpt lat="45.678680017590523" lon="8.01727001555264">
        <ele>1862.633</ele>
        <time>2011-11-01T09:34:17Z</time>
      </trkpt>
      <trkpt lat="45.678729973733425" lon="8.017200026661158">
        <ele>1864.462</ele>
        <time>2011-11-01T09:34:36Z</time>
      </trkpt>
      <trkpt lat="45.678770039230585" lon="8.017130037769675">
        <ele>1865.376</ele>
        <time>2011-11-01T09:34:52Z</time>
      </trkpt>
      <trkpt lat="45.678789988160133" lon="8.017110005021095">
        <ele>1868.729</ele>
        <time>2011-11-01T09:35:02Z</time>
      </trkpt>
      <trkpt lat="45.678859977051616" lon="8.017040016129613">
        <ele>1870.8620000000001</ele>
        <time>2011-11-01T09:35:20Z</time>
      </trkpt>
      <trkpt lat="45.678880009800196" lon="8.016980001702905">
        <ele>1873.606</ele>
        <time>2011-11-01T09:35:34Z</time>
      </trkpt>
      <trkpt lat="45.678850002586842" lon="8.016919987276197">
        <ele>1876.9580000000001</ele>
        <time>2011-11-01T09:35:50Z</time>
      </trkpt>
      <trkpt lat="45.678859977051616" lon="8.016870031133294">
        <ele>1877.568</ele>
        <time>2011-11-01T09:36:07Z</time>
      </trkpt>
      <trkpt lat="45.678880009800196" lon="8.016810016706586">
        <ele>1880.0060000000001</ele>
        <time>2011-11-01T09:36:22Z</time>
      </trkpt>
      <trkpt lat="45.678880009800196" lon="8.016770035028458">
        <ele>1881.835</ele>
        <time>2011-11-01T09:36:34Z</time>
      </trkpt>
      <trkpt lat="45.67891001701355" lon="8.016729969531298">
        <ele>1884.2739999999999</ele>
        <time>2011-11-01T09:36:51Z</time>
      </trkpt>
      <trkpt lat="45.678919991478324" lon="8.016699962317944">
        <ele>1886.1020000000001</ele>
        <time>2011-11-01T09:36:58Z</time>
      </trkpt>
      <trkpt lat="45.678929965943098" lon="8.016670038923621">
        <ele>1887.0170000000001</ele>
        <time>2011-11-01T09:37:12Z</time>
      </trkpt>
      <trkpt lat="45.678949998691678" lon="8.016670038923621">
        <ele>1887.0170000000001</ele>
        <time>2011-11-01T09:37:33Z</time>
      </trkpt>
      <trkpt lat="45.678959973156452" lon="8.016650006175041">
        <ele>1887.0170000000001</ele>
        <time>2011-11-01T09:37:54Z</time>
      </trkpt>
      <trkpt lat="45.678940024226904" lon="8.016599966213107">
        <ele>1886.712</ele>
        <time>2011-11-01T09:38:12Z</time>
      </trkpt>
      <trkpt lat="45.678929965943098" lon="8.016610024496913">
        <ele>1886.712</ele>
        <time>2011-11-01T09:39:22Z</time>
      </trkpt>
      <trkpt lat="45.678899958729744" lon="8.016629973426461">
        <ele>1887.0170000000001</ele>
        <time>2011-11-01T09:39:43Z</time>
      </trkpt>
      <trkpt lat="45.678919991478324" lon="8.016610024496913">
        <ele>1887.626</ele>
        <time>2011-11-01T09:39:58Z</time>
      </trkpt>
      <trkpt lat="45.678919991478324" lon="8.016629973426461">
        <ele>1887.626</ele>
        <time>2011-11-01T09:40:16Z</time>
      </trkpt>
      <trkpt lat="45.678959973156452" lon="8.016659980639815">
        <ele>1887.0170000000001</ele>
        <time>2011-11-01T09:40:38Z</time>
      </trkpt>
      <trkpt lat="45.678959973156452" lon="8.016659980639815">
        <ele>1887.626</ele>
        <time>2011-11-01T09:40:51Z</time>
      </trkpt>
      <trkpt lat="45.67904002033174" lon="8.016699962317944">
        <ele>1884.578</ele>
        <time>2011-11-01T09:41:08Z</time>
      </trkpt>
      <trkpt lat="45.679059969261289" lon="8.016740027815104">
        <ele>1882.1400000000001</ele>
        <time>2011-11-01T09:41:23Z</time>
      </trkpt>
      <trkpt lat="45.679089976474643" lon="8.016780009493232">
        <ele>1880.0060000000001</ele>
        <time>2011-11-01T09:41:36Z</time>
      </trkpt>
      <trkpt lat="45.679159965366125" lon="8.01681999117136">
        <ele>1876.3489999999999</ele>
        <time>2011-11-01T09:41:52Z</time>
      </trkpt>
      <trkpt lat="45.679240012541413" lon="8.01679995842278">
        <ele>1874.2149999999999</ele>
        <time>2011-11-01T09:42:07Z</time>
      </trkpt>
      <trkpt lat="45.679249987006187" lon="8.016810016706586">
        <ele>1872.691</ele>
        <time>2011-11-01T09:42:11Z</time>
      </trkpt>
      <trkpt lat="45.679300026968122" lon="8.016859972849488">
        <ele>1870.8620000000001</ele>
        <time>2011-11-01T09:42:22Z</time>
      </trkpt>
      <trkpt lat="45.67934000864625" lon="8.016910012811422">
        <ele>1867.51</ele>
        <time>2011-11-01T09:42:36Z</time>
      </trkpt>
      <trkpt lat="45.679370015859604" lon="8.016929961740971">
        <ele>1865.9860000000001</ele>
        <time>2011-11-01T09:42:43Z</time>
      </trkpt>
      <trkpt lat="45.67944997921586" lon="8.016959968954325">
        <ele>1863.8520000000001</ele>
        <time>2011-11-01T09:42:58Z</time>
      </trkpt>
      <trkpt lat="45.679500019177794" lon="8.016970027238131">
        <ele>1863.8520000000001</ele>
        <time>2011-11-01T09:43:03Z</time>
      </trkpt>
      <trkpt lat="45.679630022495985" lon="8.017000034451485">
        <ele>1863.547</ele>
        <time>2011-11-01T09:43:18Z</time>
      </trkpt>
      <trkpt lat="45.679679978638887" lon="8.017000034451485">
        <ele>1862.9380000000001</ele>
        <time>2011-11-01T09:43:32Z</time>
      </trkpt>
      <trkpt lat="45.679679978638887" lon="8.017019983381033">
        <ele>1862.9380000000001</ele>
        <time>2011-11-01T09:43:47Z</time>
      </trkpt>
      <trkpt lat="45.679719960317016" lon="8.017049990594387">
        <ele>1859.585</ele>
        <time>2011-11-01T09:44:01Z</time>
      </trkpt>
      <trkpt lat="45.679800007492304" lon="8.017079997807741">
        <ele>1858.6700000000001</ele>
        <time>2011-11-01T09:44:13Z</time>
      </trkpt>
      <trkpt lat="45.679860021919012" lon="8.017079997807741">
        <ele>1855.318</ele>
        <time>2011-11-01T09:44:26Z</time>
      </trkpt>
      <trkpt lat="45.67990000359714" lon="8.017170019447804">
        <ele>1851.9649999999999</ele>
        <time>2011-11-01T09:44:37Z</time>
      </trkpt>
      <trkpt lat="45.679939985275269" lon="8.017210001125932">
        <ele>1851.05</ele>
        <time>2011-11-01T09:44:43Z</time>
      </trkpt>
      <trkpt lat="45.680050039663911" lon="8.01727001555264">
        <ele>1849.5260000000001</ele>
        <time>2011-11-01T09:44:57Z</time>
      </trkpt>
      <trkpt lat="45.680160010233521" lon="8.017319971695542">
        <ele>1849.222</ele>
        <time>2011-11-01T09:45:07Z</time>
      </trkpt>
      <trkpt lat="45.68022002466023" lon="8.017349978908896">
        <ele>1849.222</ele>
        <time>2011-11-01T09:45:12Z</time>
      </trkpt>
      <trkpt lat="45.680239973589778" lon="8.017379986122251">
        <ele>1848.6120000000001</ele>
        <time>2011-11-01T09:45:15Z</time>
      </trkpt>
      <trkpt lat="45.680339969694614" lon="8.017440000548959">
        <ele>1846.174</ele>
        <time>2011-11-01T09:45:26Z</time>
      </trkpt>
      <trkpt lat="45.680420016869903" lon="8.017500014975667">
        <ele>1844.6500000000001</ele>
        <time>2011-11-01T09:45:35Z</time>
      </trkpt>
      <trkpt lat="45.680520012974739" lon="8.017509989440441">
        <ele>1840.992</ele>
        <time>2011-11-01T09:45:49Z</time>
      </trkpt>
      <trkpt lat="45.680539961904287" lon="8.017530022189021">
        <ele>1840.992</ele>
        <time>2011-11-01T09:45:51Z</time>
      </trkpt>
      <trkpt lat="45.680669965222478" lon="8.017600011080504">
        <ele>1837.6389999999999</ele>
        <time>2011-11-01T09:46:06Z</time>
      </trkpt>
      <trkpt lat="45.680829975754023" lon="8.017619960010052">
        <ele>1835.201</ele>
        <time>2011-11-01T09:46:21Z</time>
      </trkpt>
      <trkpt lat="45.681050000712276" lon="8.017549971118569">
        <ele>1835.201</ele>
        <time>2011-11-01T09:46:40Z</time>
      </trkpt>
      <trkpt lat="45.681180004030466" lon="8.017519963905215">
        <ele>1834.5909999999999</ele>
        <time>2011-11-01T09:46:53Z</time>
      </trkpt>
      <trkpt lat="45.681289974600077" lon="8.017479982227087">
        <ele>1834.5909999999999</ele>
        <time>2011-11-01T09:47:06Z</time>
      </trkpt>
      <trkpt lat="45.681349989026785" lon="8.017470007762313">
        <ele>1834.5909999999999</ele>
        <time>2011-11-01T09:47:13Z</time>
      </trkpt>
      <trkpt lat="45.681440010666847" lon="8.017409993335605">
        <ele>1833.3720000000001</ele>
        <time>2011-11-01T09:47:24Z</time>
      </trkpt>
      <trkpt lat="45.681449985131621" lon="8.017400018870831">
        <ele>1836.115</ele>
        <time>2011-11-01T09:47:26Z</time>
      </trkpt>
      <trkpt lat="45.681449985131621" lon="8.017400018870831">
        <ele>1834.5909999999999</ele>
        <time>2011-11-01T09:47:27Z</time>
      </trkpt>
      <trkpt lat="45.681519974023104" lon="8.017389960587025">
        <ele>1837.944</ele>
        <time>2011-11-01T09:47:37Z</time>
      </trkpt>
      <trkpt lat="45.681609995663166" lon="8.017379986122251">
        <ele>1835.201</ele>
        <time>2011-11-01T09:47:51Z</time>
      </trkpt>
      <trkpt lat="45.68161997012794" lon="8.017370011657476">
        <ele>1835.5060000000001</ele>
        <time>2011-11-01T09:47:52Z</time>
      </trkpt>
      <trkpt lat="45.681739998981357" lon="8.017340004444122">
        <ele>1836.7249999999999</ele>
        <time>2011-11-01T09:48:06Z</time>
      </trkpt>
      <trkpt lat="45.681849969550967" lon="8.01727001555264">
        <ele>1837.6389999999999</ele>
        <time>2011-11-01T09:48:23Z</time>
      </trkpt>
      <trkpt lat="45.68193999119103" lon="8.017230033874512">
        <ele>1840.078</ele>
        <time>2011-11-01T09:48:40Z</time>
      </trkpt>
      <trkpt lat="45.682020038366318" lon="8.01727001555264">
        <ele>1842.5160000000001</ele>
        <time>2011-11-01T09:48:56Z</time>
      </trkpt>
      <trkpt lat="45.6820900272578" lon="8.017260041087866">
        <ele>1843.7349999999999</ele>
        <time>2011-11-01T09:49:06Z</time>
      </trkpt>
      <trkpt lat="45.682209972292185" lon="8.017300022765994">
        <ele>1845.8689999999999</ele>
        <time>2011-11-01T09:49:23Z</time>
      </trkpt>
      <trkpt lat="45.682330001145601" lon="8.017330029979348">
        <ele>1846.7829999999999</ele>
        <time>2011-11-01T09:49:37Z</time>
      </trkpt>
      <trkpt lat="45.682380041107535" lon="8.017349978908896">
        <ele>1846.7829999999999</ele>
        <time>2011-11-01T09:49:43Z</time>
      </trkpt>
      <trkpt lat="45.682460004463792" lon="8.017309997230768">
        <ele>1847.6980000000001</ele>
        <time>2011-11-01T09:49:54Z</time>
      </trkpt>
      <trkpt lat="45.682460004463792" lon="8.017309997230768">
        <ele>1847.6980000000001</ele>
        <time>2011-11-01T09:49:55Z</time>
      </trkpt>
      <trkpt lat="45.682610040530562" lon="8.01727001555264">
        <ele>1848.002</ele>
        <time>2011-11-01T09:50:12Z</time>
      </trkpt>
      <trkpt lat="45.682699978351593" lon="8.01724998280406">
        <ele>1846.7829999999999</ele>
        <time>2011-11-01T09:50:24Z</time>
      </trkpt>
      <trkpt lat="45.682820007205009" lon="8.017200026661158">
        <ele>1845.8689999999999</ele>
        <time>2011-11-01T09:50:40Z</time>
      </trkpt>
      <trkpt lat="45.682920003309846" lon="8.017149986699224">
        <ele>1845.259</ele>
        <time>2011-11-01T09:50:54Z</time>
      </trkpt>
      <trkpt lat="45.683019999414682" lon="8.017089972272515">
        <ele>1846.7829999999999</ele>
        <time>2011-11-01T09:51:09Z</time>
      </trkpt>
      <trkpt lat="45.683129969984293" lon="8.017019983381033">
        <ele>1848.002</ele>
        <time>2011-11-01T09:51:26Z</time>
      </trkpt>
      <trkpt lat="45.683229966089129" lon="8.016929961740971">
        <ele>1850.441</ele>
        <time>2011-11-01T09:51:42Z</time>
      </trkpt>
      <trkpt lat="45.683329962193966" lon="8.016880005598068">
        <ele>1852.5740000000001</ele>
        <time>2011-11-01T09:51:57Z</time>
      </trkpt>
      <trkpt lat="45.683440016582608" lon="8.01684002391994">
        <ele>1855.9269999999999</ele>
        <time>2011-11-01T09:52:13Z</time>
      </trkpt>
      <trkpt lat="45.683549987152219" lon="8.016810016706586">
        <ele>1858.366</ele>
        <time>2011-11-01T09:52:30Z</time>
      </trkpt>
      <trkpt lat="45.683660041540861" lon="8.016759976744652">
        <ele>1859.28</ele>
        <time>2011-11-01T09:52:46Z</time>
      </trkpt>
      <trkpt lat="45.683730030432343" lon="8.016699962317944">
        <ele>1861.7180000000001</ele>
        <time>2011-11-01T09:53:02Z</time>
      </trkpt>
      <trkpt lat="45.683860033750534" lon="8.016650006175041">
        <ele>1861.7180000000001</ele>
        <time>2011-11-01T09:53:18Z</time>
      </trkpt>
      <trkpt lat="45.683919964358211" lon="8.016610024496913">
        <ele>1865.0709999999999</ele>
        <time>2011-11-01T09:53:28Z</time>
      </trkpt>
      <trkpt lat="45.684030018746853" lon="8.016619998961687">
        <ele>1867.51</ele>
        <time>2011-11-01T09:53:44Z</time>
      </trkpt>
      <trkpt lat="45.684160022065043" lon="8.016629973426461">
        <ele>1868.424</ele>
        <time>2011-11-01T09:54:02Z</time>
      </trkpt>
      <trkpt lat="45.684220036491752" lon="8.016619998961687">
        <ele>1871.777</ele>
        <time>2011-11-01T09:54:14Z</time>
      </trkpt>
      <trkpt lat="45.684290025383234" lon="8.016569958999753">
        <ele>1872.0820000000001</ele>
        <time>2011-11-01T09:54:28Z</time>
      </trkpt>
      <trkpt lat="45.684399995952845" lon="8.016529977321625">
        <ele>1875.1300000000001</ele>
        <time>2011-11-01T09:54:45Z</time>
      </trkpt>
      <trkpt lat="45.684499992057681" lon="8.016580017283559">
        <ele>1877.568</ele>
        <time>2011-11-01T09:55:01Z</time>
      </trkpt>
      <trkpt lat="45.684609962627292" lon="8.016580017283559">
        <ele>1879.3969999999999</ele>
        <time>2011-11-01T09:55:18Z</time>
      </trkpt>
      <trkpt lat="45.684660002589226" lon="8.016589991748333">
        <ele>1878.787</ele>
        <time>2011-11-01T09:55:32Z</time>
      </trkpt>
      <trkpt lat="45.684739965945482" lon="8.016580017283559">
        <ele>1880.0060000000001</ele>
        <time>2011-11-01T09:55:48Z</time>
      </trkpt>
      <trkpt lat="45.684910034760833" lon="8.016599966213107">
        <ele>1879.3969999999999</ele>
        <time>2011-11-01T09:56:05Z</time>
      </trkpt>
      <trkpt lat="45.685089994221926" lon="8.016670038923621">
        <ele>1877.568</ele>
        <time>2011-11-01T09:56:23Z</time>
      </trkpt>
      <trkpt lat="45.68527003750205" lon="8.016710020601749">
        <ele>1876.3489999999999</ele>
        <time>2011-11-01T09:56:39Z</time>
      </trkpt>
      <trkpt lat="45.685429964214563" lon="8.016789983958006">
        <ele>1875.1300000000001</ele>
        <time>2011-11-01T09:56:57Z</time>
      </trkpt>
      <trkpt lat="45.685480004176497" lon="8.01679995842278">
        <ele>1874.2149999999999</ele>
        <time>2011-11-01T09:57:17Z</time>
      </trkpt>
      <trkpt lat="45.685489978641272" lon="8.016810016706586">
        <ele>1874.2149999999999</ele>
        <time>2011-11-01T09:57:53Z</time>
      </trkpt>
      <trkpt lat="45.685489978641272" lon="8.016810016706586">
        <ele>1870.2529999999999</ele>
        <time>2011-11-01T09:57:58Z</time>
      </trkpt>
      <trkpt lat="45.685489978641272" lon="8.016810016706586">
        <ele>1875.1300000000001</ele>
        <time>2011-11-01T09:57:59Z</time>
      </trkpt>
      <trkpt lat="45.685519985854626" lon="8.01681999117136">
        <ele>1872.691</ele>
        <time>2011-11-01T09:58:46Z</time>
      </trkpt>
      <trkpt lat="45.68557002581656" lon="8.01681999117136">
        <ele>1872.9960000000001</ele>
        <time>2011-11-01T09:58:52Z</time>
      </trkpt>
      <trkpt lat="45.685619981959462" lon="8.01684002391994">
        <ele>1873.606</ele>
        <time>2011-11-01T09:58:56Z</time>
      </trkpt>
      <trkpt lat="45.685809999704361" lon="8.016889980062842">
        <ele>1874.52</ele>
        <time>2011-11-01T09:59:15Z</time>
      </trkpt>
      <trkpt lat="45.685909995809197" lon="8.016910012811422">
        <ele>1875.1300000000001</ele>
        <time>2011-11-01T09:59:25Z</time>
      </trkpt>
      <trkpt lat="45.686070006340742" lon="8.016989976167679">
        <ele>1877.568</ele>
        <time>2011-11-01T09:59:42Z</time>
      </trkpt>
      <trkpt lat="45.686209984123707" lon="8.017049990594387">
        <ele>1878.482</ele>
        <time>2011-11-01T09:59:59Z</time>
      </trkpt>
      <trkpt lat="45.686379969120026" lon="8.017210001125932">
        <ele>1878.787</ele>
        <time>2011-11-01T10:00:19Z</time>
      </trkpt>
      <trkpt lat="45.686439983546734" lon="8.017260041087866">
        <ele>1880.0060000000001</ele>
        <time>2011-11-01T10:00:26Z</time>
      </trkpt>
      <trkpt lat="45.686609968543053" lon="8.017400018870831">
        <ele>1880.0060000000001</ele>
        <time>2011-11-01T10:00:44Z</time>
      </trkpt>
      <trkpt lat="45.686669982969761" lon="8.017460033297539">
        <ele>1880.921</ele>
        <time>2011-11-01T10:00:51Z</time>
      </trkpt>
      <trkpt lat="45.686829993501306" lon="8.017590036615729">
        <ele>1882.75</ele>
        <time>2011-11-01T10:01:10Z</time>
      </trkpt>
      <trkpt lat="45.686920015141368" lon="8.01767997443676">
        <ele>1886.1020000000001</ele>
        <time>2011-11-01T10:01:25Z</time>
      </trkpt>
      <trkpt lat="45.68699000403285" lon="8.017760021612048">
        <ele>1888.846</ele>
        <time>2011-11-01T10:01:42Z</time>
      </trkpt>
      <trkpt lat="45.687039960175753" lon="8.017869992181659">
        <ele>1890.979</ele>
        <time>2011-11-01T10:02:00Z</time>
      </trkpt>
      <trkpt lat="45.687090000137687" lon="8.017930006608367">
        <ele>1894.3320000000001</ele>
        <time>2011-11-01T10:02:16Z</time>
      </trkpt>
      <trkpt lat="45.687140040099621" lon="8.017990021035075">
        <ele>1896.77</ele>
        <time>2011-11-01T10:02:34Z</time>
      </trkpt>
      <trkpt lat="45.687189996242523" lon="8.018039977177978">
        <ele>1899.2090000000001</ele>
        <time>2011-11-01T10:02:50Z</time>
      </trkpt>
      <trkpt lat="45.687259985134006" lon="8.018079958856106">
        <ele>1901.952</ele>
        <time>2011-11-01T10:03:07Z</time>
      </trkpt>
      <trkpt lat="45.687319999560714" lon="8.018160006031394">
        <ele>1903.4760000000001</ele>
        <time>2011-11-01T10:03:23Z</time>
      </trkpt>
      <trkpt lat="45.687389988452196" lon="8.018239969387651">
        <ele>1905.914</ele>
        <time>2011-11-01T10:03:41Z</time>
      </trkpt>
      <trkpt lat="45.687410021200776" lon="8.018139973282814">
        <ele>1909.2670000000001</ele>
        <time>2011-11-01T10:03:57Z</time>
      </trkpt>
      <trkpt lat="45.687450002878904" lon="8.018079958856106">
        <ele>1912.01</ele>
        <time>2011-11-01T10:04:13Z</time>
      </trkpt>
      <trkpt lat="45.687510017305613" lon="8.018090017139912">
        <ele>1913.5340000000001</ele>
        <time>2011-11-01T10:04:29Z</time>
      </trkpt>
      <trkpt lat="45.687559973448515" lon="8.018030002713203">
        <ele>1916.8869999999999</ele>
        <time>2011-11-01T10:04:46Z</time>
      </trkpt>
      <trkpt lat="45.687629962339997" lon="8.018069984391332">
        <ele>1918.7159999999999</ele>
        <time>2011-11-01T10:05:06Z</time>
      </trkpt>
      <trkpt lat="45.687689976766706" lon="8.018060009926558">
        <ele>1921.7639999999999</ele>
        <time>2011-11-01T10:05:22Z</time>
      </trkpt>
      <trkpt lat="45.687729958444834" lon="8.018050035461783">
        <ele>1922.9829999999999</ele>
        <time>2011-11-01T10:05:41Z</time>
      </trkpt>
      <trkpt lat="45.687779998406768" lon="8.018030002713203">
        <ele>1926.0309999999999</ele>
        <time>2011-11-01T10:05:54Z</time>
      </trkpt>
      <trkpt lat="45.687819980084896" lon="8.018020028248429">
        <ele>1927.8599999999999</ele>
        <time>2011-11-01T10:06:08Z</time>
      </trkpt>
      <trkpt lat="45.687859961763024" lon="8.018030002713203">
        <ele>1929.384</ele>
        <time>2011-11-01T10:06:24Z</time>
      </trkpt>
      <trkpt lat="45.687919976189733" lon="8.018050035461783">
        <ele>1932.127</ele>
        <time>2011-11-01T10:06:41Z</time>
      </trkpt>
      <trkpt lat="45.687970016151667" lon="8.018120024353266">
        <ele>1934.566</ele>
        <time>2011-11-01T10:06:57Z</time>
      </trkpt>
      <trkpt lat="45.688030030578375" lon="8.018190013244748">
        <ele>1937.9179999999999</ele>
        <time>2011-11-01T10:07:14Z</time>
      </trkpt>
      <trkpt lat="45.688070012256503" lon="8.018260002136231">
        <ele>1940.0519999999999</ele>
        <time>2011-11-01T10:07:28Z</time>
      </trkpt>
      <trkpt lat="45.688130026683211" lon="8.018320016562939">
        <ele>1941.8810000000001</ele>
        <time>2011-11-01T10:07:45Z</time>
      </trkpt>
      <trkpt lat="45.68817000836134" lon="8.018369972705841">
        <ele>1943.71</ele>
        <time>2011-11-01T10:07:58Z</time>
      </trkpt>
      <trkpt lat="45.688219964504242" lon="8.018380030989647">
        <ele>1946.1479999999999</ele>
        <time>2011-11-01T10:08:13Z</time>
      </trkpt>
      <trkpt lat="45.688260030001402" lon="8.018369972705841">
        <ele>1948.586</ele>
        <time>2011-11-01T10:08:30Z</time>
      </trkpt>
      <trkpt lat="45.68827997893095" lon="8.018359998241067">
        <ele>1950.1099999999999</ele>
        <time>2011-11-01T10:08:44Z</time>
      </trkpt>
      <trkpt lat="45.688330018892884" lon="8.018369972705841">
        <ele>1952.854</ele>
        <time>2011-11-01T10:09:00Z</time>
      </trkpt>
      <trkpt lat="45.688360026106238" lon="8.018369972705841">
        <ele>1953.768</ele>
        <time>2011-11-01T10:09:17Z</time>
      </trkpt>
      <trkpt lat="45.688390033319592" lon="8.018359998241067">
        <ele>1956.2059999999999</ele>
        <time>2011-11-01T10:09:31Z</time>
      </trkpt>
      <trkpt lat="45.688430014997721" lon="8.018359998241067">
        <ele>1959.2539999999999</ele>
        <time>2011-11-01T10:09:52Z</time>
      </trkpt>
      <trkpt lat="45.688439989462495" lon="8.018299983814359">
        <ele>1960.1690000000001</ele>
        <time>2011-11-01T10:10:08Z</time>
      </trkpt>
      <trkpt lat="45.688469996675849" lon="8.018260002136231">
        <ele>1962.912</ele>
        <time>2011-11-01T10:10:22Z</time>
      </trkpt>
      <trkpt lat="45.688509978353977" lon="8.018250027671456">
        <ele>1965.96</ele>
        <time>2011-11-01T10:10:37Z</time>
      </trkpt>
      <trkpt lat="45.68857996724546" lon="8.018250027671456">
        <ele>1967.789</ele>
        <time>2011-11-01T10:10:56Z</time>
      </trkpt>
      <trkpt lat="45.688650039955974" lon="8.018260002136231">
        <ele>1970.2270000000001</ele>
        <time>2011-11-01T10:11:15Z</time>
      </trkpt>
      <trkpt lat="45.688699996098876" lon="8.018329991027713">
        <ele>1972.6659999999999</ele>
        <time>2011-11-01T10:11:33Z</time>
      </trkpt>
      <trkpt lat="45.688739977777004" lon="8.018339965492487">
        <ele>1975.104</ele>
        <time>2011-11-01T10:11:51Z</time>
      </trkpt>
      <trkpt lat="45.688769984990358" lon="8.018390005454421">
        <ele>1976.3230000000001</ele>
        <time>2011-11-01T10:12:05Z</time>
      </trkpt>
      <trkpt lat="45.688809966668487" lon="8.018420012667775">
        <ele>1977.847</ele>
        <time>2011-11-01T10:12:18Z</time>
      </trkpt>
      <trkpt lat="45.688850032165647" lon="8.018410038203001">
        <ele>1978.7619999999999</ele>
        <time>2011-11-01T10:12:36Z</time>
      </trkpt>
      <trkpt lat="45.688880039379001" lon="8.018390005454421">
        <ele>1981.2</ele>
        <time>2011-11-01T10:12:52Z</time>
      </trkpt>
      <trkpt lat="45.688899988308549" lon="8.018369972705841">
        <ele>1982.7239999999999</ele>
        <time>2011-11-01T10:13:09Z</time>
      </trkpt>
      <trkpt lat="45.688939969986677" lon="8.018380030989647">
        <ele>1985.4670000000001</ele>
        <time>2011-11-01T10:13:25Z</time>
      </trkpt>
      <trkpt lat="45.688980035483837" lon="8.018429987132549">
        <ele>1986.077</ele>
        <time>2011-11-01T10:13:40Z</time>
      </trkpt>
      <trkpt lat="45.689020017161965" lon="8.018469968810678">
        <ele>1989.4300000000001</ele>
        <time>2011-11-01T10:13:56Z</time>
      </trkpt>
      <trkpt lat="45.689039966091514" lon="8.018469968810678">
        <ele>1991.258</ele>
        <time>2011-11-01T10:14:03Z</time>
      </trkpt>
      <trkpt lat="45.689050024375319" lon="8.018410038203001">
        <ele>1992.7819999999999</ele>
        <time>2011-11-01T10:14:17Z</time>
      </trkpt>
      <trkpt lat="45.689069973304868" lon="8.018429987132549">
        <ele>1994.306</ele>
        <time>2011-11-01T10:14:33Z</time>
      </trkpt>
      <trkpt lat="45.689120013266802" lon="8.018499976024032">
        <ele>1994.6110000000001</ele>
        <time>2011-11-01T10:14:47Z</time>
      </trkpt>
      <trkpt lat="45.689190002158284" lon="8.018540041521192">
        <ele>1997.6590000000001</ele>
        <time>2011-11-01T10:15:03Z</time>
      </trkpt>
      <trkpt lat="45.689250016584992" lon="8.018550015985966">
        <ele>2000.402</ele>
        <time>2011-11-01T10:15:22Z</time>
      </trkpt>
      <trkpt lat="45.689289998263121" lon="8.018569964915514">
        <ele>2001.317</ele>
        <time>2011-11-01T10:15:34Z</time>
      </trkpt>
      <trkpt lat="45.689359987154603" lon="8.018569964915514">
        <ele>2003.7550000000001</ele>
        <time>2011-11-01T10:15:52Z</time>
      </trkpt>
      <trkpt lat="45.689399968832731" lon="8.018650012090802">
        <ele>2006.8030000000001</ele>
        <time>2011-11-01T10:16:09Z</time>
      </trkpt>
      <trkpt lat="45.689450008794665" lon="8.018650012090802">
        <ele>2007.7180000000001</ele>
        <time>2011-11-01T10:16:23Z</time>
      </trkpt>
      <trkpt lat="45.689299972727895" lon="8.018569964915514">
        <ele>2003.7550000000001</ele>
        <time>2011-11-01T11:27:04Z</time>
      </trkpt>
      <trkpt lat="45.689299972727895" lon="8.018550015985966">
        <ele>2003.45</ele>
        <time>2011-11-01T11:27:29Z</time>
      </trkpt>
      <trkpt lat="45.689239958301187" lon="8.018540041521192">
        <ele>2001.317</ele>
        <time>2011-11-01T11:27:55Z</time>
      </trkpt>
      <trkpt lat="45.689169969409704" lon="8.018520008772612">
        <ele>1997.9639999999999</ele>
        <time>2011-11-01T11:28:04Z</time>
      </trkpt>
      <trkpt lat="45.689110038802028" lon="8.018520008772612">
        <ele>1994.6110000000001</ele>
        <time>2011-11-01T11:28:14Z</time>
      </trkpt>
      <trkpt lat="45.68902999162674" lon="8.018480027094483">
        <ele>1992.4780000000001</ele>
        <time>2011-11-01T11:28:31Z</time>
      </trkpt>
      <trkpt lat="45.688990009948611" lon="8.018459994345903">
        <ele>1988.5150000000001</ele>
        <time>2011-11-01T11:28:43Z</time>
      </trkpt>
      <trkpt lat="45.688939969986677" lon="8.018450019881129">
        <ele>1986.991</ele>
        <time>2011-11-01T11:28:57Z</time>
      </trkpt>
      <trkpt lat="45.688880039379001" lon="8.018399979919195">
        <ele>1983.6379999999999</ele>
        <time>2011-11-01T11:29:11Z</time>
      </trkpt>
      <trkpt lat="45.688829999417067" lon="8.018420012667775">
        <ele>1980.2860000000001</ele>
        <time>2011-11-01T11:29:25Z</time>
      </trkpt>
      <trkpt lat="45.688820024952292" lon="8.018410038203001">
        <ele>1979.981</ele>
        <time>2011-11-01T11:29:27Z</time>
      </trkpt>
      <trkpt lat="45.688769984990358" lon="8.018390005454421">
        <ele>1976.3230000000001</ele>
        <time>2011-11-01T11:29:39Z</time>
      </trkpt>
      <trkpt lat="45.688699996098876" lon="8.018350023776293">
        <ele>1974.4939999999999</ele>
        <time>2011-11-01T11:29:54Z</time>
      </trkpt>
      <trkpt lat="45.688669988885522" lon="8.018309958279133">
        <ele>1971.751</ele>
        <time>2011-11-01T11:30:06Z</time>
      </trkpt>
      <trkpt lat="45.68859999999404" lon="8.018250027671456">
        <ele>1969.6179999999999</ele>
        <time>2011-11-01T11:30:21Z</time>
      </trkpt>
      <trkpt lat="45.688549960032105" lon="8.018239969387651">
        <ele>1966.874</ele>
        <time>2011-11-01T11:30:29Z</time>
      </trkpt>
      <trkpt lat="45.688469996675849" lon="8.018180038779974">
        <ele>1963.5219999999999</ele>
        <time>2011-11-01T11:30:46Z</time>
      </trkpt>
      <trkpt lat="45.688430014997721" lon="8.01815003156662">
        <ele>1960.4739999999999</ele>
        <time>2011-11-01T11:31:00Z</time>
      </trkpt>
      <trkpt lat="45.688370000571012" lon="8.018169980496168">
        <ele>1958.645</ele>
        <time>2011-11-01T11:31:14Z</time>
      </trkpt>
      <trkpt lat="45.688339993357658" lon="8.018120024353266">
        <ele>1955.2919999999999</ele>
        <time>2011-11-01T11:31:25Z</time>
      </trkpt>
      <trkpt lat="45.688290037214756" lon="8.018120024353266">
        <ele>1953.768</ele>
        <time>2011-11-01T11:31:40Z</time>
      </trkpt>
      <trkpt lat="45.688239997252822" lon="8.018120024353266">
        <ele>1951.3299999999999</ele>
        <time>2011-11-01T11:31:48Z</time>
      </trkpt>
      <trkpt lat="45.688209990039468" lon="8.018060009926558">
        <ele>1947.9770000000001</ele>
        <time>2011-11-01T11:31:58Z</time>
      </trkpt>
      <trkpt lat="45.688140001147985" lon="8.018060009926558">
        <ele>1945.8430000000001</ele>
        <time>2011-11-01T11:32:10Z</time>
      </trkpt>
      <trkpt lat="45.688100019469857" lon="8.018030002713203">
        <ele>1942.7950000000001</ele>
        <time>2011-11-01T11:32:20Z</time>
      </trkpt>
      <trkpt lat="45.688030030578375" lon="8.018069984391332">
        <ele>1940.357</ele>
        <time>2011-11-01T11:32:33Z</time>
      </trkpt>
      <trkpt lat="45.687970016151667" lon="8.018039977177978">
        <ele>1937.0039999999999</ele>
        <time>2011-11-01T11:32:48Z</time>
      </trkpt>
      <trkpt lat="45.687930034473538" lon="8.018050035461783">
        <ele>1935.48</ele>
        <time>2011-11-01T11:33:01Z</time>
      </trkpt>
      <trkpt lat="45.68787002004683" lon="8.017990021035075">
        <ele>1933.6510000000001</ele>
        <time>2011-11-01T11:33:15Z</time>
      </trkpt>
      <trkpt lat="45.68784998729825" lon="8.017990021035075">
        <ele>1932.127</ele>
        <time>2011-11-01T11:33:19Z</time>
      </trkpt>
      <trkpt lat="45.687819980084896" lon="8.018030002713203">
        <ele>1928.7739999999999</ele>
        <time>2011-11-01T11:33:27Z</time>
      </trkpt>
      <trkpt lat="45.687749991193414" lon="8.018020028248429">
        <ele>1926.336</ele>
        <time>2011-11-01T11:33:42Z</time>
      </trkpt>
      <trkpt lat="45.687670027837157" lon="8.018050035461783">
        <ele>1922.9829999999999</ele>
        <time>2011-11-01T11:33:56Z</time>
      </trkpt>
      <trkpt lat="45.687619987875223" lon="8.018079958856106">
        <ele>1920.24</ele>
        <time>2011-11-01T11:34:06Z</time>
      </trkpt>
      <trkpt lat="45.687549998983741" lon="8.01810996606946">
        <ele>1916.8869999999999</ele>
        <time>2011-11-01T11:34:19Z</time>
      </trkpt>
      <trkpt lat="45.687489984557033" lon="8.01810996606946">
        <ele>1914.4490000000001</ele>
        <time>2011-11-01T11:34:31Z</time>
      </trkpt>
      <trkpt lat="45.68741999566555" lon="8.01812999881804">
        <ele>1911.7059999999999</ele>
        <time>2011-11-01T11:34:45Z</time>
      </trkpt>
      <trkpt lat="45.68739996291697" lon="8.018209962174296">
        <ele>1908.6579999999999</ele>
        <time>2011-11-01T11:34:52Z</time>
      </trkpt>
      <trkpt lat="45.687350006774068" lon="8.018229994922876">
        <ele>1907.7429999999999</ele>
        <time>2011-11-01T11:35:02Z</time>
      </trkpt>
      <trkpt lat="45.687319999560714" lon="8.018190013244748">
        <ele>1906.2190000000001</ele>
        <time>2011-11-01T11:35:07Z</time>
      </trkpt>
      <trkpt lat="45.68731002509594" lon="8.018169980496168">
        <ele>1904.3900000000001</ele>
        <time>2011-11-01T11:35:10Z</time>
      </trkpt>
      <trkpt lat="45.687299966812134" lon="8.01815003156662">
        <ele>1906.2190000000001</ele>
        <time>2011-11-01T11:35:12Z</time>
      </trkpt>
      <trkpt lat="45.687299966812134" lon="8.018139973282814">
        <ele>1902.866</ele>
        <time>2011-11-01T11:35:13Z</time>
      </trkpt>
      <trkpt lat="45.68728999234736" lon="8.01812999881804">
        <ele>1906.829</ele>
        <time>2011-11-01T11:35:14Z</time>
      </trkpt>
      <trkpt lat="45.687259985134006" lon="8.01810996606946">
        <ele>1903.7809999999999</ele>
        <time>2011-11-01T11:35:21Z</time>
      </trkpt>
      <trkpt lat="45.687240036204457" lon="8.018090017139912">
        <ele>1902.5619999999999</ele>
        <time>2011-11-01T11:35:24Z</time>
      </trkpt>
      <trkpt lat="45.687169963493943" lon="8.017960013821721">
        <ele>1900.123</ele>
        <time>2011-11-01T11:35:41Z</time>
      </trkpt>
      <trkpt lat="45.687140040099621" lon="8.017909973859787">
        <ele>1898.5989999999999</ele>
        <time>2011-11-01T11:35:45Z</time>
      </trkpt>
      <trkpt lat="45.687090000137687" lon="8.017820036038756">
        <ele>1895.2460000000001</ele>
        <time>2011-11-01T11:35:54Z</time>
      </trkpt>
      <trkpt lat="45.687029985710979" lon="8.017730014398694">
        <ele>1891.894</ele>
        <time>2011-11-01T11:36:03Z</time>
      </trkpt>
      <trkpt lat="45.68699000403285" lon="8.017669999971986">
        <ele>1890.979</ele>
        <time>2011-11-01T11:36:11Z</time>
      </trkpt>
      <trkpt lat="45.686939964070916" lon="8.017649967223406">
        <ele>1887.931</ele>
        <time>2011-11-01T11:36:16Z</time>
      </trkpt>
      <trkpt lat="45.686910040676594" lon="8.017639992758632">
        <ele>1885.4929999999999</ele>
        <time>2011-11-01T11:36:23Z</time>
      </trkpt>
      <trkpt lat="45.686760004609823" lon="8.017500014975667">
        <ele>1884.2739999999999</ele>
        <time>2011-11-01T11:36:41Z</time>
      </trkpt>
      <trkpt lat="45.686579961329699" lon="8.017360037192702">
        <ele>1883.664</ele>
        <time>2011-11-01T11:37:00Z</time>
      </trkpt>
      <trkpt lat="45.686490023508668" lon="8.017279990017414">
        <ele>1883.664</ele>
        <time>2011-11-01T11:37:10Z</time>
      </trkpt>
      <trkpt lat="45.686349961906672" lon="8.017159961163998">
        <ele>1881.835</ele>
        <time>2011-11-01T11:37:27Z</time>
      </trkpt>
      <trkpt lat="45.686170002445579" lon="8.017000034451485">
        <ele>1880.3109999999999</ele>
        <time>2011-11-01T11:37:47Z</time>
      </trkpt>
      <trkpt lat="45.686019966378808" lon="8.016940020024777">
        <ele>1878.787</ele>
        <time>2011-11-01T11:38:04Z</time>
      </trkpt>
      <trkpt lat="45.685949977487326" lon="8.016900038346648">
        <ele>1877.873</ele>
        <time>2011-11-01T11:38:19Z</time>
      </trkpt>
      <trkpt lat="45.685860039666295" lon="8.016889980062842">
        <ele>1876.9580000000001</ele>
        <time>2011-11-01T11:38:33Z</time>
      </trkpt>
      <trkpt lat="45.685689970850945" lon="8.016880005598068">
        <ele>1877.568</ele>
        <time>2011-11-01T11:38:49Z</time>
      </trkpt>
      <trkpt lat="45.685670021921396" lon="8.016880005598068">
        <ele>1877.568</ele>
        <time>2011-11-01T11:38:51Z</time>
      </trkpt>
      <trkpt lat="45.685630040243268" lon="8.016849998384714">
        <ele>1876.9580000000001</ele>
        <time>2011-11-01T11:38:55Z</time>
      </trkpt>
      <trkpt lat="45.685489978641272" lon="8.016880005598068">
        <ele>1875.1300000000001</ele>
        <time>2011-11-01T11:39:12Z</time>
      </trkpt>
      <trkpt lat="45.68554999306798" lon="8.016980001702905">
        <ele>1872.0820000000001</ele>
        <time>2011-11-01T11:39:23Z</time>
      </trkpt>
      <trkpt lat="45.685670021921396" lon="8.017079997807741">
        <ele>1870.8620000000001</ele>
        <time>2011-11-01T11:39:39Z</time>
      </trkpt>
      <trkpt lat="45.685800025239587" lon="8.017140012234449">
        <ele>1869.643</ele>
        <time>2011-11-01T11:39:55Z</time>
      </trkpt>
      <trkpt lat="45.685830032452941" lon="8.017219975590706">
        <ele>1867.8140000000001</ele>
        <time>2011-11-01T11:40:03Z</time>
      </trkpt>
      <trkpt lat="45.685849981382489" lon="8.017240008339286">
        <ele>1867.51</ele>
        <time>2011-11-01T11:40:05Z</time>
      </trkpt>
      <trkpt lat="45.685919970273972" lon="8.017319971695542">
        <ele>1865.9860000000001</ele>
        <time>2011-11-01T11:40:17Z</time>
      </trkpt>
      <trkpt lat="45.685970010235906" lon="8.017419967800379">
        <ele>1862.633</ele>
        <time>2011-11-01T11:40:27Z</time>
      </trkpt>
      <trkpt lat="45.685919970273972" lon="8.017440000548959">
        <ele>1860.499</ele>
        <time>2011-11-01T11:40:40Z</time>
      </trkpt>
      <trkpt lat="45.685879988595843" lon="8.017490040510893">
        <ele>1857.7560000000001</ele>
        <time>2011-11-01T11:40:53Z</time>
      </trkpt>
      <trkpt lat="45.685949977487326" lon="8.017630018293858">
        <ele>1855.0129999999999</ele>
        <time>2011-11-01T11:41:09Z</time>
      </trkpt>
      <trkpt lat="45.686009991914034" lon="8.017690032720566">
        <ele>1852.8789999999999</ele>
        <time>2011-11-01T11:41:25Z</time>
      </trkpt>
      <trkpt lat="45.686079980805516" lon="8.017839984968305">
        <ele>1850.136</ele>
        <time>2011-11-01T11:41:42Z</time>
      </trkpt>
      <trkpt lat="45.686160027980804" lon="8.018009969964624">
        <ele>1848.002</ele>
        <time>2011-11-01T11:42:00Z</time>
      </trkpt>
      <trkpt lat="45.686209984123707" lon="8.01815003156662">
        <ele>1846.7829999999999</ele>
        <time>2011-11-01T11:42:15Z</time>
      </trkpt>
      <trkpt lat="45.686209984123707" lon="8.018169980496168">
        <ele>1846.174</ele>
        <time>2011-11-01T11:42:16Z</time>
      </trkpt>
      <trkpt lat="45.686249965801835" lon="8.018359998241067">
        <ele>1842.8209999999999</ele>
        <time>2011-11-01T11:42:31Z</time>
      </trkpt>
      <trkpt lat="45.686260024085641" lon="8.018410038203001">
        <ele>1842.5160000000001</ele>
        <time>2011-11-01T11:42:35Z</time>
      </trkpt>
      <trkpt lat="45.686260024085641" lon="8.018439961597323">
        <ele>1841.297</ele>
        <time>2011-11-01T11:42:37Z</time>
      </trkpt>
      <trkpt lat="45.686200009658933" lon="8.018439961597323">
        <ele>1838.8579999999999</ele>
        <time>2011-11-01T11:42:50Z</time>
      </trkpt>
      <trkpt lat="45.686170002445579" lon="8.018410038203001">
        <ele>1837.944</ele>
        <time>2011-11-01T11:42:55Z</time>
      </trkpt>
      <trkpt lat="45.686149969696999" lon="8.018390005454421">
        <ele>1837.03</ele>
        <time>2011-11-01T11:42:57Z</time>
      </trkpt>
      <trkpt lat="45.686149969696999" lon="8.018480027094483">
        <ele>1835.201</ele>
        <time>2011-11-01T11:43:09Z</time>
      </trkpt>
      <trkpt lat="45.686149969696999" lon="8.018529983237386">
        <ele>1833.3720000000001</ele>
        <time>2011-11-01T11:43:13Z</time>
      </trkpt>
      <trkpt lat="45.686170002445579" lon="8.018699968233705">
        <ele>1830.3240000000001</ele>
        <time>2011-11-01T11:43:29Z</time>
      </trkpt>
      <trkpt lat="45.686170002445579" lon="8.018720000982285">
        <ele>1830.019</ele>
        <time>2011-11-01T11:43:31Z</time>
      </trkpt>
      <trkpt lat="45.686179976910353" lon="8.018750008195639">
        <ele>1829.4100000000001</ele>
        <time>2011-11-01T11:43:33Z</time>
      </trkpt>
      <trkpt lat="45.686200009658933" lon="8.018799964338541">
        <ele>1828.4949999999999</ele>
        <time>2011-11-01T11:43:38Z</time>
      </trkpt>
      <trkpt lat="45.686239991337061" lon="8.01898998208344">
        <ele>1824.2280000000001</ele>
        <time>2011-11-01T11:43:52Z</time>
      </trkpt>
      <trkpt lat="45.686230016872287" lon="8.019049996510148">
        <ele>1821.1800000000001</ele>
        <time>2011-11-01T11:44:03Z</time>
      </trkpt>
      <trkpt lat="45.68613002076745" lon="8.018980007618666">
        <ele>1818.742</ele>
        <time>2011-11-01T11:44:18Z</time>
      </trkpt>
      <trkpt lat="45.68613002076745" lon="8.019049996510148">
        <ele>1817.827</ele>
        <time>2011-11-01T11:44:26Z</time>
      </trkpt>
      <trkpt lat="45.686179976910353" lon="8.019259963184595">
        <ele>1815.3889999999999</ele>
        <time>2011-11-01T11:44:44Z</time>
      </trkpt>
      <trkpt lat="45.686209984123707" lon="8.019379992038012">
        <ele>1812.0360000000001</ele>
        <time>2011-11-01T11:44:58Z</time>
      </trkpt>
      <trkpt lat="45.686219958588481" lon="8.019479988142848">
        <ele>1810.2070000000001</ele>
        <time>2011-11-01T11:45:06Z</time>
      </trkpt>
      <trkpt lat="45.686260024085641" lon="8.019679980352521">
        <ele>1806.854</ele>
        <time>2011-11-01T11:45:22Z</time>
      </trkpt>
      <trkpt lat="45.686269998550415" lon="8.019770001992583">
        <ele>1803.806</ele>
        <time>2011-11-01T11:45:29Z</time>
      </trkpt>
      <trkpt lat="45.686309980228543" lon="8.019960019737482">
        <ele>1801.0630000000001</ele>
        <time>2011-11-01T11:45:46Z</time>
      </trkpt>
      <trkpt lat="45.686309980228543" lon="8.020050041377544">
        <ele>1798.0150000000001</ele>
        <time>2011-11-01T11:45:53Z</time>
      </trkpt>
      <trkpt lat="45.686290031298995" lon="8.02029998973012">
        <ele>1795.2719999999999</ele>
        <time>2011-11-01T11:46:10Z</time>
      </trkpt>
      <trkpt lat="45.686279973015189" lon="8.020350029692054">
        <ele>1794.662</ele>
        <time>2011-11-01T11:46:14Z</time>
      </trkpt>
      <trkpt lat="45.686269998550415" lon="8.020399985834956">
        <ele>1793.443</ele>
        <time>2011-11-01T11:46:18Z</time>
      </trkpt>
      <trkpt lat="45.686249965801835" lon="8.020520014688373">
        <ele>1791.3099999999999</ele>
        <time>2011-11-01T11:46:28Z</time>
      </trkpt>
      <trkpt lat="45.686209984123707" lon="8.020550021901727">
        <ele>1790.395</ele>
        <time>2011-11-01T11:46:34Z</time>
      </trkpt>
      <trkpt lat="45.686170002445579" lon="8.020529989153147">
        <ele>1788.566</ele>
        <time>2011-11-01T11:46:47Z</time>
      </trkpt>
      <trkpt lat="45.686149969696999" lon="8.020520014688373">
        <ele>1787.0419999999999</ele>
        <time>2011-11-01T11:46:51Z</time>
      </trkpt>
      <trkpt lat="45.68610998801887" lon="8.020520014688373">
        <ele>1784.299</ele>
        <time>2011-11-01T11:47:00Z</time>
      </trkpt>
      <trkpt lat="45.686060031875968" lon="8.020550021901727">
        <ele>1780.9459999999999</ele>
        <time>2011-11-01T11:47:07Z</time>
      </trkpt>
      <trkpt lat="45.686070006340742" lon="8.020559996366501">
        <ele>1780.9459999999999</ele>
        <time>2011-11-01T11:47:21Z</time>
      </trkpt>
      <trkpt lat="45.686100013554096" lon="8.020559996366501">
        <ele>1782.7750000000001</ele>
        <time>2011-11-01T11:47:37Z</time>
      </trkpt>
      <trkpt lat="45.686119962483644" lon="8.020629985257983">
        <ele>1784.299</ele>
        <time>2011-11-01T11:47:55Z</time>
      </trkpt>
      <trkpt lat="45.68613002076745" lon="8.020559996366501">
        <ele>1785.2139999999999</ele>
        <time>2011-11-01T11:48:19Z</time>
      </trkpt>
      <trkpt lat="45.686090039089322" lon="8.020510040223599">
        <ele>1782.7750000000001</ele>
        <time>2011-11-01T11:48:28Z</time>
      </trkpt>
      <trkpt lat="45.686009991914034" lon="8.020460000261664">
        <ele>1780.0319999999999</ele>
        <time>2011-11-01T11:48:43Z</time>
      </trkpt>
      <trkpt lat="45.68597998470068" lon="8.02040996029973">
        <ele>1777.5940000000001</ele>
        <time>2011-11-01T11:48:50Z</time>
      </trkpt>
      <trkpt lat="45.685960035771132" lon="8.02040996029973">
        <ele>1776.0699999999999</ele>
        <time>2011-11-01T11:48:53Z</time>
      </trkpt>
      <trkpt lat="45.685949977487326" lon="8.020469974726439">
        <ele>1775.155</ele>
        <time>2011-11-01T11:48:58Z</time>
      </trkpt>
      <trkpt lat="45.685949977487326" lon="8.020490007475019">
        <ele>1774.241</ele>
        <time>2011-11-01T11:49:00Z</time>
      </trkpt>
      <trkpt lat="45.685860039666295" lon="8.020529989153147">
        <ele>1771.193</ele>
        <time>2011-11-01T11:49:14Z</time>
      </trkpt>
      <trkpt lat="45.685809999704361" lon="8.020510040223599">
        <ele>1768.7539999999999</ele>
        <time>2011-11-01T11:49:26Z</time>
      </trkpt>
      <trkpt lat="45.685770018026233" lon="8.020480033010244">
        <ele>1766.316</ele>
        <time>2011-11-01T11:49:36Z</time>
      </trkpt>
      <trkpt lat="45.685719978064299" lon="8.020439967513084">
        <ele>1762.963</ele>
        <time>2011-11-01T11:49:49Z</time>
      </trkpt>
      <trkpt lat="45.685689970850945" lon="8.020439967513084">
        <ele>1761.134</ele>
        <time>2011-11-01T11:49:53Z</time>
      </trkpt>
      <trkpt lat="45.685640014708042" lon="8.020559996366501">
        <ele>1758.3910000000001</ele>
        <time>2011-11-01T11:50:03Z</time>
      </trkpt>
      <trkpt lat="45.685589974746108" lon="8.020629985257983">
        <ele>1755.038</ele>
        <time>2011-11-01T11:50:19Z</time>
      </trkpt>
      <trkpt lat="45.685559967532754" lon="8.020539963617921">
        <ele>1753.5139999999999</ele>
        <time>2011-11-01T11:50:37Z</time>
      </trkpt>
      <trkpt lat="45.685500036925077" lon="8.020369978621602">
        <ele>1750.162</ele>
        <time>2011-11-01T11:50:53Z</time>
      </trkpt>
      <trkpt lat="45.685429964214563" lon="8.0203200224787">
        <ele>1746.809</ele>
        <time>2011-11-01T11:51:07Z</time>
      </trkpt>
      <trkpt lat="45.685400040820241" lon="8.02045002579689">
        <ele>1743.761</ele>
        <time>2011-11-01T11:51:21Z</time>
      </trkpt>
      <trkpt lat="45.685350000858307" lon="8.020399985834956">
        <ele>1740.4079999999999</ele>
        <time>2011-11-01T11:51:29Z</time>
      </trkpt>
      <trkpt lat="45.685280011966825" lon="8.020380036905408">
        <ele>1737.665</ele>
        <time>2011-11-01T11:51:41Z</time>
      </trkpt>
      <trkpt lat="45.68522997200489" lon="8.020399985834956">
        <ele>1734.3119999999999</ele>
        <time>2011-11-01T11:51:47Z</time>
      </trkpt>
      <trkpt lat="45.685199964791536" lon="8.020520014688373">
        <ele>1732.1780000000001</ele>
        <time>2011-11-01T11:51:58Z</time>
      </trkpt>
      <trkpt lat="45.68514003418386" lon="8.020680025219917">
        <ele>1728.826</ele>
        <time>2011-11-01T11:52:12Z</time>
      </trkpt>
      <trkpt lat="45.685110026970506" lon="8.020689999684691">
        <ele>1727.9110000000001</ele>
        <time>2011-11-01T11:52:31Z</time>
      </trkpt>
      <trkpt lat="45.685059987008572" lon="8.020659992471337">
        <ele>1725.1679999999999</ele>
        <time>2011-11-01T11:52:42Z</time>
      </trkpt>
      <trkpt lat="45.685020005330443" lon="8.020680025219917">
        <ele>1723.644</ele>
        <time>2011-11-01T11:52:50Z</time>
      </trkpt>
      <trkpt lat="45.684959990903735" lon="8.020669966936112">
        <ele>1720.2909999999999</ele>
        <time>2011-11-01T11:53:00Z</time>
      </trkpt>
      <trkpt lat="45.684910034760833" lon="8.020689999684691">
        <ele>1718.462</ele>
        <time>2011-11-01T11:53:07Z</time>
      </trkpt>
      <trkpt lat="45.684890002012253" lon="8.02072998136282">
        <ele>1717.2429999999999</ele>
        <time>2011-11-01T11:53:12Z</time>
      </trkpt>
      <trkpt lat="45.684859994798899" lon="8.020829977467656">
        <ele>1715.414</ele>
        <time>2011-11-01T11:53:21Z</time>
      </trkpt>
      <trkpt lat="45.684790005907416" lon="8.020989987999201">
        <ele>1712.9760000000001</ele>
        <time>2011-11-01T11:53:35Z</time>
      </trkpt>
      <trkpt lat="45.684739965945482" lon="8.021080009639263">
        <ele>1712.0619999999999</ele>
        <time>2011-11-01T11:53:49Z</time>
      </trkpt>
      <trkpt lat="45.68469000980258" lon="8.0211800057441">
        <ele>1710.2329999999999</ele>
        <time>2011-11-01T11:54:04Z</time>
      </trkpt>
      <trkpt lat="45.68469000980258" lon="8.021140024065971">
        <ele>1709.318</ele>
        <time>2011-11-01T11:54:08Z</time>
      </trkpt>
      <trkpt lat="45.684680035337806" lon="8.021129965782166">
        <ele>1707.7940000000001</ele>
        <time>2011-11-01T11:54:12Z</time>
      </trkpt>
      <trkpt lat="45.684669977054" lon="8.021129965782166">
        <ele>1707.1849999999999</ele>
        <time>2011-11-01T11:54:13Z</time>
      </trkpt>
      <trkpt lat="45.684629995375872" lon="8.02120003849268">
        <ele>1705.356</ele>
        <time>2011-11-01T11:54:19Z</time>
      </trkpt>
      <trkpt lat="45.684599988162518" lon="8.02128997631371">
        <ele>1704.442</ele>
        <time>2011-11-01T11:54:26Z</time>
      </trkpt>
      <trkpt lat="45.684539973735809" lon="8.021419979631901">
        <ele>1701.394</ele>
        <time>2011-11-01T11:54:45Z</time>
      </trkpt>
      <trkpt lat="45.684509966522455" lon="8.02158996462822">
        <ele>1700.174</ele>
        <time>2011-11-01T11:54:57Z</time>
      </trkpt>
      <trkpt lat="45.684469984844327" lon="8.021689960733056">
        <ele>1698.0409999999999</ele>
        <time>2011-11-01T11:55:05Z</time>
      </trkpt>
      <trkpt lat="45.684469984844327" lon="8.02171996794641">
        <ele>1698.0409999999999</ele>
        <time>2011-11-01T11:55:07Z</time>
      </trkpt>
      <trkpt lat="45.684450035914779" lon="8.021809989586473">
        <ele>1697.7360000000001</ele>
        <time>2011-11-01T11:55:13Z</time>
      </trkpt>
      <trkpt lat="45.684430003166199" lon="8.022020040079951">
        <ele>1697.126</ele>
        <time>2011-11-01T11:55:29Z</time>
      </trkpt>
      <trkpt lat="45.684430003166199" lon="8.022090028971434">
        <ele>1696.8219999999999</ele>
        <time>2011-11-01T11:55:45Z</time>
      </trkpt>
      <trkpt lat="45.684430003166199" lon="8.022130010649562">
        <ele>1695.298</ele>
        <time>2011-11-01T11:55:54Z</time>
      </trkpt>
      <trkpt lat="45.684450035914779" lon="8.022250039502978">
        <ele>1695.9069999999999</ele>
        <time>2011-11-01T11:56:09Z</time>
      </trkpt>
      <trkpt lat="45.684479959309101" lon="8.022429998964071">
        <ele>1695.9069999999999</ele>
        <time>2011-11-01T11:56:24Z</time>
      </trkpt>
      <trkpt lat="45.684490017592907" lon="8.022460006177425">
        <ele>1694.6880000000001</ele>
        <time>2011-11-01T11:56:26Z</time>
      </trkpt>
      <trkpt lat="45.684469984844327" lon="8.022659998387098">
        <ele>1691.335</ele>
        <time>2011-11-01T11:56:43Z</time>
      </trkpt>
      <trkpt lat="45.684460010379553" lon="8.022699980065227">
        <ele>1691.03</ele>
        <time>2011-11-01T11:57:04Z</time>
      </trkpt>
      <trkpt lat="45.684460010379553" lon="8.022859990596771">
        <ele>1688.8969999999999</ele>
        <time>2011-11-01T11:57:20Z</time>
      </trkpt>
      <trkpt lat="45.684490017592907" lon="8.0228999722749">
        <ele>1690.421</ele>
        <time>2011-11-01T11:57:27Z</time>
      </trkpt>
      <trkpt lat="45.684499992057681" lon="8.02292000502348">
        <ele>1690.116</ele>
        <time>2011-11-01T11:57:29Z</time>
      </trkpt>
      <trkpt lat="45.684569980949163" lon="8.023119997233152">
        <ele>1691.9449999999999</ele>
        <time>2011-11-01T11:57:45Z</time>
      </trkpt>
      <trkpt lat="45.684650028124452" lon="8.023319989442825">
        <ele>1692.8589999999999</ele>
        <time>2011-11-01T11:58:03Z</time>
      </trkpt>
      <trkpt lat="45.684520024806261" lon="8.023510007187724">
        <ele>1685.5440000000001</ele>
        <time>2011-11-01T12:04:46Z</time>
      </trkpt>
      <trkpt lat="45.684509966522455" lon="8.023510007187724">
        <ele>1685.5440000000001</ele>
        <time>2011-11-01T12:04:47Z</time>
      </trkpt>
      <trkpt lat="45.684479959309101" lon="8.02350003272295">
        <ele>1684.325</ele>
        <time>2011-11-01T12:04:50Z</time>
      </trkpt>
      <trkpt lat="45.684439977630973" lon="8.023549988865852">
        <ele>1682.8009999999999</ele>
        <time>2011-11-01T12:05:04Z</time>
      </trkpt>
      <trkpt lat="45.684460010379553" lon="8.023630036041141">
        <ele>1682.191</ele>
        <time>2011-11-01T12:05:12Z</time>
      </trkpt>
      <trkpt lat="45.684469984844327" lon="8.023649984970689">
        <ele>1681.886</ele>
        <time>2011-11-01T12:05:15Z</time>
      </trkpt>
      <trkpt lat="45.684420028701425" lon="8.023730032145977">
        <ele>1678.5340000000001</ele>
        <time>2011-11-01T12:05:26Z</time>
      </trkpt>
      <trkpt lat="45.684360014274716" lon="8.023749981075525">
        <ele>1675.4860000000001</ele>
        <time>2011-11-01T12:05:34Z</time>
      </trkpt>
      <trkpt lat="45.684269992634654" lon="8.023809995502234">
        <ele>1672.133</ele>
        <time>2011-11-01T12:05:46Z</time>
      </trkpt>
      <trkpt lat="45.68426001816988" lon="8.023819969967008">
        <ele>1671.2180000000001</ele>
        <time>2011-11-01T12:05:48Z</time>
      </trkpt>
      <trkpt lat="45.684249959886074" lon="8.02393002435565">
        <ele>1668.4749999999999</ele>
        <time>2011-11-01T12:06:01Z</time>
      </trkpt>
      <trkpt lat="45.684320032596588" lon="8.024019962176681">
        <ele>1665.1220000000001</ele>
        <time>2011-11-01T12:06:11Z</time>
      </trkpt>
      <trkpt lat="45.684330007061362" lon="8.024030020460486">
        <ele>1665.1220000000001</ele>
        <time>2011-11-01T12:06:12Z</time>
      </trkpt>
      <trkpt lat="45.684379963204265" lon="8.024090034887195">
        <ele>1663.598</ele>
        <time>2011-11-01T12:06:18Z</time>
      </trkpt>
      <trkpt lat="45.684399995952845" lon="8.024119958281517">
        <ele>1662.989</ele>
        <time>2011-11-01T12:06:21Z</time>
      </trkpt>
      <trkpt lat="45.684460010379553" lon="8.024179972708225">
        <ele>1661.1600000000001</ele>
        <time>2011-11-01T12:06:28Z</time>
      </trkpt>
      <trkpt lat="45.684569980949163" lon="8.024249961599708">
        <ele>1659.3309999999999</ele>
        <time>2011-11-01T12:06:45Z</time>
      </trkpt>
      <trkpt lat="45.684650028124452" lon="8.024269994348288">
        <ele>1657.807</ele>
        <time>2011-11-01T12:06:58Z</time>
      </trkpt>
      <trkpt lat="45.684660002589226" lon="8.024320034310222">
        <ele>1654.454</ele>
        <time>2011-11-01T12:07:09Z</time>
      </trkpt>
      <trkpt lat="45.684650028124452" lon="8.02436001598835">
        <ele>1653.54</ele>
        <time>2011-11-01T12:07:28Z</time>
      </trkpt>
      <trkpt lat="45.684620020911098" lon="8.024420030415058">
        <ele>1650.1869999999999</ele>
        <time>2011-11-01T12:07:41Z</time>
      </trkpt>
      <trkpt lat="45.684550032019615" lon="8.024490019306541">
        <ele>1646.8340000000001</ele>
        <time>2011-11-01T12:07:54Z</time>
      </trkpt>
      <trkpt lat="45.684550032019615" lon="8.024499993771315">
        <ele>1646.2249999999999</ele>
        <time>2011-11-01T12:07:55Z</time>
      </trkpt>
      <trkpt lat="45.684580039232969" lon="8.024530000984669">
        <ele>1645.3099999999999</ele>
        <time>2011-11-01T12:08:08Z</time>
      </trkpt>
      <trkpt lat="45.684650028124452" lon="8.024539975449443">
        <ele>1644.396</ele>
        <time>2011-11-01T12:08:16Z</time>
      </trkpt>
      <trkpt lat="45.684720017015934" lon="8.024550033733249">
        <ele>1642.2619999999999</ele>
        <time>2011-11-01T12:08:29Z</time>
      </trkpt>
      <trkpt lat="45.684769973158836" lon="8.024560008198023">
        <ele>1641.0429999999999</ele>
        <time>2011-11-01T12:08:49Z</time>
      </trkpt>
      <trkpt lat="45.684829987585545" lon="8.024609964340925">
        <ele>1638.9100000000001</ele>
        <time>2011-11-01T12:09:02Z</time>
      </trkpt>
      <trkpt lat="45.684850020334125" lon="8.024629997089505">
        <ele>1638.605</ele>
        <time>2011-11-01T12:09:16Z</time>
      </trkpt>
      <trkpt lat="45.684939958155155" lon="8.024590015411377">
        <ele>1636.7760000000001</ele>
        <time>2011-11-01T12:09:43Z</time>
      </trkpt>
      <trkpt lat="45.685029979795218" lon="8.024569982662797">
        <ele>1636.7760000000001</ele>
        <time>2011-11-01T12:09:54Z</time>
      </trkpt>
      <trkpt lat="45.685059987008572" lon="8.024539975449443">
        <ele>1637.6900000000001</ele>
        <time>2011-11-01T12:10:05Z</time>
      </trkpt>
      <trkpt lat="45.685110026970506" lon="8.024569982662797">
        <ele>1637.6900000000001</ele>
        <time>2011-11-01T12:10:25Z</time>
      </trkpt>
      <trkpt lat="45.68514003418386" lon="8.024580040946603">
        <ele>1635.252</ele>
        <time>2011-11-01T12:10:39Z</time>
      </trkpt>
      <trkpt lat="45.685199964791536" lon="8.024620022624731">
        <ele>1633.7280000000001</ele>
        <time>2011-11-01T12:10:52Z</time>
      </trkpt>
      <trkpt lat="45.685189990326762" lon="8.024620022624731">
        <ele>1632.8140000000001</ele>
        <time>2011-11-01T12:10:54Z</time>
      </trkpt>
      <trkpt lat="45.68514003418386" lon="8.024680037051439">
        <ele>1629.7660000000001</ele>
        <time>2011-11-01T12:11:05Z</time>
      </trkpt>
      <trkpt lat="45.68514003418386" lon="8.024690011516213">
        <ele>1629.7660000000001</ele>
        <time>2011-11-01T12:11:06Z</time>
      </trkpt>
      <trkpt lat="45.685159983113408" lon="8.024760000407696">
        <ele>1627.6320000000001</ele>
        <time>2011-11-01T12:11:20Z</time>
      </trkpt>
      <trkpt lat="45.685219997540116" lon="8.02479000762105">
        <ele>1625.498</ele>
        <time>2011-11-01T12:11:30Z</time>
      </trkpt>
      <trkpt lat="45.68522997200489" lon="8.024839963763952">
        <ele>1622.7550000000001</ele>
        <time>2011-11-01T12:11:38Z</time>
      </trkpt>
      <trkpt lat="45.685280011966825" lon="8.024920010939241">
        <ele>1619.7070000000001</ele>
        <time>2011-11-01T12:11:48Z</time>
      </trkpt>
      <trkpt lat="45.685299960896373" lon="8.024950018152595">
        <ele>1618.4880000000001</ele>
        <time>2011-11-01T12:12:11Z</time>
      </trkpt>
      <trkpt lat="45.685329968109727" lon="8.024999974295497">
        <ele>1616.354</ele>
        <time>2011-11-01T12:12:20Z</time>
      </trkpt>
      <trkpt lat="45.685370033606887" lon="8.025059988722205">
        <ele>1614.5260000000001</ele>
        <time>2011-11-01T12:12:27Z</time>
      </trkpt>
      <trkpt lat="45.685400040820241" lon="8.025110028684139">
        <ele>1611.7819999999999</ele>
        <time>2011-11-01T12:12:38Z</time>
      </trkpt>
      <trkpt lat="45.685449996963143" lon="8.025189992040396">
        <ele>1609.6489999999999</ele>
        <time>2011-11-01T12:12:49Z</time>
      </trkpt>
      <trkpt lat="45.685480004176497" lon="8.02521999925375">
        <ele>1607.8199999999999</ele>
        <time>2011-11-01T12:12:53Z</time>
      </trkpt>
      <trkpt lat="45.6855299603194" lon="8.025259980931878">
        <ele>1604.7719999999999</ele>
        <time>2011-11-01T12:13:03Z</time>
      </trkpt>
      <trkpt lat="45.685540018603206" lon="8.025289988145232">
        <ele>1603.5530000000001</ele>
        <time>2011-11-01T12:13:06Z</time>
      </trkpt>
      <trkpt lat="45.685610007494688" lon="8.025380009785295">
        <ele>1600.5050000000001</ele>
        <time>2011-11-01T12:13:21Z</time>
      </trkpt>
      <trkpt lat="45.685589974746108" lon="8.025429965928197">
        <ele>1597.152</ele>
        <time>2011-11-01T12:13:35Z</time>
      </trkpt>
      <trkpt lat="45.68557002581656" lon="8.025470031425357">
        <ele>1594.4090000000001</ele>
        <time>2011-11-01T12:13:53Z</time>
      </trkpt>
      <trkpt lat="45.6855299603194" lon="8.025559969246388">
        <ele>1592.885</ele>
        <time>2011-11-01T12:14:07Z</time>
      </trkpt>
      <trkpt lat="45.685540018603206" lon="8.025570027530193">
        <ele>1589.5319999999999</ele>
        <time>2011-11-01T12:14:20Z</time>
      </trkpt>
      <trkpt lat="45.685559967532754" lon="8.025619983673096">
        <ele>1587.703</ele>
        <time>2011-11-01T12:14:26Z</time>
      </trkpt>
      <trkpt lat="45.685540018603206" lon="8.025700030848384">
        <ele>1584.655</ele>
        <time>2011-11-01T12:14:39Z</time>
      </trkpt>
      <trkpt lat="45.685519985854626" lon="8.025710005313158">
        <ele>1583.741</ele>
        <time>2011-11-01T12:14:41Z</time>
      </trkpt>
      <trkpt lat="45.685459971427917" lon="8.02575996145606">
        <ele>1580.3879999999999</ele>
        <time>2011-11-01T12:14:53Z</time>
      </trkpt>
      <trkpt lat="45.685449996963143" lon="8.025770019739866">
        <ele>1580.3879999999999</ele>
        <time>2011-11-01T12:14:54Z</time>
      </trkpt>
      <trkpt lat="45.685449996963143" lon="8.025840008631349">
        <ele>1578.559</ele>
        <time>2011-11-01T12:15:04Z</time>
      </trkpt>
      <trkpt lat="45.685400040820241" lon="8.025849983096123">
        <ele>1575.2059999999999</ele>
        <time>2011-11-01T12:15:19Z</time>
      </trkpt>
      <trkpt lat="45.685340026393533" lon="8.025930030271411">
        <ele>1573.0730000000001</ele>
        <time>2011-11-01T12:15:32Z</time>
      </trkpt>
      <trkpt lat="45.68527003750205" lon="8.025970011949539">
        <ele>1570.3299999999999</ele>
        <time>2011-11-01T12:15:44Z</time>
      </trkpt>
      <trkpt lat="45.685240030288696" lon="8.026009993627667">
        <ele>1566.9770000000001</ele>
        <time>2011-11-01T12:16:00Z</time>
      </trkpt>
      <trkpt lat="45.685240030288696" lon="8.02610001526773">
        <ele>1565.1479999999999</ele>
        <time>2011-11-01T12:16:11Z</time>
      </trkpt>
      <trkpt lat="45.68525000475347" lon="8.026149971410632">
        <ele>1561.7950000000001</ele>
        <time>2011-11-01T12:16:19Z</time>
      </trkpt>
      <trkpt lat="45.685189990326762" lon="8.02623001858592">
        <ele>1558.7470000000001</ele>
        <time>2011-11-01T12:16:32Z</time>
      </trkpt>
      <trkpt lat="45.6850999686867" lon="8.026249967515469">
        <ele>1557.8330000000001</ele>
        <time>2011-11-01T12:16:49Z</time>
      </trkpt>
      <trkpt lat="45.685089994221926" lon="8.026320040225983">
        <ele>1554.7850000000001</ele>
        <time>2011-11-01T12:17:01Z</time>
      </trkpt>
      <trkpt lat="45.685110026970506" lon="8.026420036330819">
        <ele>1553.566</ele>
        <time>2011-11-01T12:17:15Z</time>
      </trkpt>
      <trkpt lat="45.685110026970506" lon="8.026460018008947">
        <ele>1550.213</ele>
        <time>2011-11-01T12:17:23Z</time>
      </trkpt>
      <trkpt lat="45.685080019757152" lon="8.026520032435656">
        <ele>1547.165</ele>
        <time>2011-11-01T12:17:32Z</time>
      </trkpt>
      <trkpt lat="45.685020005330443" lon="8.026560014113784">
        <ele>1545.9459999999999</ele>
        <time>2011-11-01T12:17:43Z</time>
      </trkpt>
      <trkpt lat="45.684989998117089" lon="8.02663997747004">
        <ele>1542.288</ele>
        <time>2011-11-01T12:17:54Z</time>
      </trkpt>
      <trkpt lat="45.684989998117089" lon="8.02663997747004">
        <ele>1542.288</ele>
        <time>2011-11-01T12:17:55Z</time>
      </trkpt>
      <trkpt lat="45.684920009225607" lon="8.02666001021862">
        <ele>1539.5450000000001</ele>
        <time>2011-11-01T12:18:11Z</time>
      </trkpt>
      <trkpt lat="45.684899976477027" lon="8.026720024645329">
        <ele>1536.8019999999999</ele>
        <time>2011-11-01T12:18:19Z</time>
      </trkpt>
      <trkpt lat="45.684859994798899" lon="8.026780039072037">
        <ele>1534.3630000000001</ele>
        <time>2011-11-01T12:18:30Z</time>
      </trkpt>
      <trkpt lat="45.68482001312077" lon="8.026839969679713">
        <ele>1533.4490000000001</ele>
        <time>2011-11-01T12:18:42Z</time>
      </trkpt>
      <trkpt lat="45.684759998694062" lon="8.026809962466359">
        <ele>1532.23</ele>
        <time>2011-11-01T12:19:04Z</time>
      </trkpt>
      <trkpt lat="45.684629995375872" lon="8.026850027963519">
        <ele>1528.5719999999999</ele>
        <time>2011-11-01T12:19:17Z</time>
      </trkpt>
      <trkpt lat="45.684620020911098" lon="8.026860002428293">
        <ele>1527.962</ele>
        <time>2011-11-01T12:19:19Z</time>
      </trkpt>
      <trkpt lat="45.684569980949163" lon="8.026950024068356">
        <ele>1526.134</ele>
        <time>2011-11-01T12:19:32Z</time>
      </trkpt>
      <trkpt lat="45.684490017592907" lon="8.026999980211258">
        <ele>1523.086</ele>
        <time>2011-11-01T12:19:45Z</time>
      </trkpt>
      <trkpt lat="45.684490017592907" lon="8.027039961889386">
        <ele>1521.2570000000001</ele>
        <time>2011-11-01T12:19:50Z</time>
      </trkpt>
      <trkpt lat="45.684490017592907" lon="8.02706996910274">
        <ele>1519.7329999999999</ele>
        <time>2011-11-01T12:19:55Z</time>
      </trkpt>
      <trkpt lat="45.684490017592907" lon="8.027150016278029">
        <ele>1518.818</ele>
        <time>2011-11-01T12:20:02Z</time>
      </trkpt>
      <trkpt lat="45.684490017592907" lon="8.027229979634285">
        <ele>1517.2940000000001</ele>
        <time>2011-11-01T12:20:07Z</time>
      </trkpt>
      <trkpt lat="45.684479959309101" lon="8.027269961312413">
        <ele>1516.075</ele>
        <time>2011-11-01T12:20:10Z</time>
      </trkpt>
      <trkpt lat="45.684460010379553" lon="8.02738999016583">
        <ele>1512.722</ele>
        <time>2011-11-01T12:20:25Z</time>
      </trkpt>
      <trkpt lat="45.684409970417619" lon="8.027459979057312">
        <ele>1509.3699999999999</ele>
        <time>2011-11-01T12:20:37Z</time>
      </trkpt>
      <trkpt lat="45.684360014274716" lon="8.027550000697374">
        <ele>1506.0170000000001</ele>
        <time>2011-11-01T12:20:47Z</time>
      </trkpt>
      <trkpt lat="45.684309974312782" lon="8.027559975162149">
        <ele>1503.578</ele>
        <time>2011-11-01T12:20:54Z</time>
      </trkpt>
      <trkpt lat="45.684299999848008" lon="8.027680004015565">
        <ele>1500.53</ele>
        <time>2011-11-01T12:21:06Z</time>
      </trkpt>
      <trkpt lat="45.684269992634654" lon="8.027789974585176">
        <ele>1497.787</ele>
        <time>2011-11-01T12:21:16Z</time>
      </trkpt>
      <trkpt lat="45.684220036491752" lon="8.027870021760464">
        <ele>1494.739</ele>
        <time>2011-11-01T12:21:26Z</time>
      </trkpt>
      <trkpt lat="45.684179970994592" lon="8.027979992330074">
        <ele>1491.386</ele>
        <time>2011-11-01T12:21:38Z</time>
      </trkpt>
      <trkpt lat="45.684149963781238" lon="8.028060039505363">
        <ele>1489.558</ele>
        <time>2011-11-01T12:21:44Z</time>
      </trkpt>
      <trkpt lat="45.684139989316463" lon="8.028100021183491">
        <ele>1488.643</ele>
        <time>2011-11-01T12:21:48Z</time>
      </trkpt>
      <trkpt lat="45.684109982103109" lon="8.028179984539747">
        <ele>1485.29</ele>
        <time>2011-11-01T12:21:57Z</time>
      </trkpt>
      <trkpt lat="45.684030018746853" lon="8.02824997343123">
        <ele>1481.9380000000001</ele>
        <time>2011-11-01T12:22:08Z</time>
      </trkpt>
      <trkpt lat="45.683990037068725" lon="8.028260031715035">
        <ele>1481.0229999999999</ele>
        <time>2011-11-01T12:22:12Z</time>
      </trkpt>
      <trkpt lat="45.683960029855371" lon="8.028339995071292">
        <ele>1478.585</ele>
        <time>2011-11-01T12:22:17Z</time>
      </trkpt>
      <trkpt lat="45.683930022642016" lon="8.02837997674942">
        <ele>1475.537</ele>
        <time>2011-11-01T12:22:21Z</time>
      </trkpt>
      <trkpt lat="45.683849975466728" lon="8.028590027242899">
        <ele>1472.184</ele>
        <time>2011-11-01T12:22:39Z</time>
      </trkpt>
      <trkpt lat="45.68378996104002" lon="8.02867996506393">
        <ele>1468.8309999999999</ele>
        <time>2011-11-01T12:22:49Z</time>
      </trkpt>
      <trkpt lat="45.683779986575246" lon="8.02867996506393">
        <ele>1468.8309999999999</ele>
        <time>2011-11-01T12:22:50Z</time>
      </trkpt>
      <trkpt lat="45.683740004897118" lon="8.028769986703992">
        <ele>1466.393</ele>
        <time>2011-11-01T12:22:59Z</time>
      </trkpt>
      <trkpt lat="45.683660041540861" lon="8.028869982808828">
        <ele>1462.7349999999999</ele>
        <time>2011-11-01T12:23:12Z</time>
      </trkpt>
      <trkpt lat="45.683640008792281" lon="8.028909964486957">
        <ele>1460.6020000000001</ele>
        <time>2011-11-01T12:23:16Z</time>
      </trkpt>
      <trkpt lat="45.683600027114153" lon="8.028990011662245">
        <ele>1459.3820000000001</ele>
        <time>2011-11-01T12:23:26Z</time>
      </trkpt>
      <trkpt lat="45.683559961616993" lon="8.028999986127019">
        <ele>1457.249</ele>
        <time>2011-11-01T12:23:29Z</time>
      </trkpt>
      <trkpt lat="45.683519979938865" lon="8.029060000553727">
        <ele>1454.8099999999999</ele>
        <time>2011-11-01T12:23:36Z</time>
      </trkpt>
      <trkpt lat="45.683510005474091" lon="8.029099982231855">
        <ele>1453.896</ele>
        <time>2011-11-01T12:23:39Z</time>
      </trkpt>
      <trkpt lat="45.683429958298802" lon="8.029120014980435">
        <ele>1451.4580000000001</ele>
        <time>2011-11-01T12:23:46Z</time>
      </trkpt>
      <trkpt lat="45.683370027691126" lon="8.029159996658564">
        <ele>1449.3240000000001</ele>
        <time>2011-11-01T12:23:53Z</time>
      </trkpt>
      <trkpt lat="45.683349994942546" lon="8.029169971123338">
        <ele>1447.8</ele>
        <time>2011-11-01T12:23:55Z</time>
      </trkpt>
      <trkpt lat="45.683259973302484" lon="8.029329981654882">
        <ele>1444.752</ele>
        <time>2011-11-01T12:24:11Z</time>
      </trkpt>
      <trkpt lat="45.683240024372935" lon="8.029350014403462">
        <ele>1442.923</ele>
        <time>2011-11-01T12:24:15Z</time>
      </trkpt>
      <trkpt lat="45.683219991624355" lon="8.029369963333011">
        <ele>1442.3140000000001</ele>
        <time>2011-11-01T12:24:22Z</time>
      </trkpt>
      <trkpt lat="45.683119995519519" lon="8.029440036043525">
        <ele>1438.961</ele>
        <time>2011-11-01T12:24:35Z</time>
      </trkpt>
      <trkpt lat="45.683119995519519" lon="8.029510024935007">
        <ele>1436.2180000000001</ele>
        <time>2011-11-01T12:24:48Z</time>
      </trkpt>
      <trkpt lat="45.683110021054745" lon="8.029570039361715">
        <ele>1435.3030000000001</ele>
        <time>2011-11-01T12:25:03Z</time>
      </trkpt>
      <trkpt lat="45.683070039376616" lon="8.02955998107791">
        <ele>1435.3030000000001</ele>
        <time>2011-11-01T12:25:17Z</time>
      </trkpt>
      <trkpt lat="45.6829500105232" lon="8.029540032148361">
        <ele>1433.779</ele>
        <time>2011-11-01T12:25:28Z</time>
      </trkpt>
      <trkpt lat="45.682920003309846" lon="8.029510024935007">
        <ele>1433.4739999999999</ele>
        <time>2011-11-01T12:25:43Z</time>
      </trkpt>
      <trkpt lat="45.682869963347912" lon="8.029459984973073">
        <ele>1433.4739999999999</ele>
        <time>2011-11-01T12:26:09Z</time>
      </trkpt>
      <trkpt lat="45.682899970561266" lon="8.029510024935007">
        <ele>1433.4739999999999</ele>
        <time>2011-11-01T12:26:43Z</time>
      </trkpt>
      <trkpt lat="45.682729985564947" lon="8.029580013826489">
        <ele>1431.0360000000001</ele>
        <time>2011-11-01T12:27:01Z</time>
      </trkpt>
      <trkpt lat="45.682680029422045" lon="8.029570039361715">
        <ele>1431.0360000000001</ele>
        <time>2011-11-01T12:27:05Z</time>
      </trkpt>
      <trkpt lat="45.682620014995337" lon="8.02955998107791">
        <ele>1429.5119999999999</ele>
        <time>2011-11-01T12:27:14Z</time>
      </trkpt>
      <trkpt lat="45.682580033317208" lon="8.029489992186427">
        <ele>1428.902</ele>
        <time>2011-11-01T12:27:33Z</time>
      </trkpt>
      <trkpt lat="45.682509960606694" lon="8.029519999399781">
        <ele>1428.598</ele>
        <time>2011-11-01T12:27:48Z</time>
      </trkpt>
      <trkpt lat="45.682460004463792" lon="8.029459984973073">
        <ele>1427.9880000000001</ele>
        <time>2011-11-01T12:28:02Z</time>
      </trkpt>
      <trkpt lat="45.682439971715212" lon="8.029440036043525">
        <ele>1427.0740000000001</ele>
        <time>2011-11-01T12:28:16Z</time>
      </trkpt>
      <trkpt lat="45.682380041107535" lon="8.029429977759719">
        <ele>1425.55</ele>
        <time>2011-11-01T12:28:30Z</time>
      </trkpt>
      <trkpt lat="45.682339975610375" lon="8.029380021616817">
        <ele>1425.2449999999999</ele>
        <time>2011-11-01T12:28:42Z</time>
      </trkpt>
      <trkpt lat="45.682290019467473" lon="8.029369963333011">
        <ele>1423.721</ele>
        <time>2011-11-01T12:28:52Z</time>
      </trkpt>
      <trkpt lat="45.682239979505539" lon="8.029350014403462">
        <ele>1423.721</ele>
        <time>2011-11-01T12:28:57Z</time>
      </trkpt>
      <trkpt lat="45.682160016149282" lon="8.029340039938688">
        <ele>1422.806</ele>
        <time>2011-11-01T12:29:15Z</time>
      </trkpt>
      <trkpt lat="45.682150041684508" lon="8.029310032725334">
        <ele>1423.1110000000001</ele>
        <time>2011-11-01T12:29:48Z</time>
      </trkpt>
      <trkpt lat="45.682160016149282" lon="8.029320007190108">
        <ele>1423.721</ele>
        <time>2011-11-01T12:30:14Z</time>
      </trkpt>
      <trkpt lat="45.682139983400702" lon="8.029340039938688">
        <ele>1423.1110000000001</ele>
        <time>2011-11-01T12:30:47Z</time>
      </trkpt>
      <trkpt lat="45.682100001722574" lon="8.029450010508299">
        <ele>1421.8920000000001</ele>
        <time>2011-11-01T12:30:58Z</time>
      </trkpt>
      <trkpt lat="45.682160016149282" lon="8.029499966651201">
        <ele>1419.758</ele>
        <time>2011-11-01T12:31:14Z</time>
      </trkpt>
      <trkpt lat="45.682139983400702" lon="8.029480017721653">
        <ele>1421.2819999999999</ele>
        <time>2011-11-01T12:31:39Z</time>
      </trkpt>
      <trkpt lat="45.682109976187348" lon="8.029389996081591">
        <ele>1420.9780000000001</ele>
        <time>2011-11-01T12:32:06Z</time>
      </trkpt>
      <trkpt lat="45.682079968973994" lon="8.029389996081591">
        <ele>1421.8920000000001</ele>
        <time>2011-11-01T12:32:21Z</time>
      </trkpt>
      <trkpt lat="45.68206999450922" lon="8.029389996081591">
        <ele>1421.8920000000001</ele>
        <time>2011-11-01T12:32:41Z</time>
      </trkpt>
      <trkpt lat="45.6820900272578" lon="8.029489992186427">
        <ele>1422.806</ele>
        <time>2011-11-01T12:33:07Z</time>
      </trkpt>
      <trkpt lat="45.682030012831092" lon="8.029550006613135">
        <ele>1421.2819999999999</ele>
        <time>2011-11-01T12:33:15Z</time>
      </trkpt>
      <trkpt lat="45.681890035048127" lon="8.029629969969392">
        <ele>1419.454</ele>
        <time>2011-11-01T12:33:28Z</time>
      </trkpt>
      <trkpt lat="45.681830020621419" lon="8.029659977182746">
        <ele>1417.9300000000001</ele>
        <time>2011-11-01T12:33:34Z</time>
      </trkpt>
      <trkpt lat="45.681709991768003" lon="8.029910009354353">
        <ele>1416.1010000000001</ele>
        <time>2011-11-01T12:33:52Z</time>
      </trkpt>
      <trkpt lat="45.681560039520264" lon="8.030110001564026">
        <ele>1413.0530000000001</ele>
        <time>2011-11-01T12:34:09Z</time>
      </trkpt>
      <trkpt lat="45.681440010666847" lon="8.030360033735633">
        <ele>1411.2239999999999</ele>
        <time>2011-11-01T12:34:28Z</time>
      </trkpt>
      <trkpt lat="45.681410003453493" lon="8.030400015413761">
        <ele>1411.2239999999999</ele>
        <time>2011-11-01T12:34:31Z</time>
      </trkpt>
      <trkpt lat="45.681349989026785" lon="8.030430022627115">
        <ele>1410.3099999999999</ele>
        <time>2011-11-01T12:34:35Z</time>
      </trkpt>
      <trkpt lat="45.681259967386723" lon="8.030679970979691">
        <ele>1406.347</ele>
        <time>2011-11-01T12:34:52Z</time>
      </trkpt>
      <trkpt lat="45.681159971281886" lon="8.030820032581687">
        <ele>1404.8230000000001</ele>
        <time>2011-11-01T12:35:10Z</time>
      </trkpt>
      <trkpt lat="45.681089982390404" lon="8.030960010364652">
        <ele>1402.9939999999999</ele>
        <time>2011-11-01T12:35:23Z</time>
      </trkpt>
      <trkpt lat="45.680970037356019" lon="8.031220017001033">
        <ele>1401.1659999999999</ele>
        <time>2011-11-01T12:35:41Z</time>
      </trkpt>
      <trkpt lat="45.680850008502603" lon="8.03142998367548">
        <ele>1400.251</ele>
        <time>2011-11-01T12:35:57Z</time>
      </trkpt>
      <trkpt lat="45.680669965222478" lon="8.031640034168959">
        <ele>1398.1179999999999</ele>
        <time>2011-11-01T12:36:16Z</time>
      </trkpt>
      <trkpt lat="45.680559994652867" lon="8.031810019165278">
        <ele>1397.203</ele>
        <time>2011-11-01T12:36:35Z</time>
      </trkpt>
      <trkpt lat="45.680550020188093" lon="8.031810019165278">
        <ele>1396.8979999999999</ele>
        <time>2011-11-01T12:36:36Z</time>
      </trkpt>
      <trkpt lat="45.680420016869903" lon="8.032080000266433">
        <ele>1395.9839999999999</ele>
        <time>2011-11-01T12:36:55Z</time>
      </trkpt>
      <trkpt lat="45.680269980803132" lon="8.032259959727526">
        <ele>1394.46</ele>
        <time>2011-11-01T12:37:11Z</time>
      </trkpt>
      <trkpt lat="45.680120028555393" lon="8.032400021329522">
        <ele>1393.546</ele>
        <time>2011-11-01T12:37:26Z</time>
      </trkpt>
      <trkpt lat="45.680060014128685" lon="8.032430028542876">
        <ele>1392.326</ele>
        <time>2011-11-01T12:37:31Z</time>
      </trkpt>
      <trkpt lat="45.679999999701977" lon="8.03244000300765">
        <ele>1392.326</ele>
        <time>2011-11-01T12:37:35Z</time>
      </trkpt>
      <trkpt lat="45.679760025814176" lon="8.03241997025907">
        <ele>1392.0219999999999</ele>
        <time>2011-11-01T12:37:53Z</time>
      </trkpt>
      <trkpt lat="45.679519968107343" lon="8.032270018011332">
        <ele>1391.412</ele>
        <time>2011-11-01T12:38:14Z</time>
      </trkpt>
      <trkpt lat="45.679270019754767" lon="8.032140014693141">
        <ele>1390.193</ele>
        <time>2011-11-01T12:38:34Z</time>
      </trkpt>
      <trkpt lat="45.67904002033174" lon="8.032100033015013">
        <ele>1388.059</ele>
        <time>2011-11-01T12:38:51Z</time>
      </trkpt>
      <trkpt lat="45.678780013695359" lon="8.032070025801659">
        <ele>1386.8399999999999</ele>
        <time>2011-11-01T12:39:11Z</time>
      </trkpt>
      <trkpt lat="45.67858999595046" lon="8.032130040228367">
        <ele>1385.6210000000001</ele>
        <time>2011-11-01T12:39:27Z</time>
      </trkpt>
      <trkpt lat="45.678410036489367" lon="8.03228996694088">
        <ele>1385.316</ele>
        <time>2011-11-01T12:39:44Z</time>
      </trkpt>
      <trkpt lat="45.678280033171177" lon="8.032370014116168">
        <ele>1384.7059999999999</ele>
        <time>2011-11-01T12:39:55Z</time>
      </trkpt>
      <trkpt lat="45.678069982677698" lon="8.03233003243804">
        <ele>1384.402</ele>
        <time>2011-11-01T12:40:11Z</time>
      </trkpt>
      <trkpt lat="45.677969986572862" lon="8.032489959150553">
        <ele>1384.7059999999999</ele>
        <time>2011-11-01T12:40:24Z</time>
      </trkpt>
      <trkpt lat="45.677809976041317" lon="8.032790031284094">
        <ele>1384.7059999999999</ele>
        <time>2011-11-01T12:40:45Z</time>
      </trkpt>
      <trkpt lat="45.677649965509772" lon="8.032960016280413">
        <ele>1385.6210000000001</ele>
        <time>2011-11-01T12:41:02Z</time>
      </trkpt>
      <trkpt lat="45.677490038797259" lon="8.033160008490086">
        <ele>1387.145</ele>
        <time>2011-11-01T12:41:23Z</time>
      </trkpt>
      <trkpt lat="45.677490038797259" lon="8.03319001570344">
        <ele>1386.23</ele>
        <time>2011-11-01T12:41:57Z</time>
      </trkpt>
      <trkpt lat="45.677439998835325" lon="8.03332001902163">
        <ele>1386.23</ele>
        <time>2011-11-01T12:42:06Z</time>
      </trkpt>
      <trkpt lat="45.677240006625652" lon="8.033499978482723">
        <ele>1386.8399999999999</ele>
        <time>2011-11-01T12:42:25Z</time>
      </trkpt>
      <trkpt lat="45.676989974454045" lon="8.033629981800914">
        <ele>1388.059</ele>
        <time>2011-11-01T12:42:45Z</time>
      </trkpt>
      <trkpt lat="45.676780007779598" lon="8.033769959583879">
        <ele>1388.6690000000001</ele>
        <time>2011-11-01T12:43:04Z</time>
      </trkpt>
      <trkpt lat="45.676610022783279" lon="8.034019991755486">
        <ele>1390.193</ele>
        <time>2011-11-01T12:43:24Z</time>
      </trkpt>
      <trkpt lat="45.676480019465089" lon="8.034240016713738">
        <ele>1390.498</ele>
        <time>2011-11-01T12:43:41Z</time>
      </trkpt>
      <trkpt lat="45.676350016146898" lon="8.034530030563474">
        <ele>1392.0219999999999</ele>
        <time>2011-11-01T12:44:02Z</time>
      </trkpt>
      <trkpt lat="45.676199980080128" lon="8.034819960594177">
        <ele>1393.8499999999999</ele>
        <time>2011-11-01T12:44:23Z</time>
      </trkpt>
      <trkpt lat="45.676060002297163" lon="8.034979971125722">
        <ele>1394.46</ele>
        <time>2011-11-01T12:44:39Z</time>
      </trkpt>
      <trkpt lat="45.675879959017038" lon="8.035079967230558">
        <ele>1395.9839999999999</ele>
        <time>2011-11-01T12:44:56Z</time>
      </trkpt>
      <trkpt lat="45.675690025091171" lon="8.035209970548749">
        <ele>1395.374</ele>
        <time>2011-11-01T12:45:12Z</time>
      </trkpt>
      <trkpt lat="45.675549963489175" lon="8.035509958863258">
        <ele>1395.374</ele>
        <time>2011-11-01T12:45:31Z</time>
      </trkpt>
      <trkpt lat="45.675449967384338" lon="8.0358100309968">
        <ele>1395.9839999999999</ele>
        <time>2011-11-01T12:45:50Z</time>
      </trkpt>
      <trkpt lat="45.675400011241436" lon="8.036080012097955">
        <ele>1396.289</ele>
        <time>2011-11-01T12:46:06Z</time>
      </trkpt>
      <trkpt lat="45.675249975174665" lon="8.036229964345694">
        <ele>1397.203</ele>
        <time>2011-11-01T12:46:22Z</time>
      </trkpt>
      <trkpt lat="45.675089964643121" lon="8.036340018734336">
        <ele>1398.7270000000001</ele>
        <time>2011-11-01T12:46:37Z</time>
      </trkpt>
      <trkpt lat="45.674930037930608" lon="8.036579992622137">
        <ele>1400.251</ele>
        <time>2011-11-01T12:46:56Z</time>
      </trkpt>
      <trkpt lat="45.674949986860156" lon="8.036919962614775">
        <ele>1401.1659999999999</ele>
        <time>2011-11-01T12:47:14Z</time>
      </trkpt>
      <trkpt lat="45.675049982964993" lon="8.037190027534962">
        <ele>1402.0799999999999</ele>
        <time>2011-11-01T12:47:32Z</time>
      </trkpt>
      <trkpt lat="45.675140004605055" lon="8.037439975887537">
        <ele>1403.604</ele>
        <time>2011-11-01T12:47:49Z</time>
      </trkpt>
      <trkpt lat="45.675189960747957" lon="8.037520023062825">
        <ele>1402.9939999999999</ele>
        <time>2011-11-01T12:47:55Z</time>
      </trkpt>
      <trkpt lat="45.675219967961311" lon="8.037590011954308">
        <ele>1402.9939999999999</ele>
        <time>2011-11-01T12:48:00Z</time>
      </trkpt>
      <trkpt lat="45.675360029563308" lon="8.037869967520237">
        <ele>1404.518</ele>
        <time>2011-11-01T12:48:20Z</time>
      </trkpt>
      <trkpt lat="45.675479974597692" lon="8.038129974156618">
        <ele>1404.8230000000001</ele>
        <time>2011-11-01T12:48:38Z</time>
      </trkpt>
      <trkpt lat="45.675539989024401" lon="8.038429962471128">
        <ele>1406.0419999999999</ele>
        <time>2011-11-01T12:48:56Z</time>
      </trkpt>
      <trkpt lat="45.675470000132918" lon="8.038779990747571">
        <ele>1406.9570000000001</ele>
        <time>2011-11-01T12:49:17Z</time>
      </trkpt>
      <trkpt lat="45.675439992919564" lon="8.038849979639053">
        <ele>1406.9570000000001</ele>
        <time>2011-11-01T12:49:22Z</time>
      </trkpt>
      <trkpt lat="45.675339996814728" lon="8.039119960740209">
        <ele>1408.7860000000001</ele>
        <time>2011-11-01T12:49:40Z</time>
      </trkpt>
      <trkpt lat="45.675209993496537" lon="8.039320036768913">
        <ele>1409.395</ele>
        <time>2011-11-01T12:49:57Z</time>
      </trkpt>
      <trkpt lat="45.675040008500218" lon="8.039560010656714">
        <ele>1409.395</ele>
        <time>2011-11-01T12:50:15Z</time>
      </trkpt>
      <trkpt lat="45.674840016290545" lon="8.039729995653033">
        <ele>1408.7860000000001</ele>
        <time>2011-11-01T12:50:34Z</time>
      </trkpt>
      <trkpt lat="45.674689980223775" lon="8.039920013397932">
        <ele>1407.8710000000001</ele>
        <time>2011-11-01T12:50:50Z</time>
      </trkpt>
      <trkpt lat="45.67452996969223" lon="8.040140038356185">
        <ele>1407.2619999999999</ele>
        <time>2011-11-01T12:51:08Z</time>
      </trkpt>
      <trkpt lat="45.674329977482557" lon="8.040350005030632">
        <ele>1406.9570000000001</ele>
        <time>2011-11-01T12:51:30Z</time>
      </trkpt>
      <trkpt lat="45.674329977482557" lon="8.040329972282052">
        <ele>1406.0419999999999</ele>
        <time>2011-11-01T12:51:57Z</time>
      </trkpt>
      <trkpt lat="45.674329977482557" lon="8.040380012243986">
        <ele>1406.0419999999999</ele>
        <time>2011-11-01T12:52:11Z</time>
      </trkpt>
      <trkpt lat="45.674229981377721" lon="8.040359979495406">
        <ele>1404.8230000000001</ele>
        <time>2011-11-01T12:52:32Z</time>
      </trkpt>
      <trkpt lat="45.674220006912947" lon="8.040359979495406">
        <ele>1403.9090000000001</ele>
        <time>2011-11-01T12:52:33Z</time>
      </trkpt>
      <trkpt lat="45.673999981954694" lon="8.040329972282052">
        <ele>1403.9090000000001</ele>
        <time>2011-11-01T12:52:52Z</time>
      </trkpt>
      <trkpt lat="45.67396997474134" lon="8.040329972282052">
        <ele>1403.9090000000001</ele>
        <time>2011-11-01T12:52:55Z</time>
      </trkpt>
      <trkpt lat="45.673899985849857" lon="8.040270041674376">
        <ele>1404.518</ele>
        <time>2011-11-01T12:53:02Z</time>
      </trkpt>
      <trkpt lat="45.673709968104959" lon="8.040159987285733">
        <ele>1405.433</ele>
        <time>2011-11-01T12:53:19Z</time>
      </trkpt>
      <trkpt lat="45.673569990321994" lon="8.040099972859025">
        <ele>1405.433</ele>
        <time>2011-11-01T12:53:31Z</time>
      </trkpt>
      <trkpt lat="45.673339990898967" lon="8.040089998394251">
        <ele>1406.0419999999999</ele>
        <time>2011-11-01T12:53:49Z</time>
      </trkpt>
      <trkpt lat="45.673190038651228" lon="8.040110031142831">
        <ele>1406.0419999999999</ele>
        <time>2011-11-01T12:54:02Z</time>
      </trkpt>
      <trkpt lat="45.673030028119683" lon="8.040129980072379">
        <ele>1406.9570000000001</ele>
        <time>2011-11-01T12:54:17Z</time>
      </trkpt>
      <trkpt lat="45.672900024801493" lon="8.040140038356185">
        <ele>1406.9570000000001</ele>
        <time>2011-11-01T12:54:27Z</time>
      </trkpt>
      <trkpt lat="45.672870017588139" lon="8.040110031142831">
        <ele>1407.8710000000001</ele>
        <time>2011-11-01T12:54:30Z</time>
      </trkpt>
      <trkpt lat="45.672670025378466" lon="8.040039958432317">
        <ele>1407.8710000000001</ele>
        <time>2011-11-01T12:54:46Z</time>
      </trkpt>
      <trkpt lat="45.672450000420213" lon="8.03998002782464">
        <ele>1407.8710000000001</ele>
        <time>2011-11-01T12:55:03Z</time>
      </trkpt>
      <trkpt lat="45.672329971566796" lon="8.039999976754189">
        <ele>1407.8710000000001</ele>
        <time>2011-11-01T12:55:13Z</time>
      </trkpt>
      <trkpt lat="45.67227004095912" lon="8.040169961750507">
        <ele>1408.481</ele>
        <time>2011-11-01T12:55:22Z</time>
      </trkpt>
      <trkpt lat="45.672150012105703" lon="8.040480008348823">
        <ele>1407.8710000000001</ele>
        <time>2011-11-01T12:55:41Z</time>
      </trkpt>
      <trkpt lat="45.672040041536093" lon="8.04081997834146">
        <ele>1405.433</ele>
        <time>2011-11-01T12:56:01Z</time>
      </trkpt>
      <trkpt lat="45.671990001574159" lon="8.041149973869324">
        <ele>1402.0799999999999</ele>
        <time>2011-11-01T12:56:19Z</time>
      </trkpt>
      <trkpt lat="45.671850023791194" lon="8.041379973292351">
        <ele>1400.556</ele>
        <time>2011-11-01T12:56:36Z</time>
      </trkpt>
      <trkpt lat="45.671739969402552" lon="8.041630005463958">
        <ele>1401.47</ele>
        <time>2011-11-01T12:56:53Z</time>
      </trkpt>
      <trkpt lat="45.671639973297715" lon="8.041890012100339">
        <ele>1401.47</ele>
        <time>2011-11-01T12:57:10Z</time>
      </trkpt>
      <trkpt lat="45.671660006046295" lon="8.042099978774786">
        <ele>1402.9939999999999</ele>
        <time>2011-11-01T12:57:26Z</time>
      </trkpt>
      <trkpt lat="45.671839965507388" lon="8.042139960452914">
        <ele>1402.6900000000001</ele>
        <time>2011-11-01T12:57:46Z</time>
      </trkpt>
      <trkpt lat="45.67182001657784" lon="8.042159993201494">
        <ele>1402.9939999999999</ele>
        <time>2011-11-01T12:57:47Z</time>
      </trkpt>
      <trkpt lat="45.671699987724423" lon="8.042399967089295">
        <ele>1403.9090000000001</ele>
        <time>2011-11-01T12:58:03Z</time>
      </trkpt>
      <trkpt lat="45.671650031581521" lon="8.04255997762084">
        <ele>1404.8230000000001</ele>
        <time>2011-11-01T12:58:17Z</time>
      </trkpt>
      <trkpt lat="45.671609966084361" lon="8.042680006474257">
        <ele>1406.347</ele>
        <time>2011-11-01T12:58:28Z</time>
      </trkpt>
      <trkpt lat="45.671560009941459" lon="8.042870024219155">
        <ele>1407.8710000000001</ele>
        <time>2011-11-01T12:58:43Z</time>
      </trkpt>
      <trkpt lat="45.67149999551475" lon="8.043070016428828">
        <ele>1410.614</ele>
        <time>2011-11-01T12:59:00Z</time>
      </trkpt>
      <trkpt lat="45.671469988301396" lon="8.043270008638501">
        <ele>1413.0530000000001</ele>
        <time>2011-11-01T12:59:16Z</time>
      </trkpt>
      <trkpt lat="45.671420032158494" lon="8.043430019170046">
        <ele>1415.491</ele>
        <time>2011-11-01T12:59:32Z</time>
      </trkpt>
      <trkpt lat="45.671379966661334" lon="8.043560022488236">
        <ele>1416.4059999999999</ele>
        <time>2011-11-01T13:00:07Z</time>
      </trkpt>
      <trkpt lat="45.671300003305078" lon="8.043790021911264">
        <ele>1418.539</ele>
        <time>2011-11-01T13:00:26Z</time>
      </trkpt>
      <trkpt lat="45.671220039948821" lon="8.043960006907582">
        <ele>1421.2819999999999</ele>
        <time>2011-11-01T13:00:42Z</time>
      </trkpt>
      <trkpt lat="45.671139992773533" lon="8.044159999117255">
        <ele>1422.806</ele>
        <time>2011-11-01T13:00:59Z</time>
      </trkpt>
      <trkpt lat="45.671070003882051" lon="8.044339958578348">
        <ele>1424.3299999999999</ele>
        <time>2011-11-01T13:01:15Z</time>
      </trkpt>
      <trkpt lat="45.671030022203922" lon="8.044540034607053">
        <ele>1425.2449999999999</ele>
        <time>2011-11-01T13:01:29Z</time>
      </trkpt>
      <trkpt lat="45.670990040525794" lon="8.04477003403008">
        <ele>1425.55</ele>
        <time>2011-11-01T13:01:46Z</time>
      </trkpt>
      <trkpt lat="45.670949975028634" lon="8.044949993491173">
        <ele>1426.4639999999999</ele>
        <time>2011-11-01T13:01:59Z</time>
      </trkpt>
      <trkpt lat="45.670909993350506" lon="8.045210000127554">
        <ele>1427.9880000000001</ele>
        <time>2011-11-01T13:02:17Z</time>
      </trkpt>
      <trkpt lat="45.670840004459023" lon="8.045470006763935">
        <ele>1428.902</ele>
        <time>2011-11-01T13:02:34Z</time>
      </trkpt>
      <trkpt lat="45.670749982818961" lon="8.045660024508834">
        <ele>1431.95</ele>
        <time>2011-11-01T13:02:52Z</time>
      </trkpt>
      <trkpt lat="45.670610005035996" lon="8.045720038935542">
        <ele>1431.95</ele>
        <time>2011-11-01T13:03:10Z</time>
      </trkpt>
      <trkpt lat="45.670389980077744" lon="8.04573998786509">
        <ele>1431.0360000000001</ele>
        <time>2011-11-01T13:03:29Z</time>
      </trkpt>
      <trkpt lat="45.670380005612969" lon="8.045749962329865">
        <ele>1431.0360000000001</ele>
        <time>2011-11-01T13:03:30Z</time>
      </trkpt>
      <trkpt lat="45.670180013403296" lon="8.045849958434701">
        <ele>1428.902</ele>
        <time>2011-11-01T13:03:48Z</time>
      </trkpt>
      <trkpt lat="45.670029977336526" lon="8.045939980074763">
        <ele>1427.9880000000001</ele>
        <time>2011-11-01T13:04:02Z</time>
      </trkpt>
      <trkpt lat="45.669980021193624" lon="8.045969987288117">
        <ele>1426.4639999999999</ele>
        <time>2011-11-01T13:04:06Z</time>
      </trkpt>
      <trkpt lat="45.669959988445044" lon="8.045990020036697">
        <ele>1426.4639999999999</ele>
        <time>2011-11-01T13:04:09Z</time>
      </trkpt>
      <trkpt lat="45.669780028983951" lon="8.0460399761796">
        <ele>1424.635</ele>
        <time>2011-11-01T13:04:25Z</time>
      </trkpt>
      <trkpt lat="45.66962999291718" lon="8.046209961175919">
        <ele>1423.1110000000001</ele>
        <time>2011-11-01T13:04:40Z</time>
      </trkpt>
      <trkpt lat="45.669590011239052" lon="8.04651003330946">
        <ele>1424.635</ele>
        <time>2011-11-01T13:04:58Z</time>
      </trkpt>
      <trkpt lat="45.669580036774278" lon="8.046840028837323">
        <ele>1426.1590000000001</ele>
        <time>2011-11-01T13:05:17Z</time>
      </trkpt>
      <trkpt lat="45.669590011239052" lon="8.047100035473704">
        <ele>1424.635</ele>
        <time>2011-11-01T13:05:33Z</time>
      </trkpt>
      <trkpt lat="45.669569978490472" lon="8.04734998382628">
        <ele>1422.806</ele>
        <time>2011-11-01T13:05:48Z</time>
      </trkpt>
      <trkpt lat="45.669580036774278" lon="8.047379991039634">
        <ele>1422.806</ele>
        <time>2011-11-01T13:05:50Z</time>
      </trkpt>
      <trkpt lat="45.669580036774278" lon="8.047409998252988">
        <ele>1422.806</ele>
        <time>2011-11-01T13:05:52Z</time>
      </trkpt>
      <trkpt lat="45.669569978490472" lon="8.047560034319758">
        <ele>1421.8920000000001</ele>
        <time>2011-11-01T13:05:59Z</time>
      </trkpt>
      <trkpt lat="45.669539971277118" lon="8.047770000994206">
        <ele>1421.8920000000001</ele>
        <time>2011-11-01T13:06:12Z</time>
      </trkpt>
      <trkpt lat="45.669409967958927" lon="8.048050040379167">
        <ele>1420.3679999999999</ele>
        <time>2011-11-01T13:06:28Z</time>
      </trkpt>
      <trkpt lat="45.669290022924542" lon="8.048179959878326">
        <ele>1420.3679999999999</ele>
        <time>2011-11-01T13:06:40Z</time>
      </trkpt>
      <trkpt lat="45.66920000128448" lon="8.04825003258884">
        <ele>1420.9780000000001</ele>
        <time>2011-11-01T13:06:48Z</time>
      </trkpt>
      <trkpt lat="45.669039990752935" lon="8.048320021480322">
        <ele>1420.9780000000001</ele>
        <time>2011-11-01T13:07:01Z</time>
      </trkpt>
      <trkpt lat="45.668830024078488" lon="8.048429992049933">
        <ele>1421.2819999999999</ele>
        <time>2011-11-01T13:07:19Z</time>
      </trkpt>
      <trkpt lat="45.668689962476492" lon="8.048499980941415">
        <ele>1420.9780000000001</ele>
        <time>2011-11-01T13:07:31Z</time>
      </trkpt>
      <trkpt lat="45.668540010228753" lon="8.048599977046251">
        <ele>1419.758</ele>
        <time>2011-11-01T13:07:42Z</time>
      </trkpt>
      <trkpt lat="45.668379999697208" lon="8.048780020326376">
        <ele>1420.9780000000001</ele>
        <time>2011-11-01T13:07:56Z</time>
      </trkpt>
      <trkpt lat="45.668300036340952" lon="8.048869958147407">
        <ele>1420.9780000000001</ele>
        <time>2011-11-01T13:08:04Z</time>
      </trkpt>
      <trkpt lat="45.668180007487535" lon="8.04911001585424">
        <ele>1421.8920000000001</ele>
        <time>2011-11-01T13:08:21Z</time>
      </trkpt>
      <trkpt lat="45.668310010805726" lon="8.049430036917329">
        <ele>1422.1969999999999</ele>
        <time>2011-11-01T13:08:41Z</time>
      </trkpt>
      <trkpt lat="45.668379999697208" lon="8.049619970843196">
        <ele>1423.721</ele>
        <time>2011-11-01T13:08:55Z</time>
      </trkpt>
      <trkpt lat="45.668419981375337" lon="8.049790039658546">
        <ele>1425.2449999999999</ele>
        <time>2011-11-01T13:09:10Z</time>
      </trkpt>
      <trkpt lat="45.668470021337271" lon="8.050049962475896">
        <ele>1426.4639999999999</ele>
        <time>2011-11-01T13:09:28Z</time>
      </trkpt>
      <trkpt lat="45.668470021337271" lon="8.050060020759702">
        <ele>1426.4639999999999</ele>
        <time>2011-11-01T13:09:29Z</time>
      </trkpt>
      <trkpt lat="45.668530035763979" lon="8.050239980220795">
        <ele>1427.683</ele>
        <time>2011-11-01T13:09:43Z</time>
      </trkpt>
      <trkpt lat="45.668549984693527" lon="8.050399990752339">
        <ele>1429.5119999999999</ele>
        <time>2011-11-01T13:09:54Z</time>
      </trkpt>
      <trkpt lat="45.668559959158301" lon="8.050450030714274">
        <ele>1429.817</ele>
        <time>2011-11-01T13:09:58Z</time>
      </trkpt>
      <trkpt lat="45.668559959158301" lon="8.050659997388721">
        <ele>1431.3409999999999</ele>
        <time>2011-11-01T13:10:12Z</time>
      </trkpt>
      <trkpt lat="45.668579991906881" lon="8.050799975171685">
        <ele>1433.4739999999999</ele>
        <time>2011-11-01T13:10:25Z</time>
      </trkpt>
      <trkpt lat="45.668609999120235" lon="8.050940036773682">
        <ele>1434.694</ele>
        <time>2011-11-01T13:10:36Z</time>
      </trkpt>
      <trkpt lat="45.668630031868815" lon="8.050989992916584">
        <ele>1435.3030000000001</ele>
        <time>2011-11-01T13:10:40Z</time>
      </trkpt>
      <trkpt lat="45.668700020760298" lon="8.051189985126257">
        <ele>1436.827</ele>
        <time>2011-11-01T13:10:56Z</time>
      </trkpt>
      <trkpt lat="45.668740002438426" lon="8.051329962909222">
        <ele>1437.742</ele>
        <time>2011-11-01T13:11:16Z</time>
      </trkpt>
      <trkpt lat="45.668779984116554" lon="8.051380002871156">
        <ele>1438.046</ele>
        <time>2011-11-01T13:11:21Z</time>
      </trkpt>
      <trkpt lat="45.668809991329908" lon="8.051429959014058">
        <ele>1438.046</ele>
        <time>2011-11-01T13:11:26Z</time>
      </trkpt>
      <trkpt lat="45.668890038505197" lon="8.051589969545603">
        <ele>1437.1320000000001</ele>
        <time>2011-11-01T13:11:39Z</time>
      </trkpt>
      <trkpt lat="45.668960027396679" lon="8.051879983395338">
        <ele>1435.3030000000001</ele>
        <time>2011-11-01T13:11:59Z</time>
      </trkpt>
      <trkpt lat="45.668939994648099" lon="8.052049968391657">
        <ele>1435.6079999999999</ele>
        <time>2011-11-01T13:12:09Z</time>
      </trkpt>
      <trkpt lat="45.668730027973652" lon="8.05226999334991">
        <ele>1435.3030000000001</ele>
        <time>2011-11-01T13:12:29Z</time>
      </trkpt>
      <trkpt lat="45.668530035763979" lon="8.052450036630034">
        <ele>1434.3889999999999</ele>
        <time>2011-11-01T13:12:48Z</time>
      </trkpt>
      <trkpt lat="45.668379999697208" lon="8.052590014412999">
        <ele>1433.779</ele>
        <time>2011-11-01T13:13:03Z</time>
      </trkpt>
      <trkpt lat="45.668249996379018" lon="8.052709959447384">
        <ele>1433.4739999999999</ele>
        <time>2011-11-01T13:13:16Z</time>
      </trkpt>
      <trkpt lat="45.668110018596053" lon="8.052820013836026">
        <ele>1432.2550000000001</ele>
        <time>2011-11-01T13:13:28Z</time>
      </trkpt>
      <trkpt lat="45.667899968102574" lon="8.052910035476089">
        <ele>1432.2550000000001</ele>
        <time>2011-11-01T13:13:46Z</time>
      </trkpt>
      <trkpt lat="45.667710034176707" lon="8.053120002150536">
        <ele>1431.0360000000001</ele>
        <time>2011-11-01T13:14:04Z</time>
      </trkpt>
      <trkpt lat="45.667550023645163" lon="8.053289987146854">
        <ele>1429.5119999999999</ele>
        <time>2011-11-01T13:14:19Z</time>
      </trkpt>
      <trkpt lat="45.667360005900264" lon="8.053549993783236">
        <ele>1428.598</ele>
        <time>2011-11-01T13:14:39Z</time>
      </trkpt>
      <trkpt lat="45.667220028117299" lon="8.053719978779554">
        <ele>1427.683</ele>
        <time>2011-11-01T13:14:53Z</time>
      </trkpt>
      <trkpt lat="45.667079966515303" lon="8.053870014846325">
        <ele>1427.0740000000001</ele>
        <time>2011-11-01T13:15:07Z</time>
      </trkpt>
      <trkpt lat="45.666869999840856" lon="8.054109988734126">
        <ele>1425.55</ele>
        <time>2011-11-01T13:15:27Z</time>
      </trkpt>
      <trkpt lat="45.666719963774085" lon="8.054449958726764">
        <ele>1424.635</ele>
        <time>2011-11-01T13:15:49Z</time>
      </trkpt>
      <trkpt lat="45.666700014844537" lon="8.054769979789853">
        <ele>1423.721</ele>
        <time>2011-11-01T13:16:07Z</time>
      </trkpt>
      <trkpt lat="45.666700014844537" lon="8.054780038073659">
        <ele>1423.1110000000001</ele>
        <time>2011-11-01T13:16:08Z</time>
      </trkpt>
      <trkpt lat="45.666730022057891" lon="8.054860001429915">
        <ele>1423.721</ele>
        <time>2011-11-01T13:16:13Z</time>
      </trkpt>
      <trkpt lat="45.666790036484599" lon="8.055059993639588">
        <ele>1422.806</ele>
        <time>2011-11-01T13:16:25Z</time>
      </trkpt>
      <trkpt lat="45.666809985414147" lon="8.055370040237904">
        <ele>1422.806</ele>
        <time>2011-11-01T13:16:41Z</time>
      </trkpt>
      <trkpt lat="45.666849967092276" lon="8.055689977481961">
        <ele>1421.8920000000001</ele>
        <time>2011-11-01T13:16:58Z</time>
      </trkpt>
      <trkpt lat="45.66687997430563" lon="8.055849988013506">
        <ele>1421.2819999999999</ele>
        <time>2011-11-01T13:17:07Z</time>
      </trkpt>
      <trkpt lat="45.666930014267564" lon="8.056089961901307">
        <ele>1420.9780000000001</ele>
        <time>2011-11-01T13:17:21Z</time>
      </trkpt>
      <trkpt lat="45.666969995945692" lon="8.056379975751042">
        <ele>1420.3679999999999</ele>
        <time>2011-11-01T13:17:36Z</time>
      </trkpt>
      <trkpt lat="45.667039984837174" lon="8.056620033457875">
        <ele>1419.758</ele>
        <time>2011-11-01T13:17:51Z</time>
      </trkpt>
      <trkpt lat="45.667099999263883" lon="8.056799992918968">
        <ele>1420.3679999999999</ele>
        <time>2011-11-01T13:18:02Z</time>
      </trkpt>
      <trkpt lat="45.667130006477237" lon="8.056950028985739">
        <ele>1419.758</ele>
        <time>2011-11-01T13:18:10Z</time>
      </trkpt>
      <trkpt lat="45.667160013690591" lon="8.057090006768704">
        <ele>1419.758</ele>
        <time>2011-11-01T13:18:19Z</time>
      </trkpt>
      <trkpt lat="45.667169988155365" lon="8.057139962911606">
        <ele>1418.8440000000001</ele>
        <time>2011-11-01T13:18:22Z</time>
      </trkpt>
      <trkpt lat="45.667190020903945" lon="8.057229984551668">
        <ele>1418.8440000000001</ele>
        <time>2011-11-01T13:18:28Z</time>
      </trkpt>
      <trkpt lat="45.667199995368719" lon="8.057350013405085">
        <ele>1418.539</ele>
        <time>2011-11-01T13:18:35Z</time>
      </trkpt>
      <trkpt lat="45.667220028117299" lon="8.057529972866178">
        <ele>1417.3199999999999</ele>
        <time>2011-11-01T13:18:45Z</time>
      </trkpt>
      <trkpt lat="45.667239977046847" lon="8.057829961180687">
        <ele>1417.3199999999999</ele>
        <time>2011-11-01T13:19:03Z</time>
      </trkpt>
      <trkpt lat="45.667250035330653" lon="8.057930041104555">
        <ele>1417.9300000000001</ele>
        <time>2011-11-01T13:19:09Z</time>
      </trkpt>
      <trkpt lat="45.667279958724976" lon="8.058209996670485">
        <ele>1417.0150000000001</ele>
        <time>2011-11-01T13:19:24Z</time>
      </trkpt>
      <trkpt lat="45.667279958724976" lon="8.058219971135259">
        <ele>1417.0150000000001</ele>
        <time>2011-11-01T13:19:25Z</time>
      </trkpt>
      <trkpt lat="45.667179962620139" lon="8.05850001052022">
        <ele>1415.491</ele>
        <time>2011-11-01T13:19:41Z</time>
      </trkpt>
      <trkpt lat="45.667130006477237" lon="8.058530017733574">
        <ele>1415.1859999999999</ele>
        <time>2011-11-01T13:20:01Z</time>
      </trkpt>
      <trkpt lat="45.667079966515303" lon="8.058539992198348">
        <ele>1413.662</ele>
        <time>2011-11-01T13:20:09Z</time>
      </trkpt>
      <trkpt lat="45.666869999840856" lon="8.058549966663122">
        <ele>1411.8340000000001</ele>
        <time>2011-11-01T13:20:27Z</time>
      </trkpt>
      <trkpt lat="45.666649974882603" lon="8.058560024946928">
        <ele>1410.614</ele>
        <time>2011-11-01T13:20:44Z</time>
      </trkpt>
      <trkpt lat="45.666379993781447" lon="8.058519959449768">
        <ele>1411.2239999999999</ele>
        <time>2011-11-01T13:21:06Z</time>
      </trkpt>
      <trkpt lat="45.666210008785129" lon="8.05847997777164">
        <ele>1410.3099999999999</ele>
        <time>2011-11-01T13:21:21Z</time>
      </trkpt>
      <trkpt lat="45.666119987145066" lon="8.058490036055446">
        <ele>1409.7</ele>
        <time>2011-11-01T13:21:27Z</time>
      </trkpt>
      <trkpt lat="45.665919994935393" lon="8.058620039373636">
        <ele>1409.7</ele>
        <time>2011-11-01T13:21:45Z</time>
      </trkpt>
      <trkpt lat="45.665729977190495" lon="8.058769991621375">
        <ele>1408.7860000000001</ele>
        <time>2011-11-01T13:22:03Z</time>
      </trkpt>
      <trkpt lat="45.665669962763786" lon="8.058820031583309">
        <ele>1408.481</ele>
        <time>2011-11-01T13:22:09Z</time>
      </trkpt>
      <trkpt lat="45.665410039946437" lon="8.058939976617694">
        <ele>1408.481</ele>
        <time>2011-11-01T13:22:30Z</time>
      </trkpt>
      <trkpt lat="45.665320018306375" lon="8.058979958295822">
        <ele>1408.481</ele>
        <time>2011-11-01T13:22:38Z</time>
      </trkpt>
      <trkpt lat="45.665130000561476" lon="8.059139968827367">
        <ele>1405.433</ele>
        <time>2011-11-01T13:22:57Z</time>
      </trkpt>
      <trkpt lat="45.665120026096702" lon="8.059160001575947">
        <ele>1405.433</ele>
        <time>2011-11-01T13:22:58Z</time>
      </trkpt>
      <trkpt lat="45.665050037205219" lon="8.059440040960908">
        <ele>1403.9090000000001</ele>
        <time>2011-11-01T13:23:16Z</time>
      </trkpt>
      <trkpt lat="45.665109967812896" lon="8.059710022062063">
        <ele>1402.9939999999999</ele>
        <time>2011-11-01T13:23:32Z</time>
      </trkpt>
      <trkpt lat="45.665209963917732" lon="8.060049992054701">
        <ele>1401.1659999999999</ele>
        <time>2011-11-01T13:23:52Z</time>
      </trkpt>
      <trkpt lat="45.665320018306375" lon="8.060360038653016">
        <ele>1399.6420000000001</ele>
        <time>2011-11-01T13:24:13Z</time>
      </trkpt>
      <trkpt lat="45.665390007197857" lon="8.060560030862689">
        <ele>1398.7270000000001</ele>
        <time>2011-11-01T13:24:27Z</time>
      </trkpt>
      <trkpt lat="45.665480028837919" lon="8.060830011963844">
        <ele>1396.8979999999999</ele>
        <time>2011-11-01T13:24:47Z</time>
      </trkpt>
      <trkpt lat="45.665339967235923" lon="8.06112002581358">
        <ele>1395.374</ele>
        <time>2011-11-01T13:25:05Z</time>
      </trkpt>
      <trkpt lat="45.66516000777483" lon="8.061290010809898">
        <ele>1394.46</ele>
        <time>2011-11-01T13:25:23Z</time>
      </trkpt>
      <trkpt lat="45.665030004456639" lon="8.061420014128089">
        <ele>1392.9359999999999</ele>
        <time>2011-11-01T13:25:36Z</time>
      </trkpt>
      <trkpt lat="45.664869993925095" lon="8.061650013551116">
        <ele>1391.412</ele>
        <time>2011-11-01T13:25:55Z</time>
      </trkpt>
      <trkpt lat="45.664720041677356" lon="8.061850005760789">
        <ele>1390.193</ele>
        <time>2011-11-01T13:26:12Z</time>
      </trkpt>
      <trkpt lat="45.664560031145811" lon="8.062129961326718">
        <ele>1387.7539999999999</ele>
        <time>2011-11-01T13:26:34Z</time>
      </trkpt>
      <trkpt lat="45.664400020614266" lon="8.062379993498325">
        <ele>1385.6210000000001</ele>
        <time>2011-11-01T13:26:54Z</time>
      </trkpt>
      <trkpt lat="45.664289966225624" lon="8.062630025669932">
        <ele>1383.7919999999999</ele>
        <time>2011-11-01T13:27:14Z</time>
      </trkpt>
      <trkpt lat="45.664200028404593" lon="8.062760028988123">
        <ele>1384.402</ele>
        <time>2011-11-01T13:27:27Z</time>
      </trkpt>
      <trkpt lat="45.663949996232986" lon="8.062770003452897">
        <ele>1383.4870000000001</ele>
        <time>2011-11-01T13:27:47Z</time>
      </trkpt>
      <trkpt lat="45.663889981806278" lon="8.062770003452897">
        <ele>1383.7919999999999</ele>
        <time>2011-11-01T13:28:00Z</time>
      </trkpt>
      <trkpt lat="45.66387003287673" lon="8.062749970704317">
        <ele>1383.4870000000001</ele>
        <time>2011-11-01T13:28:35Z</time>
      </trkpt>
    </trkseg>
  </trk>

</gpx>